PWSweather.com
Personal Weather Stations
Station Observations
KFLTARPO8
Harbour Watch, Tarpon Springs, FL 34689

Harbour WatchTarpon Springs, FL 34689

Lat: 28.16877, Lon: -82.792412

Elevation: 16

Station Type: Davis Vantage Pro2

Latest ConditionsUpdated 7:10:03 PM EDT Saturday, Jul 21, 2018
Currently Today's Max Today's Min Today's Average
Temperature 83.2°F28.4°C 90.9°F32.7°C 78.7°F25.9°C 85.1°F29.5°C
Dew Point 76.4°F24.7°C 82.4°F28.0°C 74.5°F23.6°C 78.4°F25.8°C
Winds Calm Calm 20.0 mph -32.2 kmh - - 5.8 mph 9.3 kmh
Wind Gusts 4.0 mph6.4 kmh 22.0 mph35.4 kmh - -
Humidity 80% 88% 72% 81%
Pressure 29.84 in1010.5 mb 29.95 in1014.2 mb 29.83 in1010.2 mb -
Precipitation - 0.07 in1.8 mm - -
Hour Temp Dew Point Humidity Winds Wind Gusts Pressure Precip Precip Rate Daily Precip Total
07:10 PM 83.2°F28.4°C 76.4°F24.7°C 80% Calm Calm 4.0 mph6.4 kmh 29.84 in1010.5 mb 0.00 in0.0 mm 0.00 in0.0 mm 0.07 in1.8 mm
07:09 PM 83.2°F28.4°C 76.4°F24.7°C 80% 2.0 mph WSW3.2 kmh WSW 4.0 mph6.4 kmh 29.84 in1010.5 mb 0.00 in0.0 mm 0.00 in0.0 mm 0.07 in1.8 mm
07:08 PM 83.2°F28.4°C 76.4°F24.7°C 80% 2.0 mph WSW3.2 kmh WSW 3.0 mph4.8 kmh 29.84 in1010.5 mb 0.00 in0.0 mm 0.00 in0.0 mm 0.07 in1.8 mm
07:07 PM 83.2°F28.4°C 76.0°F24.4°C 79% 1.0 mph WSW1.6 kmh WSW 3.0 mph4.8 kmh 29.84 in1010.5 mb 0.00 in0.0 mm 0.00 in0.0 mm 0.07 in1.8 mm
07:06 PM 83.2°F28.4°C 76.0°F24.4°C 79% 1.0 mph SW1.6 kmh SW 3.0 mph4.8 kmh 29.83 in1010.2 mb 0.00 in0.0 mm 0.00 in0.0 mm 0.07 in1.8 mm
07:05 PM 83.2°F28.4°C 76.0°F24.4°C 79% Calm Calm 3.0 mph4.8 kmh 29.83 in1010.2 mb 0.00 in0.0 mm 0.00 in0.0 mm 0.07 in1.8 mm
07:04 PM 83.3°F28.5°C 76.1°F24.5°C 79% Calm Calm 3.0 mph4.8 kmh 29.83 in1010.2 mb 0.00 in0.0 mm 0.00 in0.0 mm 0.07 in1.8 mm
07:03 PM 83.3°F28.5°C 76.1°F24.5°C 79% Calm Calm 3.0 mph4.8 kmh 29.83 in1010.2 mb 0.00 in0.0 mm 0.00 in0.0 mm 0.07 in1.8 mm
07:02 PM 83.4°F28.6°C 76.2°F24.6°C 79% Calm Calm 3.0 mph4.8 kmh 29.83 in1010.2 mb 0.00 in0.0 mm 0.00 in0.0 mm 0.07 in1.8 mm
07:01 PM 83.4°F28.6°C 75.8°F24.3°C 78% Calm Calm 3.0 mph4.8 kmh 29.83 in1010.2 mb 0.00 in0.0 mm 0.00 in0.0 mm 0.07 in1.8 mm
07:00 PM 83.5°F28.6°C 76.3°F24.6°C 79% Calm Calm 2.0 mph3.2 kmh 29.83 in1010.2 mb 0.00 in0.0 mm 0.00 in0.0 mm 0.07 in1.8 mm
06:59 PM 83.6°F28.7°C 76.4°F24.7°C 79% Calm Calm 1.0 mph1.6 kmh 29.83 in1010.2 mb 0.00 in0.0 mm 0.00 in0.0 mm 0.07 in1.8 mm
06:58 PM 83.6°F28.7°C 76.4°F24.7°C 79% Calm Calm 1.0 mph1.6 kmh 29.83 in1010.2 mb 0.00 in0.0 mm 0.00 in0.0 mm 0.07 in1.8 mm
06:57 PM 83.6°F28.7°C 76.4°F24.7°C 79% Calm Calm 1.0 mph1.6 kmh 29.83 in1010.2 mb 0.00 in0.0 mm 0.00 in0.0 mm 0.07 in1.8 mm
06:56 PM 83.7°F28.7°C 76.5°F24.7°C 79% Calm Calm 1.0 mph1.6 kmh 29.83 in1010.2 mb 0.00 in0.0 mm 0.00 in0.0 mm 0.07 in1.8 mm
06:55 PM 83.7°F28.7°C 76.5°F24.7°C 79% Calm Calm 3.0 mph4.8 kmh 29.83 in1010.2 mb 0.00 in0.0 mm 0.00 in0.0 mm 0.07 in1.8 mm
06:54 PM 83.7°F28.7°C 76.5°F24.7°C 79% Calm Calm 3.0 mph4.8 kmh 29.83 in1010.2 mb 0.00 in0.0 mm 0.00 in0.0 mm 0.07 in1.8 mm
06:53 PM 83.8°F28.8°C 76.6°F24.8°C 79% Calm Calm 3.0 mph4.8 kmh 29.83 in1010.2 mb 0.00 in0.0 mm 0.00 in0.0 mm 0.07 in1.8 mm
06:52 PM 83.8°F28.8°C 76.6°F24.8°C 79% Calm Calm 3.0 mph4.8 kmh 29.83 in1010.2 mb 0.00 in0.0 mm 0.00 in0.0 mm 0.07 in1.8 mm
06:51 PM 83.8°F28.8°C 76.6°F24.8°C 79% Calm Calm 3.0 mph4.8 kmh 29.83 in1010.2 mb 0.00 in0.0 mm 0.00 in0.0 mm 0.07 in1.8 mm
06:50 PM 83.8°F28.8°C 77.0°F25.0°C 80% Calm Calm 3.0 mph4.8 kmh 29.84 in1010.5 mb 0.00 in0.0 mm 0.00 in0.0 mm 0.07 in1.8 mm
06:49 PM 83.7°F28.7°C 76.9°F24.9°C 80% Calm Calm 3.0 mph4.8 kmh 29.84 in1010.5 mb 0.00 in0.0 mm 0.00 in0.0 mm 0.07 in1.8 mm
06:48 PM 83.7°F28.7°C 76.9°F24.9°C 80% Calm Calm 3.0 mph4.8 kmh 29.84 in1010.5 mb 0.00 in0.0 mm 0.00 in0.0 mm 0.07 in1.8 mm
06:47 PM 83.7°F28.7°C 76.9°F24.9°C 80% Calm Calm 3.0 mph4.8 kmh 29.84 in1010.5 mb 0.00 in0.0 mm 0.00 in0.0 mm 0.07 in1.8 mm
06:46 PM 83.7°F28.7°C 76.9°F24.9°C 80% 2.0 mph NNE3.2 kmh NNE 3.0 mph4.8 kmh 29.84 in1010.5 mb 0.00 in0.0 mm 0.00 in0.0 mm 0.07 in1.8 mm
06:45 PM 83.7°F28.7°C 76.9°F24.9°C 80% Calm Calm 3.0 mph4.8 kmh 29.84 in1010.5 mb 0.00 in0.0 mm 0.00 in0.0 mm 0.07 in1.8 mm
06:44 PM 83.7°F28.7°C 76.9°F24.9°C 80% Calm Calm 3.0 mph4.8 kmh 29.84 in1010.5 mb 0.00 in0.0 mm 0.00 in0.0 mm 0.07 in1.8 mm
06:43 PM 83.7°F28.7°C 77.2°F25.1°C 81% Calm Calm 3.0 mph4.8 kmh 29.84 in1010.5 mb 0.00 in0.0 mm 0.00 in0.0 mm 0.07 in1.8 mm
06:42 PM 83.6°F28.7°C 77.1°F25.1°C 81% Calm Calm 3.0 mph4.8 kmh 29.84 in1010.5 mb 0.00 in0.0 mm 0.00 in0.0 mm 0.07 in1.8 mm
06:41 PM 83.6°F28.7°C 77.1°F25.1°C 81% Calm Calm 3.0 mph4.8 kmh 29.85 in1010.8 mb 0.00 in0.0 mm 0.00 in0.0 mm 0.07 in1.8 mm
06:40 PM 83.5°F28.6°C 76.7°F24.8°C 80% 1.0 mph N1.6 kmh N 3.0 mph4.8 kmh 29.85 in1010.8 mb 0.00 in0.0 mm 0.00 in0.0 mm 0.07 in1.8 mm
06:39 PM 83.5°F28.6°C 76.7°F24.8°C 80% Calm Calm 3.0 mph4.8 kmh 29.85 in1010.8 mb 0.00 in0.0 mm 0.00 in0.0 mm 0.07 in1.8 mm
06:38 PM 83.5°F28.6°C 77.0°F25.0°C 81% Calm Calm 3.0 mph4.8 kmh 29.85 in1010.8 mb 0.00 in0.0 mm 0.00 in0.0 mm 0.07 in1.8 mm
06:37 PM 83.5°F28.6°C 77.0°F25.0°C 81% Calm Calm 3.0 mph4.8 kmh 29.85 in1010.8 mb 0.00 in0.0 mm 0.00 in0.0 mm 0.07 in1.8 mm
06:36 PM 83.5°F28.6°C 77.0°F25.0°C 81% Calm Calm 3.0 mph4.8 kmh 29.85 in1010.8 mb 0.00 in0.0 mm 0.00 in0.0 mm 0.07 in1.8 mm
06:35 PM 83.4°F28.6°C 76.9°F24.9°C 81% Calm Calm 4.0 mph6.4 kmh 29.85 in1010.8 mb 0.00 in0.0 mm 0.00 in0.0 mm 0.07 in1.8 mm
06:34 PM 83.4°F28.6°C 76.9°F24.9°C 81% Calm Calm 4.0 mph6.4 kmh 29.85 in1010.8 mb 0.00 in0.0 mm 0.00 in0.0 mm 0.07 in1.8 mm
06:33 PM 83.3°F28.5°C 76.8°F24.9°C 81% Calm Calm 4.0 mph6.4 kmh 29.85 in1010.8 mb 0.00 in0.0 mm 0.00 in0.0 mm 0.07 in1.8 mm
06:32 PM 83.3°F28.5°C 76.8°F24.9°C 81% 1.0 mph ENE1.6 kmh ENE 9.0 mph14.5 kmh 29.85 in1010.8 mb 0.00 in0.0 mm 0.00 in0.0 mm 0.07 in1.8 mm
06:31 PM 83.3°F28.5°C 76.8°F24.9°C 81% Calm Calm 10.0 mph16.1 kmh 29.85 in1010.8 mb 0.00 in0.0 mm 0.00 in0.0 mm 0.07 in1.8 mm
06:30 PM 83.3°F28.5°C 76.8°F24.9°C 81% 1.0 mph E1.6 kmh E 10.0 mph16.1 kmh 29.85 in1010.8 mb 0.00 in0.0 mm 0.00 in0.0 mm 0.07 in1.8 mm
06:29 PM 83.2°F28.4°C 76.7°F24.8°C 81% Calm Calm 10.0 mph16.1 kmh 29.85 in1010.8 mb 0.00 in0.0 mm 0.00 in0.0 mm 0.07 in1.8 mm
06:28 PM 83.2°F28.4°C 76.4°F24.7°C 80% 3.0 mph ENE4.8 kmh ENE 10.0 mph16.1 kmh 29.85 in1010.8 mb 0.00 in0.0 mm 0.00 in0.0 mm 0.07 in1.8 mm
06:27 PM 83.2°F28.4°C 76.4°F24.7°C 80% 1.0 mph NE1.6 kmh NE 11.0 mph17.7 kmh 29.86 in1011.2 mb 0.00 in0.0 mm 0.00 in0.0 mm 0.07 in1.8 mm
06:26 PM 83.3°F28.5°C 76.5°F24.7°C 80% 2.0 mph NE3.2 kmh NE 11.0 mph17.7 kmh 29.86 in1011.2 mb 0.00 in0.0 mm 0.00 in0.0 mm 0.07 in1.8 mm
06:25 PM 83.3°F28.5°C 76.5°F24.7°C 80% 1.0 mph NE1.6 kmh NE 11.0 mph17.7 kmh 29.86 in1011.2 mb 0.00 in0.0 mm 0.00 in0.0 mm 0.07 in1.8 mm
06:24 PM 83.3°F28.5°C 76.5°F24.7°C 80% Calm Calm 11.0 mph17.7 kmh 29.86 in1011.2 mb 0.00 in0.0 mm 0.00 in0.0 mm 0.07 in1.8 mm
06:23 PM 83.4°F28.6°C 76.6°F24.8°C 80% 4.0 mph N6.4 kmh N 11.0 mph17.7 kmh 29.86 in1011.2 mb 0.00 in0.0 mm 0.00 in0.0 mm 0.07 in1.8 mm
06:22 PM 83.4°F28.6°C 76.6°F24.8°C 80% 2.0 mph NE3.2 kmh NE 11.0 mph17.7 kmh 29.86 in1011.2 mb 0.00 in0.0 mm 0.00 in0.0 mm 0.07 in1.8 mm
06:21 PM 83.5°F28.6°C 76.7°F24.8°C 80% 4.0 mph NNW6.4 kmh NNW 11.0 mph17.7 kmh 29.86 in1011.2 mb 0.00 in0.0 mm 0.00 in0.0 mm 0.07 in1.8 mm
06:20 PM 83.5°F28.6°C 76.7°F24.8°C 80% 6.0 mph NNW9.7 kmh NNW 11.0 mph17.7 kmh 29.87 in1011.5 mb 0.00 in0.0 mm 0.00 in0.0 mm 0.07 in1.8 mm
06:19 PM 83.6°F28.7°C 76.8°F24.9°C 80% 6.0 mph NE9.7 kmh NE 10.0 mph16.1 kmh 29.87 in1011.5 mb 0.00 in0.0 mm 0.00 in0.0 mm 0.07 in1.8 mm
06:18 PM 83.6°F28.7°C 76.8°F24.9°C 80% 3.0 mph ENE4.8 kmh ENE 10.0 mph16.1 kmh 29.87 in1011.5 mb 0.00 in0.0 mm 0.00 in0.0 mm 0.07 in1.8 mm
06:17 PM 83.6°F28.7°C 77.1°F25.1°C 81% 8.0 mph NE12.9 kmh NE 10.0 mph16.1 kmh 29.87 in1011.5 mb 0.00 in0.0 mm 0.00 in0.0 mm 0.07 in1.8 mm
06:16 PM 83.6°F28.7°C 77.1°F25.1°C 81% 1.0 mph ENE1.6 kmh ENE 10.0 mph16.1 kmh 29.87 in1011.5 mb 0.00 in0.0 mm 0.00 in0.0 mm 0.07 in1.8 mm
06:15 PM 83.5°F28.6°C 77.0°F25.0°C 81% 2.0 mph E3.2 kmh E 10.0 mph16.1 kmh 29.87 in1011.5 mb 0.00 in0.0 mm 0.00 in0.0 mm 0.07 in1.8 mm
06:14 PM 83.5°F28.6°C 77.0°F25.0°C 81% 1.0 mph ENE1.6 kmh ENE 10.0 mph16.1 kmh 29.87 in1011.5 mb 0.00 in0.0 mm 0.00 in0.0 mm 0.07 in1.8 mm
06:13 PM 83.4°F28.6°C 76.9°F24.9°C 81% 2.0 mph N3.2 kmh N 10.0 mph16.1 kmh 29.87 in1011.5 mb 0.00 in0.0 mm 0.00 in0.0 mm 0.07 in1.8 mm
06:12 PM 83.4°F28.6°C 76.9°F24.9°C 81% Calm Calm 10.0 mph16.1 kmh 29.87 in1011.5 mb 0.00 in0.0 mm 0.00 in0.0 mm 0.07 in1.8 mm
06:11 PM 83.3°F28.5°C 76.8°F24.9°C 81% 2.0 mph N3.2 kmh N 10.0 mph16.1 kmh 29.87 in1011.5 mb 0.00 in0.0 mm 0.00 in0.0 mm 0.07 in1.8 mm
06:10 PM 83.3°F28.5°C 76.8°F24.9°C 81% 6.0 mph NE9.7 kmh NE 10.0 mph16.1 kmh 29.88 in1011.9 mb 0.00 in0.0 mm 0.00 in0.0 mm 0.07 in1.8 mm
06:09 PM 83.3°F28.5°C 76.8°F24.9°C 81% 3.0 mph NE4.8 kmh NE 8.0 mph12.9 kmh 29.88 in1011.9 mb 0.00 in0.0 mm 0.00 in0.0 mm 0.07 in1.8 mm
06:08 PM 83.2°F28.4°C 76.7°F24.8°C 81% 1.0 mph NE1.6 kmh NE 8.0 mph12.9 kmh 29.88 in1011.9 mb 0.00 in0.0 mm 0.00 in0.0 mm 0.07 in1.8 mm
06:07 PM 83.1°F28.4°C 76.6°F24.8°C 81% 4.0 mph NE6.4 kmh NE 8.0 mph12.9 kmh 29.88 in1011.9 mb 0.00 in0.0 mm 0.00 in0.0 mm 0.07 in1.8 mm
06:06 PM 83.1°F28.4°C 76.6°F24.8°C 81% 2.0 mph NNW3.2 kmh NNW 8.0 mph12.9 kmh 29.88 in1011.9 mb 0.00 in0.0 mm 0.00 in0.0 mm 0.07 in1.8 mm
06:05 PM 83.0°F28.3°C 76.5°F24.7°C 81% 2.0 mph NE3.2 kmh NE 8.0 mph12.9 kmh 29.88 in1011.9 mb 0.00 in0.0 mm 0.00 in0.0 mm 0.07 in1.8 mm
06:04 PM 83.1°F28.4°C 76.6°F24.8°C 81% 5.0 mph NE8.0 kmh NE 8.0 mph12.9 kmh 29.88 in1011.9 mb 0.00 in0.0 mm 0.00 in0.0 mm 0.07 in1.8 mm
06:03 PM 83.0°F28.3°C 76.5°F24.7°C 81% 2.0 mph NE3.2 kmh NE 8.0 mph12.9 kmh 29.88 in1011.9 mb 0.00 in0.0 mm 0.00 in0.0 mm 0.07 in1.8 mm
06:02 PM 83.1°F28.4°C 76.6°F24.8°C 81% 2.0 mph N3.2 kmh N 9.0 mph14.5 kmh 29.88 in1011.9 mb 0.00 in0.0 mm 0.00 in0.0 mm 0.07 in1.8 mm
06:01 PM 83.1°F28.4°C 76.6°F24.8°C 81% Calm Calm 9.0 mph14.5 kmh 29.88 in1011.9 mb 0.00 in0.0 mm 0.00 in0.0 mm 0.07 in1.8 mm
06:00 PM 83.1°F28.4°C 76.6°F24.8°C 81% Calm Calm 9.0 mph14.5 kmh 29.88 in1011.9 mb 0.00 in0.0 mm 0.00 in0.0 mm 0.07 in1.8 mm
05:59 PM 83.1°F28.4°C 76.6°F24.8°C 81% 3.0 mph NE4.8 kmh NE 11.0 mph17.7 kmh 29.88 in1011.9 mb 0.00 in0.0 mm 0.00 in0.0 mm 0.07 in1.8 mm
05:58 PM 83.1°F28.4°C 76.6°F24.8°C 81% 1.0 mph ENE1.6 kmh ENE 13.0 mph20.9 kmh 29.88 in1011.9 mb 0.00 in0.0 mm 0.00 in0.0 mm 0.07 in1.8 mm
05:57 PM 83.1°F28.4°C 76.6°F24.8°C 81% Calm Calm 13.0 mph20.9 kmh 29.88 in1011.9 mb 0.00 in0.0 mm 0.00 in0.0 mm 0.07 in1.8 mm
05:56 PM 83.1°F28.4°C 76.6°F24.8°C 81% 2.0 mph E3.2 kmh E 13.0 mph20.9 kmh 29.88 in1011.9 mb 0.00 in0.0 mm 0.00 in0.0 mm 0.07 in1.8 mm
05:55 PM 83.1°F28.4°C 76.3°F24.6°C 80% 2.0 mph ENE3.2 kmh ENE 16.0 mph25.7 kmh 29.88 in1011.9 mb 0.00 in0.0 mm 0.00 in0.0 mm 0.07 in1.8 mm
05:54 PM 83.1°F28.4°C 76.3°F24.6°C 80% 2.0 mph ENE3.2 kmh ENE 16.0 mph25.7 kmh 29.88 in1011.9 mb 0.00 in0.0 mm 0.00 in0.0 mm 0.07 in1.8 mm
05:53 PM 83.2°F28.4°C 76.4°F24.7°C 80% 4.0 mph E6.4 kmh E 16.0 mph25.7 kmh 29.89 in1012.2 mb 0.00 in0.0 mm 0.00 in0.0 mm 0.07 in1.8 mm
05:52 PM 83.3°F28.5°C 76.5°F24.7°C 80% 9.0 mph ENE14.5 kmh ENE 16.0 mph25.7 kmh 29.89 in1012.2 mb 0.00 in0.0 mm 0.00 in0.0 mm 0.07 in1.8 mm
05:51 PM 83.4°F28.6°C 76.6°F24.8°C 80% 11.0 mph NNE17.7 kmh NNE 16.0 mph25.7 kmh 29.89 in1012.2 mb 0.00 in0.0 mm 0.00 in0.0 mm 0.07 in1.8 mm
05:50 PM 83.4°F28.6°C 76.2°F24.6°C 79% 5.0 mph NE8.0 kmh NE 16.0 mph25.7 kmh 29.89 in1012.2 mb 0.00 in0.0 mm 0.00 in0.0 mm 0.07 in1.8 mm
05:49 PM 83.6°F28.7°C 76.4°F24.7°C 79% 6.0 mph ENE9.7 kmh ENE 16.0 mph25.7 kmh 29.89 in1012.2 mb 0.00 in0.0 mm 0.00 in0.0 mm 0.07 in1.8 mm
05:48 PM 83.7°F28.7°C 76.5°F24.7°C 79% 9.0 mph NNE14.5 kmh NNE 17.0 mph27.4 kmh 29.89 in1012.2 mb 0.00 in0.0 mm 0.00 in0.0 mm 0.07 in1.8 mm
05:47 PM 83.9°F28.8°C 76.3°F24.6°C 78% 8.0 mph NNE12.9 kmh NNE 17.0 mph27.4 kmh 29.89 in1012.2 mb 0.00 in0.0 mm 0.00 in0.0 mm 0.07 in1.8 mm
05:46 PM 84.2°F29.0°C 76.6°F24.8°C 78% 5.0 mph NE8.0 kmh NE 17.0 mph27.4 kmh 29.89 in1012.2 mb 0.00 in0.0 mm 0.00 in0.0 mm 0.07 in1.8 mm
05:45 PM 84.5°F29.2°C 76.9°F24.9°C 78% 8.0 mph NE12.9 kmh NE 19.0 mph30.6 kmh 29.89 in1012.2 mb 0.00 in0.0 mm 0.00 in0.0 mm 0.07 in1.8 mm
05:44 PM 84.7°F29.3°C 76.7°F24.8°C 77% 5.0 mph NE8.0 kmh NE 19.0 mph30.6 kmh 29.89 in1012.2 mb 0.00 in0.0 mm 0.00 in0.0 mm 0.07 in1.8 mm
05:43 PM 85.1°F29.5°C 77.1°F25.1°C 77% 9.0 mph NE14.5 kmh NE 19.0 mph30.6 kmh 29.90 in1012.5 mb 0.00 in0.0 mm 0.00 in0.0 mm 0.07 in1.8 mm
05:42 PM 85.5°F29.7°C 77.0°F25.0°C 76% 7.0 mph E11.3 kmh E 19.0 mph30.6 kmh 29.90 in1012.5 mb 0.00 in0.0 mm 0.00 in0.0 mm 0.07 in1.8 mm
05:41 PM 85.9°F29.9°C 77.0°F25.0°C 75% 9.0 mph NNE14.5 kmh NNE 20.0 mph32.2 kmh 29.90 in1012.5 mb 0.00 in0.0 mm 0.00 in0.0 mm 0.07 in1.8 mm
05:40 PM 86.3°F30.2°C 77.4°F25.2°C 75% 8.0 mph ENE12.9 kmh ENE 20.0 mph32.2 kmh 29.90 in1012.5 mb 0.00 in0.0 mm 0.00 in0.0 mm 0.07 in1.8 mm
05:39 PM 86.6°F30.3°C 77.7°F25.4°C 75% 11.0 mph N17.7 kmh N 20.0 mph32.2 kmh 29.90 in1012.5 mb 0.00 in0.0 mm 0.00 in0.0 mm 0.07 in1.8 mm
05:38 PM 86.8°F30.4°C 77.5°F25.3°C 74% 11.0 mph NE17.7 kmh NE 20.0 mph32.2 kmh 29.90 in1012.5 mb 0.00 in0.0 mm 0.00 in0.0 mm 0.07 in1.8 mm
05:37 PM 87.0°F30.6°C 77.7°F25.4°C 74% 14.0 mph NNE22.5 kmh NNE 20.0 mph32.2 kmh 29.90 in1012.5 mb 0.00 in0.0 mm 0.00 in0.0 mm 0.07 in1.8 mm
05:36 PM 87.2°F30.7°C 77.9°F25.5°C 74% 16.0 mph WNW25.7 kmh WNW 20.0 mph32.2 kmh 29.90 in1012.5 mb 0.00 in0.0 mm 0.00 in0.0 mm 0.07 in1.8 mm
05:35 PM 87.4°F30.8°C 77.7°F25.4°C 73% 5.0 mph NNE8.0 kmh NNE 20.0 mph32.2 kmh 29.90 in1012.5 mb 0.00 in0.0 mm 0.00 in0.0 mm 0.07 in1.8 mm
05:34 PM 87.6°F30.9°C 77.8°F25.4°C 73% 3.0 mph NE4.8 kmh NE 20.0 mph32.2 kmh 29.90 in1012.5 mb 0.00 in0.0 mm 0.00 in0.0 mm 0.07 in1.8 mm
05:33 PM 87.9°F31.1°C 78.1°F25.6°C 73% 11.0 mph N17.7 kmh N 20.0 mph32.2 kmh 29.90 in1012.5 mb 0.00 in0.0 mm 0.00 in0.0 mm 0.07 in1.8 mm
05:32 PM 88.2°F31.2°C 78.4°F25.8°C 73% 8.0 mph NNE12.9 kmh NNE 20.0 mph32.2 kmh 29.90 in1012.5 mb 0.00 in0.0 mm 0.00 in0.0 mm 0.07 in1.8 mm
05:31 PM 88.6°F31.4°C 79.6°F26.4°C 75% 6.0 mph NE9.7 kmh NE 16.0 mph25.7 kmh 29.90 in1012.5 mb 0.00 in0.0 mm 0.00 in0.0 mm 0.07 in1.8 mm
05:30 PM 88.8°F31.6°C 80.2°F26.8°C 76% 6.0 mph N9.7 kmh N 13.0 mph20.9 kmh 29.90 in1012.5 mb 0.00 in0.0 mm 0.00 in0.0 mm 0.07 in1.8 mm
05:29 PM 88.9°F31.6°C 80.3°F26.8°C 76% 8.0 mph NW12.9 kmh NW 13.0 mph20.9 kmh 29.90 in1012.5 mb 0.00 in0.0 mm 0.00 in0.0 mm 0.07 in1.8 mm
05:28 PM 89.0°F31.7°C 80.8°F27.1°C 77% 10.0 mph N16.1 kmh N 13.0 mph20.9 kmh 29.90 in1012.5 mb 0.00 in0.0 mm 0.00 in0.0 mm 0.07 in1.8 mm
05:27 PM 89.0°F31.7°C 80.8°F27.1°C 77% 5.0 mph N8.0 kmh N 13.0 mph20.9 kmh 29.90 in1012.5 mb 0.00 in0.0 mm 0.00 in0.0 mm 0.07 in1.8 mm
05:26 PM 89.0°F31.7°C 80.4°F26.9°C 76% 1.0 mph NNW1.6 kmh NNW 13.0 mph20.9 kmh 29.90 in1012.5 mb 0.00 in0.0 mm 0.00 in0.0 mm 0.07 in1.8 mm
05:25 PM 89.0°F31.7°C 80.4°F26.9°C 76% 9.0 mph WNW14.5 kmh WNW 13.0 mph20.9 kmh 29.90 in1012.5 mb 0.00 in0.0 mm 0.00 in0.0 mm 0.07 in1.8 mm
05:24 PM 89.0°F31.7°C 80.4°F26.9°C 76% 2.0 mph NNW3.2 kmh NNW 13.0 mph20.9 kmh 29.90 in1012.5 mb 0.00 in0.0 mm 0.00 in0.0 mm 0.07 in1.8 mm
05:23 PM 89.0°F31.7°C 80.4°F26.9°C 76% 2.0 mph N3.2 kmh N 13.0 mph20.9 kmh 29.90 in1012.5 mb 0.00 in0.0 mm 0.00 in0.0 mm 0.07 in1.8 mm
05:22 PM 89.0°F31.7°C 80.4°F26.9°C 76% 6.0 mph N9.7 kmh N 13.0 mph20.9 kmh 29.90 in1012.5 mb 0.00 in0.0 mm 0.00 in0.0 mm 0.07 in1.8 mm
05:21 PM 89.0°F31.7°C 80.0°F26.7°C 75% 11.0 mph N17.7 kmh N 13.0 mph20.9 kmh 29.90 in1012.5 mb 0.00 in0.0 mm 0.00 in0.0 mm 0.07 in1.8 mm
05:20 PM 89.0°F31.7°C 80.0°F26.7°C 75% 8.0 mph NNW12.9 kmh NNW 13.0 mph20.9 kmh 29.90 in1012.5 mb 0.00 in0.0 mm 0.00 in0.0 mm 0.07 in1.8 mm
05:19 PM 89.0°F31.7°C 80.0°F26.7°C 75% 4.0 mph NE6.4 kmh NE 13.0 mph20.9 kmh 29.90 in1012.5 mb 0.00 in0.0 mm 0.00 in0.0 mm 0.07 in1.8 mm
05:18 PM 89.0°F31.7°C 80.4°F26.9°C 76% 8.0 mph N12.9 kmh N 11.0 mph17.7 kmh 29.90 in1012.5 mb 0.00 in0.0 mm 0.00 in0.0 mm 0.07 in1.8 mm
05:17 PM 89.1°F31.7°C 80.5°F26.9°C 76% 4.0 mph NE6.4 kmh NE 11.0 mph17.7 kmh 29.90 in1012.5 mb 0.00 in0.0 mm 0.00 in0.0 mm 0.07 in1.8 mm
05:16 PM 89.1°F31.7°C 80.5°F26.9°C 76% 1.0 mph NNW1.6 kmh NNW 12.0 mph19.3 kmh 29.90 in1012.5 mb 0.00 in0.0 mm 0.00 in0.0 mm 0.07 in1.8 mm
05:15 PM 89.1°F31.7°C 80.5°F26.9°C 76% 3.0 mph NE4.8 kmh NE 12.0 mph19.3 kmh 29.90 in1012.5 mb 0.00 in0.0 mm 0.00 in0.0 mm 0.07 in1.8 mm
05:14 PM 89.1°F31.7°C 80.1°F26.7°C 75% 1.0 mph NNW1.6 kmh NNW 12.0 mph19.3 kmh 29.90 in1012.5 mb 0.00 in0.0 mm 0.00 in0.0 mm 0.07 in1.8 mm
05:13 PM 89.1°F31.7°C 80.1°F26.7°C 75% Calm Calm 12.0 mph19.3 kmh 29.90 in1012.5 mb 0.00 in0.0 mm 0.00 in0.0 mm 0.07 in1.8 mm
05:12 PM 89.1°F31.7°C 80.1°F26.7°C 75% 8.0 mph ENE12.9 kmh ENE 12.0 mph19.3 kmh 29.90 in1012.5 mb 0.00 in0.0 mm 0.00 in0.0 mm 0.07 in1.8 mm
05:11 PM 89.1°F31.7°C 80.1°F26.7°C 75% 1.0 mph NW1.6 kmh NW 13.0 mph20.9 kmh 29.90 in1012.5 mb 0.00 in0.0 mm 0.00 in0.0 mm 0.07 in1.8 mm
05:10 PM 89.2°F31.8°C 80.2°F26.8°C 75% 5.0 mph WNW8.0 kmh WNW 13.0 mph20.9 kmh 29.90 in1012.5 mb 0.00 in0.0 mm 0.00 in0.0 mm 0.07 in1.8 mm
05:09 PM 89.2°F31.8°C 80.2°F26.8°C 75% 3.0 mph ESE4.8 kmh ESE 13.0 mph20.9 kmh 29.90 in1012.5 mb 0.00 in0.0 mm 0.00 in0.0 mm 0.07 in1.8 mm
05:08 PM 89.2°F31.8°C 80.2°F26.8°C 75% 8.0 mph NW12.9 kmh NW 13.0 mph20.9 kmh 29.90 in1012.5 mb 0.00 in0.0 mm 0.00 in0.0 mm 0.07 in1.8 mm
05:07 PM 89.3°F31.8°C 80.3°F26.8°C 75% 5.0 mph NNW8.0 kmh NNW 13.0 mph20.9 kmh 29.90 in1012.5 mb 0.00 in0.0 mm 0.00 in0.0 mm 0.07 in1.8 mm
05:06 PM 89.3°F31.8°C 80.3°F26.8°C 75% 6.0 mph NE9.7 kmh NE 13.0 mph20.9 kmh 29.90 in1012.5 mb 0.00 in0.0 mm 0.00 in0.0 mm 0.07 in1.8 mm
05:05 PM 89.2°F31.8°C 80.2°F26.8°C 75% 3.0 mph NNW4.8 kmh NNW 13.0 mph20.9 kmh 29.90 in1012.5 mb 0.00 in0.0 mm 0.00 in0.0 mm 0.07 in1.8 mm
05:04 PM 89.3°F31.8°C 80.3°F26.8°C 75% 3.0 mph NW4.8 kmh NW 13.0 mph20.9 kmh 29.90 in1012.5 mb 0.00 in0.0 mm 0.00 in0.0 mm 0.07 in1.8 mm
05:03 PM 89.2°F31.8°C 80.2°F26.8°C 75% Calm Calm 12.0 mph19.3 kmh 29.90 in1012.5 mb 0.00 in0.0 mm 0.00 in0.0 mm 0.07 in1.8 mm
05:02 PM 89.2°F31.8°C 80.2°F26.8°C 75% 6.0 mph NNW9.7 kmh NNW 12.0 mph19.3 kmh 29.90 in1012.5 mb 0.00 in0.0 mm 0.00 in0.0 mm 0.07 in1.8 mm
05:01 PM 89.2°F31.8°C 80.2°F26.8°C 75% 3.0 mph NNW4.8 kmh NNW 12.0 mph19.3 kmh 29.91 in1012.9 mb 0.00 in0.0 mm 0.00 in0.0 mm 0.07 in1.8 mm
05:00 PM 89.2°F31.8°C 80.2°F26.8°C 75% Calm Calm 12.0 mph19.3 kmh 29.91 in1012.9 mb 0.00 in0.0 mm 0.00 in0.0 mm 0.07 in1.8 mm
04:59 PM 89.2°F31.8°C 80.2°F26.8°C 75% 8.0 mph NNW12.9 kmh NNW 11.0 mph17.7 kmh 29.91 in1012.9 mb 0.00 in0.0 mm 0.00 in0.0 mm 0.07 in1.8 mm
04:58 PM 89.1°F31.7°C 80.1°F26.7°C 75% 5.0 mph NE8.0 kmh NE 14.0 mph22.5 kmh 29.91 in1012.9 mb 0.00 in0.0 mm 0.00 in0.0 mm 0.07 in1.8 mm
04:57 PM 89.1°F31.7°C 80.1°F26.7°C 75% 3.0 mph N4.8 kmh N 14.0 mph22.5 kmh 29.91 in1012.9 mb 0.00 in0.0 mm 0.00 in0.0 mm 0.07 in1.8 mm
04:56 PM 89.1°F31.7°C 80.1°F26.7°C 75% 1.0 mph WNW1.6 kmh WNW 14.0 mph22.5 kmh 29.91 in1012.9 mb 0.00 in0.0 mm 0.00 in0.0 mm 0.07 in1.8 mm
04:55 PM 89.0°F31.7°C 79.6°F26.4°C 74% 5.0 mph NNE8.0 kmh NNE 14.0 mph22.5 kmh 29.91 in1012.9 mb 0.00 in0.0 mm 0.00 in0.0 mm 0.07 in1.8 mm
04:54 PM 89.0°F31.7°C 79.6°F26.4°C 74% 3.0 mph NNW4.8 kmh NNW 14.0 mph22.5 kmh 29.91 in1012.9 mb 0.00 in0.0 mm 0.00 in0.0 mm 0.07 in1.8 mm
04:53 PM 89.0°F31.7°C 79.6°F26.4°C 74% 5.0 mph N8.0 kmh N 14.0 mph22.5 kmh 29.91 in1012.9 mb 0.00 in0.0 mm 0.00 in0.0 mm 0.07 in1.8 mm
04:52 PM 89.0°F31.7°C 79.6°F26.4°C 74% 8.0 mph N12.9 kmh N 14.0 mph22.5 kmh 29.91 in1012.9 mb 0.00 in0.0 mm 0.00 in0.0 mm 0.07 in1.8 mm
04:51 PM 89.0°F31.7°C 79.6°F26.4°C 74% 4.0 mph N6.4 kmh N 14.0 mph22.5 kmh 29.91 in1012.9 mb 0.00 in0.0 mm 0.00 in0.0 mm 0.07 in1.8 mm
04:50 PM 89.0°F31.7°C 79.6°F26.4°C 74% 10.0 mph N16.1 kmh N 14.0 mph22.5 kmh 29.91 in1012.9 mb 0.00 in0.0 mm 0.00 in0.0 mm 0.07 in1.8 mm
04:49 PM 89.0°F31.7°C 79.6°F26.4°C 74% Calm Calm 14.0 mph22.5 kmh 29.91 in1012.9 mb 0.00 in0.0 mm 0.00 in0.0 mm 0.07 in1.8 mm
04:48 PM 89.0°F31.7°C 79.6°F26.4°C 74% 7.0 mph NNE11.3 kmh NNE 15.0 mph24.1 kmh 29.91 in1012.9 mb 0.00 in0.0 mm 0.00 in0.0 mm 0.07 in1.8 mm
04:47 PM 89.0°F31.7°C 79.2°F26.2°C 73% 8.0 mph W12.9 kmh W 15.0 mph24.1 kmh 29.91 in1012.9 mb 0.00 in0.0 mm 0.00 in0.0 mm 0.07 in1.8 mm
04:46 PM 89.1°F31.7°C 79.7°F26.5°C 74% 3.0 mph NW4.8 kmh NW 15.0 mph24.1 kmh 29.91 in1012.9 mb 0.00 in0.0 mm 0.00 in0.0 mm 0.07 in1.8 mm
04:45 PM 89.1°F31.7°C 79.7°F26.5°C 74% 12.0 mph WNW19.3 kmh WNW 15.0 mph24.1 kmh 29.91 in1012.9 mb 0.00 in0.0 mm 0.00 in0.0 mm 0.07 in1.8 mm
04:44 PM 89.1°F31.7°C 79.3°F26.3°C 73% 2.0 mph NNW3.2 kmh NNW 15.0 mph24.1 kmh 29.92 in1013.2 mb 0.00 in0.0 mm 0.00 in0.0 mm 0.07 in1.8 mm
04:43 PM 89.1°F31.7°C 79.3°F26.3°C 73% Calm Calm 16.0 mph25.7 kmh 29.92 in1013.2 mb 0.00 in0.0 mm 0.00 in0.0 mm 0.07 in1.8 mm
04:42 PM 89.2°F31.8°C 79.4°F26.3°C 73% 9.0 mph NW14.5 kmh NW 16.0 mph25.7 kmh 29.92 in1013.2 mb 0.00 in0.0 mm 0.00 in0.0 mm 0.07 in1.8 mm
04:41 PM 89.3°F31.8°C 79.9°F26.6°C 74% 10.0 mph WSW16.1 kmh WSW 16.0 mph25.7 kmh 29.92 in1013.2 mb 0.00 in0.0 mm 0.00 in0.0 mm 0.07 in1.8 mm
04:40 PM 89.4°F31.9°C 80.0°F26.7°C 74% 6.0 mph NW9.7 kmh NW 16.0 mph25.7 kmh 29.92 in1013.2 mb 0.00 in0.0 mm 0.00 in0.0 mm 0.07 in1.8 mm
04:39 PM 89.4°F31.9°C 80.0°F26.7°C 74% 8.0 mph W12.9 kmh W 16.0 mph25.7 kmh 29.92 in1013.2 mb 0.00 in0.0 mm 0.00 in0.0 mm 0.07 in1.8 mm
04:38 PM 89.5°F31.9°C 79.7°F26.5°C 73% 5.0 mph NW8.0 kmh NW 16.0 mph25.7 kmh 29.92 in1013.2 mb 0.00 in0.0 mm 0.00 in0.0 mm 0.07 in1.8 mm
04:37 PM 89.5°F31.9°C 80.1°F26.7°C 74% 5.0 mph NNE8.0 kmh NNE 16.0 mph25.7 kmh 29.92 in1013.2 mb 0.00 in0.0 mm 0.00 in0.0 mm 0.07 in1.8 mm
04:36 PM 89.5°F31.9°C 79.7°F26.5°C 73% 9.0 mph NW14.5 kmh NW 16.0 mph25.7 kmh 29.92 in1013.2 mb 0.00 in0.0 mm 0.00 in0.0 mm 0.07 in1.8 mm
04:35 PM 89.6°F32.0°C 79.8°F26.6°C 73% 12.0 mph NW19.3 kmh NW 16.0 mph25.7 kmh 29.92 in1013.2 mb 0.00 in0.0 mm 0.00 in0.0 mm 0.07 in1.8 mm
04:34 PM 89.6°F32.0°C 79.8°F26.6°C 73% 11.0 mph N17.7 kmh N 15.0 mph24.1 kmh 29.92 in1013.2 mb 0.00 in0.0 mm 0.00 in0.0 mm 0.07 in1.8 mm
04:33 PM 89.7°F32.1°C 79.9°F26.6°C 73% 2.0 mph NW3.2 kmh NW 15.0 mph24.1 kmh 29.93 in1013.5 mb 0.00 in0.0 mm 0.00 in0.0 mm 0.07 in1.8 mm
04:32 PM 89.7°F32.1°C 80.3°F26.8°C 74% 7.0 mph E11.3 kmh E 15.0 mph24.1 kmh 29.93 in1013.5 mb 0.00 in0.0 mm 0.00 in0.0 mm 0.07 in1.8 mm
04:31 PM 89.7°F32.1°C 80.3°F26.8°C 74% 7.0 mph WSW11.3 kmh WSW 15.0 mph24.1 kmh 29.93 in1013.5 mb 0.00 in0.0 mm 0.00 in0.0 mm 0.07 in1.8 mm
04:30 PM 89.7°F32.1°C 80.7°F27.1°C 75% 8.0 mph NW12.9 kmh NW 15.0 mph24.1 kmh 29.93 in1013.5 mb 0.00 in0.0 mm 0.00 in0.0 mm 0.07 in1.8 mm
04:29 PM 89.7°F32.1°C 80.7°F27.1°C 75% 8.0 mph NW12.9 kmh NW 15.0 mph24.1 kmh 29.92 in1013.2 mb 0.00 in0.0 mm 0.00 in0.0 mm 0.07 in1.8 mm
04:28 PM 89.8°F32.1°C 80.8°F27.1°C 75% 5.0 mph NW8.0 kmh NW 15.0 mph24.1 kmh 29.92 in1013.2 mb 0.00 in0.0 mm 0.00 in0.0 mm 0.07 in1.8 mm
04:27 PM 89.8°F32.1°C 80.8°F27.1°C 75% Calm Calm 15.0 mph24.1 kmh 29.92 in1013.2 mb 0.00 in0.0 mm 0.00 in0.0 mm 0.07 in1.8 mm
04:26 PM 89.8°F32.1°C 80.8°F27.1°C 75% 3.0 mph NW4.8 kmh NW 15.0 mph24.1 kmh 29.92 in1013.2 mb 0.00 in0.0 mm 0.00 in0.0 mm 0.07 in1.8 mm
04:25 PM 89.8°F32.1°C 81.2°F27.3°C 76% 3.0 mph NW4.8 kmh NW 15.0 mph24.1 kmh 29.92 in1013.2 mb 0.00 in0.0 mm 0.00 in0.0 mm 0.07 in1.8 mm
04:24 PM 89.8°F32.1°C 81.2°F27.3°C 76% 2.0 mph NW3.2 kmh NW 15.0 mph24.1 kmh 29.93 in1013.5 mb 0.00 in0.0 mm 0.00 in0.0 mm 0.07 in1.8 mm
04:23 PM 89.7°F32.1°C 81.1°F27.3°C 76% 3.0 mph WSW4.8 kmh WSW 16.0 mph25.7 kmh 29.93 in1013.5 mb 0.00 in0.0 mm 0.00 in0.0 mm 0.07 in1.8 mm
04:22 PM 89.7°F32.1°C 81.1°F27.3°C 76% Calm Calm 16.0 mph25.7 kmh 29.92 in1013.2 mb 0.00 in0.0 mm 0.00 in0.0 mm 0.07 in1.8 mm
04:21 PM 89.7°F32.1°C 81.1°F27.3°C 76% 13.0 mph WNW20.9 kmh WNW 16.0 mph25.7 kmh 29.93 in1013.5 mb 0.00 in0.0 mm 0.00 in0.0 mm 0.07 in1.8 mm
04:20 PM 89.7°F32.1°C 81.1°F27.3°C 76% 4.0 mph NW6.4 kmh NW 16.0 mph25.7 kmh 29.93 in1013.5 mb 0.00 in0.0 mm 0.00 in0.0 mm 0.07 in1.8 mm
04:19 PM 89.7°F32.1°C 80.7°F27.1°C 75% 4.0 mph NW6.4 kmh NW 16.0 mph25.7 kmh 29.93 in1013.5 mb 0.00 in0.0 mm 0.00 in0.0 mm 0.07 in1.8 mm
04:18 PM 89.7°F32.1°C 80.7°F27.1°C 75% 4.0 mph WSW6.4 kmh WSW 16.0 mph25.7 kmh 29.93 in1013.5 mb 0.00 in0.0 mm 0.00 in0.0 mm 0.07 in1.8 mm
04:17 PM 89.8°F32.1°C 80.4°F26.9°C 74% 7.0 mph SSE11.3 kmh SSE 16.0 mph25.7 kmh 29.93 in1013.5 mb 0.00 in0.0 mm 0.00 in0.0 mm 0.07 in1.8 mm
04:16 PM 89.8°F32.1°C 80.8°F27.1°C 75% 11.0 mph NNW17.7 kmh NNW 16.0 mph25.7 kmh 29.93 in1013.5 mb 0.00 in0.0 mm 0.00 in0.0 mm 0.07 in1.8 mm
04:15 PM 89.9°F32.2°C 80.9°F27.2°C 75% 12.0 mph NNW19.3 kmh NNW 16.0 mph25.7 kmh 29.93 in1013.5 mb 0.00 in0.0 mm 0.00 in0.0 mm 0.07 in1.8 mm
04:14 PM 90.0°F32.2°C 81.0°F27.2°C 75% 11.0 mph WNW17.7 kmh WNW 16.0 mph25.7 kmh 29.93 in1013.5 mb 0.00 in0.0 mm 0.00 in0.0 mm 0.07 in1.8 mm
04:13 PM 90.1°F32.3°C 81.1°F27.3°C 75% 9.0 mph NNW14.5 kmh NNW 16.0 mph25.7 kmh 29.93 in1013.5 mb 0.00 in0.0 mm 0.00 in0.0 mm 0.07 in1.8 mm
04:12 PM 90.2°F32.3°C 81.2°F27.3°C 75% 3.0 mph SE4.8 kmh SE 16.0 mph25.7 kmh 29.93 in1013.5 mb 0.00 in0.0 mm 0.00 in0.0 mm 0.07 in1.8 mm
04:11 PM 90.3°F32.4°C 81.3°F27.4°C 75% 1.0 mph W1.6 kmh W 16.0 mph25.7 kmh 29.93 in1013.5 mb 0.00 in0.0 mm 0.00 in0.0 mm 0.07 in1.8 mm
04:10 PM 90.4°F32.4°C 81.4°F27.4°C 75% 10.0 mph NW16.1 kmh NW 14.0 mph22.5 kmh 29.93 in1013.5 mb 0.00 in0.0 mm 0.00 in0.0 mm 0.07 in1.8 mm
04:09 PM 90.5°F32.5°C 81.0°F27.2°C 74% 5.0 mph NE8.0 kmh NE 12.0 mph19.3 kmh 29.93 in1013.5 mb 0.00 in0.0 mm 0.00 in0.0 mm 0.07 in1.8 mm
04:08 PM 90.6°F32.6°C 81.1°F27.3°C 74% 4.0 mph W6.4 kmh W 13.0 mph20.9 kmh 29.93 in1013.5 mb 0.00 in0.0 mm 0.00 in0.0 mm 0.07 in1.8 mm
04:07 PM 90.6°F32.6°C 81.1°F27.3°C 74% 5.0 mph NNW8.0 kmh NNW 13.0 mph20.9 kmh 29.93 in1013.5 mb 0.00 in0.0 mm 0.00 in0.0 mm 0.07 in1.8 mm
04:06 PM 90.7°F32.6°C 81.2°F27.3°C 74% 8.0 mph NNW12.9 kmh NNW 14.0 mph22.5 kmh 29.93 in1013.5 mb 0.00 in0.0 mm 0.00 in0.0 mm 0.07 in1.8 mm
04:05 PM 90.8°F32.7°C 81.3°F27.4°C 74% 3.0 mph NW4.8 kmh NW 14.0 mph22.5 kmh 29.93 in1013.5 mb 0.00 in0.0 mm 0.00 in0.0 mm 0.07 in1.8 mm
04:04 PM 90.8°F32.7°C 81.3°F27.4°C 74% 5.0 mph NW8.0 kmh NW 14.0 mph22.5 kmh 29.93 in1013.5 mb 0.00 in0.0 mm 0.00 in0.0 mm 0.07 in1.8 mm
04:03 PM 90.8°F32.7°C 81.3°F27.4°C 74% 3.0 mph E4.8 kmh E 14.0 mph22.5 kmh 29.93 in1013.5 mb 0.00 in0.0 mm 0.00 in0.0 mm 0.07 in1.8 mm
04:02 PM 90.8°F32.7°C 80.9°F27.2°C 73% 11.0 mph N17.7 kmh N 14.0 mph22.5 kmh 29.93 in1013.5 mb 0.00 in0.0 mm 0.00 in0.0 mm 0.07 in1.8 mm
04:01 PM 90.8°F32.7°C 80.9°F27.2°C 73% 4.0 mph NE6.4 kmh NE 14.0 mph22.5 kmh 29.93 in1013.5 mb 0.00 in0.0 mm 0.00 in0.0 mm 0.07 in1.8 mm
04:00 PM 90.8°F32.7°C 80.9°F27.2°C 73% 8.0 mph NNE12.9 kmh NNE 15.0 mph24.1 kmh 29.93 in1013.5 mb 0.00 in0.0 mm 0.00 in0.0 mm 0.07 in1.8 mm
03:59 PM 90.9°F32.7°C 81.0°F27.2°C 73% 8.0 mph NNW12.9 kmh NNW 15.0 mph24.1 kmh 29.93 in1013.5 mb 0.00 in0.0 mm 0.00 in0.0 mm 0.07 in1.8 mm
03:58 PM 90.9°F32.7°C 81.0°F27.2°C 73% 11.0 mph N17.7 kmh N 17.0 mph27.4 kmh 29.93 in1013.5 mb 0.00 in0.0 mm 0.00 in0.0 mm 0.07 in1.8 mm
03:57 PM 90.9°F32.7°C 81.0°F27.2°C 73% 8.0 mph W12.9 kmh W 17.0 mph27.4 kmh 29.93 in1013.5 mb 0.00 in0.0 mm 0.00 in0.0 mm 0.07 in1.8 mm
03:56 PM 90.9°F32.7°C 81.0°F27.2°C 73% 9.0 mph W14.5 kmh W 17.0 mph27.4 kmh 29.93 in1013.5 mb 0.00 in0.0 mm 0.00 in0.0 mm 0.07 in1.8 mm
03:55 PM 90.9°F32.7°C 81.0°F27.2°C 73% 9.0 mph NW14.5 kmh NW 17.0 mph27.4 kmh 29.93 in1013.5 mb 0.00 in0.0 mm 0.00 in0.0 mm 0.07 in1.8 mm
03:54 PM 90.9°F32.7°C 81.0°F27.2°C 73% 3.0 mph W4.8 kmh W 17.0 mph27.4 kmh 29.93 in1013.5 mb 0.00 in0.0 mm 0.00 in0.0 mm 0.07 in1.8 mm
03:53 PM 90.9°F32.7°C 81.0°F27.2°C 73% Calm Calm 17.0 mph27.4 kmh 29.93 in1013.5 mb 0.00 in0.0 mm 0.00 in0.0 mm 0.07 in1.8 mm
03:52 PM 90.9°F32.7°C 81.4°F27.4°C 74% 6.0 mph NNE9.7 kmh NNE 17.0 mph27.4 kmh 29.93 in1013.5 mb 0.00 in0.0 mm 0.00 in0.0 mm 0.07 in1.8 mm
03:51 PM 90.9°F32.7°C 81.4°F27.4°C 74% 6.0 mph SW9.7 kmh SW 17.0 mph27.4 kmh 29.93 in1013.5 mb 0.00 in0.0 mm 0.00 in0.0 mm 0.07 in1.8 mm
03:50 PM 90.8°F32.7°C 81.8°F27.7°C 75% 5.0 mph WNW8.0 kmh WNW 17.0 mph27.4 kmh 29.93 in1013.5 mb 0.00 in0.0 mm 0.00 in0.0 mm 0.07 in1.8 mm
03:49 PM 90.7°F32.6°C 81.7°F27.6°C 75% 5.0 mph NW8.0 kmh NW 16.0 mph25.7 kmh 29.93 in1013.5 mb 0.00 in0.0 mm 0.00 in0.0 mm 0.07 in1.8 mm
03:48 PM 90.6°F32.6°C 81.6°F27.6°C 75% 3.0 mph ENE4.8 kmh ENE 16.0 mph25.7 kmh 29.93 in1013.5 mb 0.00 in0.0 mm 0.00 in0.0 mm 0.07 in1.8 mm
03:47 PM 90.5°F32.5°C 81.5°F27.5°C 75% 5.0 mph NW8.0 kmh NW 16.0 mph25.7 kmh 29.93 in1013.5 mb 0.00 in0.0 mm 0.00 in0.0 mm 0.07 in1.8 mm
03:46 PM 90.5°F32.5°C 81.5°F27.5°C 75% 8.0 mph NW12.9 kmh NW 16.0 mph25.7 kmh 29.93 in1013.5 mb 0.00 in0.0 mm 0.00 in0.0 mm 0.07 in1.8 mm
03:45 PM 90.4°F32.4°C 82.2°F27.9°C 77% 2.0 mph NW3.2 kmh NW 11.0 mph17.7 kmh 29.93 in1013.5 mb 0.00 in0.0 mm 0.00 in0.0 mm 0.07 in1.8 mm
03:44 PM 90.4°F32.4°C 82.2°F27.9°C 77% 4.0 mph NNW6.4 kmh NNW 11.0 mph17.7 kmh 29.93 in1013.5 mb 0.00 in0.0 mm 0.00 in0.0 mm 0.07 in1.8 mm
03:43 PM 90.2°F32.3°C 82.0°F27.8°C 77% 7.0 mph NW11.3 kmh NW 11.0 mph17.7 kmh 29.93 in1013.5 mb 0.00 in0.0 mm 0.00 in0.0 mm 0.07 in1.8 mm
03:42 PM 90.2°F32.3°C 82.4°F28.0°C 78% 4.0 mph NW6.4 kmh NW 11.0 mph17.7 kmh 29.92 in1013.2 mb 0.00 in0.0 mm 0.00 in0.0 mm 0.07 in1.8 mm
03:41 PM 90.1°F32.3°C 81.9°F27.7°C 77% Calm Calm 12.0 mph19.3 kmh 29.93 in1013.5 mb 0.00 in0.0 mm 0.00 in0.0 mm 0.07 in1.8 mm
03:40 PM 90.0°F32.2°C 81.8°F27.7°C 77% 2.0 mph NW3.2 kmh NW 12.0 mph19.3 kmh 29.93 in1013.5 mb 0.00 in0.0 mm 0.00 in0.0 mm 0.07 in1.8 mm
03:39 PM 89.9°F32.2°C 81.3°F27.4°C 76% 3.0 mph NE4.8 kmh NE 13.0 mph20.9 kmh 29.93 in1013.5 mb 0.00 in0.0 mm 0.00 in0.0 mm 0.07 in1.8 mm
03:38 PM 89.9°F32.2°C 80.9°F27.2°C 75% 4.0 mph WNW6.4 kmh WNW 13.0 mph20.9 kmh 29.93 in1013.5 mb 0.00 in0.0 mm 0.00 in0.0 mm 0.07 in1.8 mm
03:37 PM 90.0°F32.2°C 81.0°F27.2°C 75% 10.0 mph NW16.1 kmh NW 13.0 mph20.9 kmh 29.93 in1013.5 mb 0.00 in0.0 mm 0.00 in0.0 mm 0.07 in1.8 mm
03:36 PM 90.0°F32.2°C 81.4°F27.4°C 76% 6.0 mph NW9.7 kmh NW 13.0 mph20.9 kmh 29.93 in1013.5 mb 0.00 in0.0 mm 0.00 in0.0 mm 0.07 in1.8 mm
03:35 PM 90.0°F32.2°C 81.4°F27.4°C 76% 8.0 mph NW12.9 kmh NW 13.0 mph20.9 kmh 29.93 in1013.5 mb 0.00 in0.0 mm 0.00 in0.0 mm 0.07 in1.8 mm
03:34 PM 90.0°F32.2°C 81.0°F27.2°C 75% 2.0 mph NNW3.2 kmh NNW 13.0 mph20.9 kmh 29.93 in1013.5 mb 0.00 in0.0 mm 0.00 in0.0 mm 0.07 in1.8 mm
03:33 PM 90.0°F32.2°C 81.0°F27.2°C 75% 5.0 mph NW8.0 kmh NW 13.0 mph20.9 kmh 29.93 in1013.5 mb 0.00 in0.0 mm 0.00 in0.0 mm 0.07 in1.8 mm
03:32 PM 90.2°F32.3°C 80.8°F27.1°C 74% 8.0 mph NNW12.9 kmh NNW 13.0 mph20.9 kmh 29.93 in1013.5 mb 0.00 in0.0 mm 0.00 in0.0 mm 0.07 in1.8 mm
03:31 PM 90.3°F32.4°C 81.3°F27.4°C 75% 9.0 mph NW14.5 kmh NW 13.0 mph20.9 kmh 29.93 in1013.5 mb 0.00 in0.0 mm 0.00 in0.0 mm 0.07 in1.8 mm
03:30 PM 90.4°F32.4°C 81.0°F27.2°C 74% 5.0 mph N8.0 kmh N 12.0 mph19.3 kmh 29.93 in1013.5 mb 0.00 in0.0 mm 0.00 in0.0 mm 0.07 in1.8 mm
03:29 PM 90.5°F32.5°C 81.0°F27.2°C 74% 12.0 mph NW19.3 kmh NW 12.0 mph19.3 kmh 29.93 in1013.5 mb 0.00 in0.0 mm 0.00 in0.0 mm 0.07 in1.8 mm
03:28 PM 90.5°F32.5°C 81.0°F27.2°C 74% 9.0 mph NW14.5 kmh NW 12.0 mph19.3 kmh 29.93 in1013.5 mb 0.00 in0.0 mm 0.00 in0.0 mm 0.07 in1.8 mm
03:27 PM 90.6°F32.6°C 81.1°F27.3°C 74% 8.0 mph NW12.9 kmh NW 12.0 mph19.3 kmh 29.93 in1013.5 mb 0.00 in0.0 mm 0.00 in0.0 mm 0.07 in1.8 mm
03:26 PM 90.6°F32.6°C 82.0°F27.8°C 76% 4.0 mph NNW6.4 kmh NNW 12.0 mph19.3 kmh 29.93 in1013.5 mb 0.00 in0.0 mm 0.00 in0.0 mm 0.07 in1.8 mm
03:25 PM 90.6°F32.6°C 81.6°F27.6°C 75% 3.0 mph NW4.8 kmh NW 12.0 mph19.3 kmh 29.93 in1013.5 mb 0.00 in0.0 mm 0.00 in0.0 mm 0.07 in1.8 mm
03:24 PM 90.5°F32.5°C 80.6°F27.0°C 73% 8.0 mph NW12.9 kmh NW 12.0 mph19.3 kmh 29.93 in1013.5 mb 0.00 in0.0 mm 0.00 in0.0 mm 0.07 in1.8 mm
03:23 PM 90.5°F32.5°C 81.0°F27.2°C 74% 10.0 mph NW16.1 kmh NW 12.0 mph19.3 kmh 29.92 in1013.2 mb 0.00 in0.0 mm 0.00 in0.0 mm 0.07 in1.8 mm
03:22 PM 90.5°F32.5°C 81.0°F27.2°C 74% 3.0 mph NNW4.8 kmh NNW 11.0 mph17.7 kmh 29.92 in1013.2 mb 0.00 in0.0 mm 0.00 in0.0 mm 0.07 in1.8 mm
03:21 PM 90.5°F32.5°C 81.0°F27.2°C 74% 9.0 mph NW14.5 kmh NW 11.0 mph17.7 kmh 29.92 in1013.2 mb 0.00 in0.0 mm 0.00 in0.0 mm 0.07 in1.8 mm
03:20 PM 90.4°F32.4°C 81.0°F27.2°C 74% 5.0 mph WNW8.0 kmh WNW 11.0 mph17.7 kmh 29.92 in1013.2 mb 0.00 in0.0 mm 0.00 in0.0 mm 0.07 in1.8 mm
03:19 PM 90.4°F32.4°C 81.4°F27.4°C 75% 8.0 mph W12.9 kmh W 13.0 mph20.9 kmh 29.92 in1013.2 mb 0.00 in0.0 mm 0.00 in0.0 mm 0.07 in1.8 mm
03:18 PM 90.3°F32.4°C 81.3°F27.4°C 75% 8.0 mph NNW12.9 kmh NNW 13.0 mph20.9 kmh 29.92 in1013.2 mb 0.00 in0.0 mm 0.00 in0.0 mm 0.07 in1.8 mm
03:17 PM 90.2°F32.3°C 81.2°F27.3°C 75% 4.0 mph NW6.4 kmh NW 13.0 mph20.9 kmh 29.92 in1013.2 mb 0.00 in0.0 mm 0.00 in0.0 mm 0.07 in1.8 mm
03:16 PM 90.2°F32.3°C 80.8°F27.1°C 74% 3.0 mph NW4.8 kmh NW 13.0 mph20.9 kmh 29.92 in1013.2 mb 0.00 in0.0 mm 0.00 in0.0 mm 0.07 in1.8 mm
03:15 PM 90.2°F32.3°C 80.8°F27.1°C 74% 4.0 mph WNW6.4 kmh WNW 13.0 mph20.9 kmh 29.92 in1013.2 mb 0.00 in0.0 mm 0.00 in0.0 mm 0.07 in1.8 mm
03:14 PM 90.2°F32.3°C 81.2°F27.3°C 75% 7.0 mph W11.3 kmh W 13.0 mph20.9 kmh 29.92 in1013.2 mb 0.00 in0.0 mm 0.00 in0.0 mm 0.07 in1.8 mm
03:13 PM 90.1°F32.3°C 81.5°F27.5°C 76% 5.0 mph NW8.0 kmh NW 13.0 mph20.9 kmh 29.92 in1013.2 mb 0.00 in0.0 mm 0.00 in0.0 mm 0.07 in1.8 mm
03:12 PM 90.0°F32.2°C 81.4°F27.4°C 76% 3.0 mph NW4.8 kmh NW 13.0 mph20.9 kmh 29.92 in1013.2 mb 0.00 in0.0 mm 0.00 in0.0 mm 0.07 in1.8 mm
03:11 PM 89.9°F32.2°C 81.3°F27.4°C 76% 5.0 mph NW8.0 kmh NW 13.0 mph20.9 kmh 29.92 in1013.2 mb 0.00 in0.0 mm 0.00 in0.0 mm 0.07 in1.8 mm
03:10 PM 89.8°F32.1°C 81.2°F27.3°C 76% 8.0 mph NW12.9 kmh NW 11.0 mph17.7 kmh 29.92 in1013.2 mb 0.00 in0.0 mm 0.00 in0.0 mm 0.07 in1.8 mm
03:09 PM 89.7°F32.1°C 80.7°F27.1°C 75% 6.0 mph NNW9.7 kmh NNW 11.0 mph17.7 kmh 29.92 in1013.2 mb 0.00 in0.0 mm 0.00 in0.0 mm 0.07 in1.8 mm
03:08 PM 89.8°F32.1°C 80.8°F27.1°C 75% 7.0 mph NW11.3 kmh NW 11.0 mph17.7 kmh 29.92 in1013.2 mb 0.00 in0.0 mm 0.00 in0.0 mm 0.07 in1.8 mm
03:07 PM 89.8°F32.1°C 80.8°F27.1°C 75% 6.0 mph NW9.7 kmh NW 11.0 mph17.7 kmh 29.92 in1013.2 mb 0.00 in0.0 mm 0.00 in0.0 mm 0.07 in1.8 mm
03:06 PM 89.9°F32.2°C 80.9°F27.2°C 75% 5.0 mph NW8.0 kmh NW 11.0 mph17.7 kmh 29.92 in1013.2 mb 0.00 in0.0 mm 0.00 in0.0 mm 0.07 in1.8 mm
03:05 PM 89.9°F32.2°C 80.9°F27.2°C 75% 2.0 mph WNW3.2 kmh WNW 11.0 mph17.7 kmh 29.92 in1013.2 mb 0.00 in0.0 mm 0.00 in0.0 mm 0.07 in1.8 mm
03:04 PM 89.9°F32.2°C 80.9°F27.2°C 75% 8.0 mph WNW12.9 kmh WNW 11.0 mph17.7 kmh 29.92 in1013.2 mb 0.00 in0.0 mm 0.00 in0.0 mm 0.07 in1.8 mm
03:03 PM 89.9°F32.2°C 80.9°F27.2°C 75% 2.0 mph WNW3.2 kmh WNW 10.0 mph16.1 kmh 29.92 in1013.2 mb 0.00 in0.0 mm 0.00 in0.0 mm 0.07 in1.8 mm
03:02 PM 89.9°F32.2°C 80.9°F27.2°C 75% 4.0 mph WNW6.4 kmh WNW 10.0 mph16.1 kmh 29.92 in1013.2 mb 0.00 in0.0 mm 0.00 in0.0 mm 0.07 in1.8 mm
03:01 PM 90.0°F32.2°C 80.6°F27.0°C 74% 3.0 mph NW4.8 kmh NW 10.0 mph16.1 kmh 29.92 in1013.2 mb 0.00 in0.0 mm 0.00 in0.0 mm 0.07 in1.8 mm
03:00 PM 90.1°F32.3°C 80.7°F27.1°C 74% 5.0 mph WNW8.0 kmh WNW 10.0 mph16.1 kmh 29.92 in1013.2 mb 0.00 in0.0 mm 0.00 in0.0 mm 0.07 in1.8 mm
02:59 PM 90.2°F32.3°C 80.3°F26.8°C 73% 6.0 mph N9.7 kmh N 10.0 mph16.1 kmh 29.92 in1013.2 mb 0.00 in0.0 mm 0.00 in0.0 mm 0.07 in1.8 mm
02:58 PM 90.4°F32.4°C 81.0°F27.2°C 74% 6.0 mph NW9.7 kmh NW 10.0 mph16.1 kmh 29.93 in1013.5 mb 0.00 in0.0 mm 0.00 in0.0 mm 0.07 in1.8 mm
02:57 PM 90.5°F32.5°C 81.5°F27.5°C 75% 7.0 mph WNW11.3 kmh WNW 12.0 mph19.3 kmh 29.93 in1013.5 mb 0.00 in0.0 mm 0.00 in0.0 mm 0.07 in1.8 mm
02:56 PM 90.4°F32.4°C 81.0°F27.2°C 74% 8.0 mph NNW12.9 kmh NNW 12.0 mph19.3 kmh 29.93 in1013.5 mb 0.00 in0.0 mm 0.00 in0.0 mm 0.07 in1.8 mm
02:55 PM 90.4°F32.4°C 81.0°F27.2°C 74% 6.0 mph NW9.7 kmh NW 12.0 mph19.3 kmh 29.93 in1013.5 mb 0.00 in0.0 mm 0.00 in0.0 mm 0.07 in1.8 mm
02:54 PM 90.4°F32.4°C 81.0°F27.2°C 74% 6.0 mph WNW9.7 kmh WNW 12.0 mph19.3 kmh 29.93 in1013.5 mb 0.00 in0.0 mm 0.00 in0.0 mm 0.07 in1.8 mm
02:53 PM 90.3°F32.4°C 80.4°F26.9°C 73% 4.0 mph NW6.4 kmh NW 13.0 mph20.9 kmh 29.93 in1013.5 mb 0.00 in0.0 mm 0.00 in0.0 mm 0.07 in1.8 mm
02:52 PM 90.2°F32.3°C 80.3°F26.8°C 73% 8.0 mph NNW12.9 kmh NNW 13.0 mph20.9 kmh 29.93 in1013.5 mb 0.00 in0.0 mm 0.00 in0.0 mm 0.07 in1.8 mm
02:51 PM 90.1°F32.3°C 80.2°F26.8°C 73% 5.0 mph NW8.0 kmh NW 13.0 mph20.9 kmh 29.93 in1013.5 mb 0.00 in0.0 mm 0.00 in0.0 mm 0.07 in1.8 mm
02:50 PM 90.0°F32.2°C 80.2°F26.8°C 73% 5.0 mph NW8.0 kmh NW 13.0 mph20.9 kmh 29.93 in1013.5 mb 0.00 in0.0 mm 0.00 in0.0 mm 0.07 in1.8 mm
02:49 PM 89.9°F32.2°C 79.6°F26.4°C 72% 5.0 mph NW8.0 kmh NW 13.0 mph20.9 kmh 29.93 in1013.5 mb 0.00 in0.0 mm 0.00 in0.0 mm 0.07 in1.8 mm
02:48 PM 89.9°F32.2°C 80.1°F26.7°C 73% 9.0 mph NW14.5 kmh NW 13.0 mph20.9 kmh 29.93 in1013.5 mb 0.00 in0.0 mm 0.00 in0.0 mm 0.07 in1.8 mm
02:47 PM 89.9°F32.2°C 80.1°F26.7°C 73% 6.0 mph NW9.7 kmh NW 13.0 mph20.9 kmh 29.93 in1013.5 mb 0.00 in0.0 mm 0.00 in0.0 mm 0.07 in1.8 mm
02:46 PM 89.8°F32.1°C 80.0°F26.7°C 73% 9.0 mph NW14.5 kmh NW 13.0 mph20.9 kmh 29.93 in1013.5 mb 0.00 in0.0 mm 0.00 in0.0 mm 0.07 in1.8 mm
02:45 PM 89.8°F32.1°C 80.0°F26.7°C 73% 11.0 mph WNW17.7 kmh WNW 13.0 mph20.9 kmh 29.92 in1013.2 mb 0.00 in0.0 mm 0.00 in0.0 mm 0.07 in1.8 mm
02:44 PM 89.6°F32.0°C 80.2°F26.8°C 74% 7.0 mph NW11.3 kmh NW 13.0 mph20.9 kmh 29.92 in1013.2 mb 0.00 in0.0 mm 0.00 in0.0 mm 0.07 in1.8 mm
02:43 PM 89.5°F31.9°C 80.1°F26.7°C 74% 7.0 mph NW11.3 kmh NW 13.0 mph20.9 kmh 29.92 in1013.2 mb 0.00 in0.0 mm 0.00 in0.0 mm 0.07 in1.8 mm
02:42 PM 89.3°F31.8°C 80.3°F26.8°C 75% 9.0 mph W14.5 kmh W 13.0 mph20.9 kmh 29.92 in1013.2 mb 0.00 in0.0 mm 0.00 in0.0 mm 0.07 in1.8 mm
02:41 PM 89.1°F31.7°C 80.1°F26.7°C 75% 4.0 mph WNW6.4 kmh WNW 13.0 mph20.9 kmh 29.92 in1013.2 mb 0.00 in0.0 mm 0.00 in0.0 mm 0.07 in1.8 mm
02:40 PM 89.0°F31.7°C 80.0°F26.7°C 75% Calm Calm 13.0 mph20.9 kmh 29.92 in1013.2 mb 0.00 in0.0 mm 0.00 in0.0 mm 0.07 in1.8 mm
02:39 PM 88.8°F31.6°C 79.8°F26.6°C 75% 4.0 mph NW6.4 kmh NW 13.0 mph20.9 kmh 29.91 in1012.9 mb 0.00 in0.0 mm 0.00 in0.0 mm 0.07 in1.8 mm
02:38 PM 88.8°F31.6°C 79.8°F26.6°C 75% 9.0 mph W14.5 kmh W 13.0 mph20.9 kmh 29.91 in1012.9 mb 0.00 in0.0 mm 0.00 in0.0 mm 0.07 in1.8 mm
02:37 PM 88.9°F31.6°C 79.5°F26.4°C 74% 7.0 mph NNE11.3 kmh NNE 13.0 mph20.9 kmh 29.91 in1012.9 mb 0.00 in0.0 mm 0.00 in0.0 mm 0.07 in1.8 mm
02:36 PM 88.9°F31.6°C 79.9°F26.6°C 75% 8.0 mph WNW12.9 kmh WNW 13.0 mph20.9 kmh 29.91 in1012.9 mb 0.00 in0.0 mm 0.00 in0.0 mm 0.07 in1.8 mm
02:35 PM 89.0°F31.7°C 80.0°F26.7°C 75% 8.0 mph WNW12.9 kmh WNW 13.0 mph20.9 kmh 29.91 in1012.9 mb 0.00 in0.0 mm 0.00 in0.0 mm 0.07 in1.8 mm
02:34 PM 89.0°F31.7°C 79.6°F26.4°C 74% 4.0 mph WSW6.4 kmh WSW 13.0 mph20.9 kmh 29.91 in1012.9 mb 0.00 in0.0 mm 0.00 in0.0 mm 0.07 in1.8 mm
02:33 PM 89.0°F31.7°C 79.6°F26.4°C 74% 8.0 mph WNW12.9 kmh WNW 13.0 mph20.9 kmh 29.91 in1012.9 mb 0.00 in0.0 mm 0.00 in0.0 mm 0.07 in1.8 mm
02:32 PM 89.0°F31.7°C 79.6°F26.4°C 74% 4.0 mph WSW6.4 kmh WSW 13.0 mph20.9 kmh 29.91 in1012.9 mb 0.00 in0.0 mm 0.00 in0.0 mm 0.07 in1.8 mm
02:31 PM 89.1°F31.7°C 80.1°F26.7°C 75% 7.0 mph WNW11.3 kmh WNW 13.0 mph20.9 kmh 29.91 in1012.9 mb 0.00 in0.0 mm 0.00 in0.0 mm 0.07 in1.8 mm
02:30 PM 89.0°F31.7°C 80.4°F26.9°C 76% 6.0 mph NNW9.7 kmh NNW 13.0 mph20.9 kmh 29.91 in1012.9 mb 0.00 in0.0 mm 0.00 in0.0 mm 0.07 in1.8 mm
02:29 PM 88.9°F31.6°C 80.7°F27.1°C 77% 5.0 mph NW8.0 kmh NW 13.0 mph20.9 kmh 29.91 in1012.9 mb 0.00 in0.0 mm 0.00 in0.0 mm 0.07 in1.8 mm
02:28 PM 88.9°F31.6°C 80.3°F26.8°C 76% 3.0 mph NNW4.8 kmh NNW 13.0 mph20.9 kmh 29.91 in1012.9 mb 0.00 in0.0 mm 0.00 in0.0 mm 0.07 in1.8 mm
02:27 PM 88.9°F31.6°C 79.9°F26.6°C 75% 1.0 mph WNW1.6 kmh WNW 13.0 mph20.9 kmh 29.91 in1012.9 mb 0.00 in0.0 mm 0.00 in0.0 mm 0.07 in1.8 mm
02:26 PM 89.0°F31.7°C 79.6°F26.4°C 74% 8.0 mph WNW12.9 kmh WNW 13.0 mph20.9 kmh 29.91 in1012.9 mb 0.00 in0.0 mm 0.00 in0.0 mm 0.07 in1.8 mm
02:25 PM 89.1°F31.7°C 80.1°F26.7°C 75% 10.0 mph NW16.1 kmh NW 13.0 mph20.9 kmh 29.91 in1012.9 mb 0.00 in0.0 mm 0.00 in0.0 mm 0.07 in1.8 mm
02:24 PM 89.1°F31.7°C 80.1°F26.7°C 75% 6.0 mph WNW9.7 kmh WNW 12.0 mph19.3 kmh 29.91 in1012.9 mb 0.00 in0.0 mm 0.00 in0.0 mm 0.07 in1.8 mm
02:23 PM 89.1°F31.7°C 80.5°F26.9°C 76% 9.0 mph NW14.5 kmh NW 12.0 mph19.3 kmh 29.91 in1012.9 mb 0.00 in0.0 mm 0.00 in0.0 mm 0.07 in1.8 mm
02:22 PM 89.1°F31.7°C 80.1°F26.7°C 75% 5.0 mph NW8.0 kmh NW 12.0 mph19.3 kmh 29.90 in1012.5 mb 0.00 in0.0 mm 0.00 in0.0 mm 0.07 in1.8 mm
02:21 PM 89.1°F31.7°C 80.1°F26.7°C 75% 7.0 mph NW11.3 kmh NW 12.0 mph19.3 kmh 29.90 in1012.5 mb 0.00 in0.0 mm 0.00 in0.0 mm 0.07 in1.8 mm
02:20 PM 89.1°F31.7°C 80.1°F26.7°C 75% 1.0 mph E1.6 kmh E 12.0 mph19.3 kmh 29.90 in1012.5 mb 0.00 in0.0 mm 0.00 in0.0 mm 0.07 in1.8 mm
02:19 PM 89.2°F31.8°C 80.6°F27.0°C 76% 7.0 mph WNW11.3 kmh WNW 11.0 mph17.7 kmh 29.90 in1012.5 mb 0.00 in0.0 mm 0.00 in0.0 mm 0.07 in1.8 mm
02:18 PM 89.2°F31.8°C 80.6°F27.0°C 76% 5.0 mph WNW8.0 kmh WNW 11.0 mph17.7 kmh 29.90 in1012.5 mb 0.00 in0.0 mm 0.00 in0.0 mm 0.07 in1.8 mm
02:17 PM 89.2°F31.8°C 80.2°F26.8°C 75% 9.0 mph WSW14.5 kmh WSW 11.0 mph17.7 kmh 29.90 in1012.5 mb 0.00 in0.0 mm 0.00 in0.0 mm 0.07 in1.8 mm
02:16 PM 89.2°F31.8°C 80.2°F26.8°C 75% 4.0 mph WNW6.4 kmh WNW 11.0 mph17.7 kmh 29.90 in1012.5 mb 0.00 in0.0 mm 0.00 in0.0 mm 0.07 in1.8 mm
02:15 PM 89.2°F31.8°C 80.2°F26.8°C 75% 4.0 mph WNW6.4 kmh WNW 11.0 mph17.7 kmh 29.90 in1012.5 mb 0.00 in0.0 mm 0.00 in0.0 mm 0.07 in1.8 mm
02:14 PM 89.2°F31.8°C 80.2°F26.8°C 75% 7.0 mph NW11.3 kmh NW 11.0 mph17.7 kmh 29.90 in1012.5 mb 0.00 in0.0 mm 0.00 in0.0 mm 0.07 in1.8 mm
02:13 PM 89.3°F31.8°C 79.9°F26.6°C 74% 9.0 mph NW14.5 kmh NW 10.0 mph16.1 kmh 29.90 in1012.5 mb 0.00 in0.0 mm 0.00 in0.0 mm 0.07 in1.8 mm
02:12 PM 89.3°F31.8°C 80.3°F26.8°C 75% 5.0 mph NW8.0 kmh NW 10.0 mph16.1 kmh 29.90 in1012.5 mb 0.00 in0.0 mm 0.00 in0.0 mm 0.07 in1.8 mm
02:11 PM 89.2°F31.8°C 80.6°F27.0°C 76% Calm Calm 10.0 mph16.1 kmh 29.90 in1012.5 mb 0.00 in0.0 mm 0.00 in0.0 mm 0.07 in1.8 mm
02:10 PM 89.2°F31.8°C 80.2°F26.8°C 75% 1.0 mph N1.6 kmh N 10.0 mph16.1 kmh 29.90 in1012.5 mb 0.00 in0.0 mm 0.00 in0.0 mm 0.07 in1.8 mm
02:09 PM 89.3°F31.8°C 80.3°F26.8°C 75% 10.0 mph NW16.1 kmh NW 10.0 mph16.1 kmh 29.90 in1012.5 mb 0.00 in0.0 mm 0.00 in0.0 mm 0.07 in1.8 mm
02:08 PM 89.3°F31.8°C 80.3°F26.8°C 75% 9.0 mph WNW14.5 kmh WNW 13.0 mph20.9 kmh 29.90 in1012.5 mb 0.00 in0.0 mm 0.00 in0.0 mm 0.07 in1.8 mm
02:07 PM 89.3°F31.8°C 80.3°F26.8°C 75% 7.0 mph W11.3 kmh W 13.0 mph20.9 kmh 29.90 in1012.5 mb 0.00 in0.0 mm 0.00 in0.0 mm 0.07 in1.8 mm
02:06 PM 89.3°F31.8°C 80.3°F26.8°C 75% 7.0 mph WNW11.3 kmh WNW 13.0 mph20.9 kmh 29.90 in1012.5 mb 0.00 in0.0 mm 0.00 in0.0 mm 0.07 in1.8 mm
02:05 PM 89.4°F31.9°C 80.4°F26.9°C 75% 5.0 mph NW8.0 kmh NW 13.0 mph20.9 kmh 29.90 in1012.5 mb 0.00 in0.0 mm 0.00 in0.0 mm 0.07 in1.8 mm
02:04 PM 89.4°F31.9°C 80.4°F26.9°C 75% 3.0 mph NW4.8 kmh NW 13.0 mph20.9 kmh 29.90 in1012.5 mb 0.00 in0.0 mm 0.00 in0.0 mm 0.07 in1.8 mm
02:03 PM 89.3°F31.8°C 80.7°F27.1°C 76% 4.0 mph NW6.4 kmh NW 13.0 mph20.9 kmh 29.91 in1012.9 mb 0.00 in0.0 mm 0.00 in0.0 mm 0.07 in1.8 mm
02:02 PM 89.2°F31.8°C 80.2°F26.8°C 75% 2.0 mph WSW3.2 kmh WSW 13.0 mph20.9 kmh 29.91 in1012.9 mb 0.00 in0.0 mm 0.00 in0.0 mm 0.07 in1.8 mm
02:01 PM 89.3°F31.8°C 80.3°F26.8°C 75% 7.0 mph NW11.3 kmh NW 13.0 mph20.9 kmh 29.91 in1012.9 mb 0.00 in0.0 mm 0.00 in0.0 mm 0.07 in1.8 mm
02:00 PM 89.3°F31.8°C 80.3°F26.8°C 75% 4.0 mph WNW6.4 kmh WNW 13.0 mph20.9 kmh 29.91 in1012.9 mb 0.00 in0.0 mm 0.00 in0.0 mm 0.07 in1.8 mm
01:59 PM 89.1°F31.7°C 80.5°F26.9°C 76% Calm Calm 13.0 mph20.9 kmh 29.91 in1012.9 mb 0.00 in0.0 mm 0.00 in0.0 mm 0.07 in1.8 mm
01:58 PM 89.1°F31.7°C 80.1°F26.7°C 75% 3.0 mph W4.8 kmh W 13.0 mph20.9 kmh 29.91 in1012.9 mb 0.00 in0.0 mm 0.00 in0.0 mm 0.07 in1.8 mm
01:57 PM 89.1°F31.7°C 79.7°F26.5°C 74% 3.0 mph N4.8 kmh N 13.0 mph20.9 kmh 29.91 in1012.9 mb 0.00 in0.0 mm 0.00 in0.0 mm 0.07 in1.8 mm
01:56 PM 89.1°F31.7°C 80.1°F26.7°C 75% 12.0 mph W19.3 kmh W 13.0 mph20.9 kmh 29.91 in1012.9 mb 0.00 in0.0 mm 0.00 in0.0 mm 0.07 in1.8 mm
01:55 PM 89.1°F31.7°C 80.1°F26.7°C 75% 5.0 mph NW8.0 kmh NW 13.0 mph20.9 kmh 29.91 in1012.9 mb 0.00 in0.0 mm 0.00 in0.0 mm 0.07 in1.8 mm
01:54 PM 89.1°F31.7°C 80.1°F26.7°C 75% 5.0 mph NW8.0 kmh NW 13.0 mph20.9 kmh 29.91 in1012.9 mb 0.00 in0.0 mm 0.00 in0.0 mm 0.07 in1.8 mm
01:53 PM 89.1°F31.7°C 80.1°F26.7°C 75% 7.0 mph W11.3 kmh W 13.0 mph20.9 kmh 29.91 in1012.9 mb 0.00 in0.0 mm 0.00 in0.0 mm 0.07 in1.8 mm
01:52 PM 89.1°F31.7°C 80.1°F26.7°C 75% 5.0 mph NW8.0 kmh NW 13.0 mph20.9 kmh 29.91 in1012.9 mb 0.00 in0.0 mm 0.00 in0.0 mm 0.07 in1.8 mm
01:51 PM 89.1°F31.7°C 79.7°F26.5°C 74% 5.0 mph N8.0 kmh N 13.0 mph20.9 kmh 29.91 in1012.9 mb 0.00 in0.0 mm 0.00 in0.0 mm 0.07 in1.8 mm
01:50 PM 89.2°F31.8°C 79.4°F26.3°C 73% 5.0 mph NNW8.0 kmh NNW 13.0 mph20.9 kmh 29.91 in1012.9 mb 0.00 in0.0 mm 0.00 in0.0 mm 0.07 in1.8 mm
01:49 PM 89.3°F31.8°C 79.5°F26.4°C 73% 10.0 mph W16.1 kmh W 13.0 mph20.9 kmh 29.91 in1012.9 mb 0.00 in0.0 mm 0.00 in0.0 mm 0.07 in1.8 mm
01:48 PM 89.6°F32.0°C 80.2°F26.8°C 74% 7.0 mph WNW11.3 kmh WNW 12.0 mph19.3 kmh 29.91 in1012.9 mb 0.00 in0.0 mm 0.00 in0.0 mm 0.07 in1.8 mm
01:47 PM 89.6°F32.0°C 80.6°F27.0°C 75% 5.0 mph NW8.0 kmh NW 12.0 mph19.3 kmh 29.91 in1012.9 mb 0.00 in0.0 mm 0.00 in0.0 mm 0.07 in1.8 mm
01:46 PM 89.6°F32.0°C 80.2°F26.8°C 74% 2.0 mph NW3.2 kmh NW 12.0 mph19.3 kmh 29.91 in1012.9 mb 0.00 in0.0 mm 0.00 in0.0 mm 0.07 in1.8 mm
01:45 PM 89.7°F32.1°C 80.3°F26.8°C 74% 4.0 mph NW6.4 kmh NW 13.0 mph20.9 kmh 29.91 in1012.9 mb 0.00 in0.0 mm 0.00 in0.0 mm 0.07 in1.8 mm
01:44 PM 89.7°F32.1°C 79.9°F26.6°C 73% 5.0 mph WNW8.0 kmh WNW 13.0 mph20.9 kmh 29.91 in1012.9 mb 0.00 in0.0 mm 0.00 in0.0 mm 0.07 in1.8 mm
01:43 PM 89.7°F32.1°C 80.7°F27.1°C 75% 11.0 mph WNW17.7 kmh WNW 13.0 mph20.9 kmh 29.91 in1012.9 mb 0.00 in0.0 mm 0.00 in0.0 mm 0.07 in1.8 mm
01:42 PM 89.5°F31.9°C 80.5°F26.9°C 75% 3.0 mph WNW4.8 kmh WNW 13.0 mph20.9 kmh 29.91 in1012.9 mb 0.00 in0.0 mm 0.00 in0.0 mm 0.07 in1.8 mm
01:41 PM 89.4°F31.9°C 80.8°F27.1°C 76% 3.0 mph NW4.8 kmh NW 13.0 mph20.9 kmh 29.91 in1012.9 mb 0.00 in0.0 mm 0.00 in0.0 mm 0.07 in1.8 mm
01:40 PM 89.2°F31.8°C 80.2°F26.8°C 75% 5.0 mph WNW8.0 kmh WNW 13.0 mph20.9 kmh 29.92 in1013.2 mb 0.00 in0.0 mm 0.00 in0.0 mm 0.07 in1.8 mm
01:39 PM 89.2°F31.8°C 80.2°F26.8°C 75% 5.0 mph NW8.0 kmh NW 13.0 mph20.9 kmh 29.92 in1013.2 mb 0.00 in0.0 mm 0.00 in0.0 mm 0.07 in1.8 mm
01:38 PM 89.1°F31.7°C 79.7°F26.5°C 74% 4.0 mph SW6.4 kmh SW 13.0 mph20.9 kmh 29.92 in1013.2 mb 0.00 in0.0 mm 0.00 in0.0 mm 0.07 in1.8 mm
01:37 PM 89.2°F31.8°C 80.2°F26.8°C 75% 11.0 mph WNW17.7 kmh WNW 13.0 mph20.9 kmh 29.92 in1013.2 mb 0.00 in0.0 mm 0.00 in0.0 mm 0.07 in1.8 mm
01:36 PM 89.0°F31.7°C 80.4°F26.9°C 76% 4.0 mph NW6.4 kmh NW 12.0 mph19.3 kmh 29.92 in1013.2 mb 0.00 in0.0 mm 0.00 in0.0 mm 0.07 in1.8 mm
01:35 PM 88.9°F31.6°C 80.3°F26.8°C 76% 1.0 mph WNW1.6 kmh WNW 12.0 mph19.3 kmh 29.92 in1013.2 mb 0.00 in0.0 mm 0.00 in0.0 mm 0.07 in1.8 mm
01:34 PM 88.9°F31.6°C 79.9°F26.6°C 75% 4.0 mph NW6.4 kmh NW 12.0 mph19.3 kmh 29.92 in1013.2 mb 0.00 in0.0 mm 0.00 in0.0 mm 0.07 in1.8 mm
01:33 PM 88.9°F31.6°C 79.9°F26.6°C 75% 6.0 mph NW9.7 kmh NW 12.0 mph19.3 kmh 29.92 in1013.2 mb 0.00 in0.0 mm 0.00 in0.0 mm 0.07 in1.8 mm
01:32 PM 89.1°F31.7°C 80.1°F26.7°C 75% 5.0 mph NW8.0 kmh NW 12.0 mph19.3 kmh 29.92 in1013.2 mb 0.00 in0.0 mm 0.00 in0.0 mm 0.07 in1.8 mm
01:31 PM 89.1°F31.7°C 79.7°F26.5°C 74% 4.0 mph NW6.4 kmh NW 12.0 mph19.3 kmh 29.92 in1013.2 mb 0.00 in0.0 mm 0.00 in0.0 mm 0.07 in1.8 mm
01:30 PM 89.2°F31.8°C 80.2°F26.8°C 75% 3.0 mph NW4.8 kmh NW 12.0 mph19.3 kmh 29.92 in1013.2 mb 0.00 in0.0 mm 0.00 in0.0 mm 0.07 in1.8 mm
01:29 PM 89.3°F31.8°C 80.7°F27.1°C 76% 9.0 mph WNW14.5 kmh WNW 12.0 mph19.3 kmh 29.92 in1013.2 mb 0.00 in0.0 mm 0.00 in0.0 mm 0.07 in1.8 mm
01:28 PM 89.3°F31.8°C 80.3°F26.8°C 75% 1.0 mph WNW1.6 kmh WNW 12.0 mph19.3 kmh 29.92 in1013.2 mb 0.00 in0.0 mm 0.00 in0.0 mm 0.07 in1.8 mm
01:27 PM 89.2°F31.8°C 80.2°F26.8°C 75% 3.0 mph W4.8 kmh W 12.0 mph19.3 kmh 29.92 in1013.2 mb 0.00 in0.0 mm 0.00 in0.0 mm 0.07 in1.8 mm
01:26 PM 89.1°F31.7°C 79.7°F26.5°C 74% Calm Calm 12.0 mph19.3 kmh 29.92 in1013.2 mb 0.00 in0.0 mm 0.00 in0.0 mm 0.07 in1.8 mm
01:25 PM 89.2°F31.8°C 79.8°F26.6°C 74% 9.0 mph NW14.5 kmh NW 12.0 mph19.3 kmh 29.92 in1013.2 mb 0.00 in0.0 mm 0.00 in0.0 mm 0.07 in1.8 mm
01:24 PM 89.3°F31.8°C 79.9°F26.6°C 74% 11.0 mph WNW17.7 kmh WNW 12.0 mph19.3 kmh 29.92 in1013.2 mb 0.00 in0.0 mm 0.00 in0.0 mm 0.07 in1.8 mm
01:23 PM 89.3°F31.8°C 80.3°F26.8°C 75% 8.0 mph WNW12.9 kmh WNW 11.0 mph17.7 kmh 29.92 in1013.2 mb 0.00 in0.0 mm 0.00 in0.0 mm 0.07 in1.8 mm
01:22 PM 89.3°F31.8°C 79.9°F26.6°C 74% 9.0 mph W14.5 kmh W 11.0 mph17.7 kmh 29.92 in1013.2 mb 0.00 in0.0 mm 0.00 in0.0 mm 0.07 in1.8 mm
01:21 PM 89.3°F31.8°C 79.9°F26.6°C 74% 9.0 mph W14.5 kmh W 11.0 mph17.7 kmh 29.92 in1013.2 mb 0.00 in0.0 mm 0.00 in0.0 mm 0.07 in1.8 mm
01:20 PM 89.4°F31.9°C 80.0°F26.7°C 74% 7.0 mph W11.3 kmh W 11.0 mph17.7 kmh 29.92 in1013.2 mb 0.00 in0.0 mm 0.00 in0.0 mm 0.07 in1.8 mm
01:19 PM 89.4°F31.9°C 80.0°F26.7°C 74% 7.0 mph W11.3 kmh W 11.0 mph17.7 kmh 29.92 in1013.2 mb 0.00 in0.0 mm 0.00 in0.0 mm 0.07 in1.8 mm
01:18 PM 89.4°F31.9°C 79.6°F26.4°C 73% 4.0 mph NNW6.4 kmh NNW 11.0 mph17.7 kmh 29.92 in1013.2 mb 0.00 in0.0 mm 0.00 in0.0 mm 0.07 in1.8 mm
01:17 PM 89.5°F31.9°C 80.1°F26.7°C 74% 6.0 mph NNE9.7 kmh NNE 11.0 mph17.7 kmh 29.92 in1013.2 mb 0.00 in0.0 mm 0.00 in0.0 mm 0.07 in1.8 mm
01:16 PM 89.5°F31.9°C 80.1°F26.7°C 74% 4.0 mph WNW6.4 kmh WNW 11.0 mph17.7 kmh 29.93 in1013.5 mb 0.00 in0.0 mm 0.00 in0.0 mm 0.07 in1.8 mm
01:15 PM 89.5°F31.9°C 80.1°F26.7°C 74% 4.0 mph N6.4 kmh N 11.0 mph17.7 kmh 29.93 in1013.5 mb 0.00 in0.0 mm 0.00 in0.0 mm 0.07 in1.8 mm
01:14 PM 89.4°F31.9°C 80.0°F26.7°C 74% 5.0 mph WNW8.0 kmh WNW 11.0 mph17.7 kmh 29.93 in1013.5 mb 0.00 in0.0 mm 0.00 in0.0 mm 0.07 in1.8 mm
01:13 PM 89.4°F31.9°C 80.8°F27.1°C 76% 8.0 mph NW12.9 kmh NW 9.0 mph14.5 kmh 29.93 in1013.5 mb 0.00 in0.0 mm 0.00 in0.0 mm 0.07 in1.8 mm
01:12 PM 89.3°F31.8°C 80.3°F26.8°C 75% 3.0 mph WSW4.8 kmh WSW 9.0 mph14.5 kmh 29.93 in1013.5 mb 0.00 in0.0 mm 0.00 in0.0 mm 0.07 in1.8 mm
01:11 PM 89.2°F31.8°C 80.2°F26.8°C 75% 5.0 mph NW8.0 kmh NW 9.0 mph14.5 kmh 29.93 in1013.5 mb 0.00 in0.0 mm 0.00 in0.0 mm 0.07 in1.8 mm
01:10 PM 89.1°F31.7°C 80.1°F26.7°C 75% 5.0 mph NNW8.0 kmh NNW 11.0 mph17.7 kmh 29.93 in1013.5 mb 0.00 in0.0 mm 0.00 in0.0 mm 0.07 in1.8 mm
01:09 PM 89.1°F31.7°C 80.5°F26.9°C 76% 4.0 mph NW6.4 kmh NW 11.0 mph17.7 kmh 29.93 in1013.5 mb 0.00 in0.0 mm 0.00 in0.0 mm 0.07 in1.8 mm
01:08 PM 88.9°F31.6°C 80.3°F26.8°C 76% 3.0 mph WNW4.8 kmh WNW 11.0 mph17.7 kmh 29.92 in1013.2 mb 0.00 in0.0 mm 0.00 in0.0 mm 0.07 in1.8 mm
01:07 PM 88.8°F31.6°C 79.8°F26.6°C 75% 1.0 mph WNW1.6 kmh WNW 11.0 mph17.7 kmh 29.92 in1013.2 mb 0.00 in0.0 mm 0.00 in0.0 mm 0.07 in1.8 mm
01:06 PM 88.8°F31.6°C 79.4°F26.3°C 74% 4.0 mph WSW6.4 kmh WSW 11.0 mph17.7 kmh 29.92 in1013.2 mb 0.00 in0.0 mm 0.00 in0.0 mm 0.07 in1.8 mm
01:05 PM 88.8°F31.6°C 79.4°F26.3°C 74% 5.0 mph WNW8.0 kmh WNW 11.0 mph17.7 kmh 29.92 in1013.2 mb 0.00 in0.0 mm 0.00 in0.0 mm 0.07 in1.8 mm
01:04 PM 88.9°F31.6°C 79.5°F26.4°C 74% 1.0 mph NW1.6 kmh NW 11.0 mph17.7 kmh 29.92 in1013.2 mb 0.00 in0.0 mm 0.00 in0.0 mm 0.07 in1.8 mm
01:03 PM 89.0°F31.7°C 79.2°F26.2°C 73% 6.0 mph NW9.7 kmh NW 11.0 mph17.7 kmh 29.92 in1013.2 mb 0.00 in0.0 mm 0.00 in0.0 mm 0.07 in1.8 mm
01:02 PM 89.2°F31.8°C 79.4°F26.3°C 73% 6.0 mph NW9.7 kmh NW 11.0 mph17.7 kmh 29.92 in1013.2 mb 0.00 in0.0 mm 0.00 in0.0 mm 0.07 in1.8 mm
01:01 PM 89.3°F31.8°C 79.9°F26.6°C 74% 9.0 mph NW14.5 kmh NW 11.0 mph17.7 kmh 29.92 in1013.2 mb 0.00 in0.0 mm 0.00 in0.0 mm 0.07 in1.8 mm
01:00 PM 89.3°F31.8°C 79.5°F26.4°C 73% 4.0 mph NW6.4 kmh NW 9.0 mph14.5 kmh 29.93 in1013.5 mb 0.00 in0.0 mm 0.00 in0.0 mm 0.07 in1.8 mm
12:59 PM 89.3°F31.8°C 79.9°F26.6°C 74% 6.0 mph NW9.7 kmh NW 9.0 mph14.5 kmh 29.93 in1013.5 mb 0.00 in0.0 mm 0.00 in0.0 mm 0.07 in1.8 mm
12:58 PM 89.3°F31.8°C 79.9°F26.6°C 74% 1.0 mph NW1.6 kmh NW 9.0 mph14.5 kmh 29.93 in1013.5 mb 0.00 in0.0 mm 0.00 in0.0 mm 0.07 in1.8 mm
12:57 PM 89.2°F31.8°C 79.8°F26.6°C 74% 1.0 mph NW1.6 kmh NW 9.0 mph14.5 kmh 29.93 in1013.5 mb 0.00 in0.0 mm 0.00 in0.0 mm 0.07 in1.8 mm
12:56 PM 89.3°F31.8°C 79.9°F26.6°C 74% 5.0 mph NW8.0 kmh NW 12.0 mph19.3 kmh 29.93 in1013.5 mb 0.00 in0.0 mm 0.00 in0.0 mm 0.07 in1.8 mm
12:55 PM 89.3°F31.8°C 79.9°F26.6°C 74% Calm Calm 12.0 mph19.3 kmh 29.93 in1013.5 mb 0.00 in0.0 mm 0.00 in0.0 mm 0.07 in1.8 mm
12:54 PM 89.3°F31.8°C 79.9°F26.6°C 74% 9.0 mph NW14.5 kmh NW 12.0 mph19.3 kmh 29.93 in1013.5 mb 0.00 in0.0 mm 0.00 in0.0 mm 0.07 in1.8 mm
12:53 PM 89.3°F31.8°C 81.1°F27.3°C 77% 4.0 mph NNE6.4 kmh NNE 12.0 mph19.3 kmh 29.93 in1013.5 mb 0.00 in0.0 mm 0.00 in0.0 mm 0.07 in1.8 mm
12:52 PM 89.1°F31.7°C 81.3°F27.4°C 78% 2.0 mph NW3.2 kmh NW 12.0 mph19.3 kmh 29.93 in1013.5 mb 0.00 in0.0 mm 0.00 in0.0 mm 0.07 in1.8 mm
12:51 PM 88.9°F31.6°C 81.1°F27.3°C 78% 1.0 mph NW1.6 kmh NW 12.0 mph19.3 kmh 29.93 in1013.5 mb 0.00 in0.0 mm 0.00 in0.0 mm 0.07 in1.8 mm
12:50 PM 88.6°F31.4°C 80.0°F26.7°C 76% Calm Calm 12.0 mph19.3 kmh 29.93 in1013.5 mb 0.00 in0.0 mm 0.00 in0.0 mm 0.07 in1.8 mm
12:49 PM 88.5°F31.4°C 79.9°F26.6°C 76% 2.0 mph NW3.2 kmh NW 12.0 mph19.3 kmh 29.93 in1013.5 mb 0.00 in0.0 mm 0.00 in0.0 mm 0.07 in1.8 mm
12:48 PM 88.4°F31.3°C 79.0°F26.1°C 74% 1.0 mph WNW1.6 kmh WNW 12.0 mph19.3 kmh 29.93 in1013.5 mb 0.00 in0.0 mm 0.00 in0.0 mm 0.07 in1.8 mm
12:47 PM 88.4°F31.3°C 79.4°F26.3°C 75% 4.0 mph NW6.4 kmh NW 12.0 mph19.3 kmh 29.93 in1013.5 mb 0.00 in0.0 mm 0.00 in0.0 mm 0.07 in1.8 mm
12:46 PM 88.4°F31.3°C 79.4°F26.3°C 75% 8.0 mph WNW12.9 kmh WNW 12.0 mph19.3 kmh 29.93 in1013.5 mb 0.00 in0.0 mm 0.00 in0.0 mm 0.07 in1.8 mm
12:45 PM 88.4°F31.3°C 79.4°F26.3°C 75% 8.0 mph NW12.9 kmh NW 12.0 mph19.3 kmh 29.93 in1013.5 mb 0.00 in0.0 mm 0.00 in0.0 mm 0.07 in1.8 mm
12:44 PM 88.4°F31.3°C 79.4°F26.3°C 75% 5.0 mph N8.0 kmh N 12.0 mph19.3 kmh 29.93 in1013.5 mb 0.00 in0.0 mm 0.00 in0.0 mm 0.07 in1.8 mm
12:43 PM 88.4°F31.3°C 79.4°F26.3°C 75% 5.0 mph NW8.0 kmh NW 12.0 mph19.3 kmh 29.93 in1013.5 mb 0.00 in0.0 mm 0.00 in0.0 mm 0.07 in1.8 mm
12:42 PM 88.5°F31.4°C 79.5°F26.4°C 75% 4.0 mph WNW6.4 kmh WNW 12.0 mph19.3 kmh 29.93 in1013.5 mb 0.00 in0.0 mm 0.00 in0.0 mm 0.07 in1.8 mm
12:41 PM 88.5°F31.4°C 79.5°F26.4°C 75% 5.0 mph WNW8.0 kmh WNW 11.0 mph17.7 kmh 29.93 in1013.5 mb 0.00 in0.0 mm 0.00 in0.0 mm 0.07 in1.8 mm
12:40 PM 88.5°F31.4°C 79.1°F26.2°C 74% 3.0 mph NW4.8 kmh NW 11.0 mph17.7 kmh 29.93 in1013.5 mb 0.00 in0.0 mm 0.00 in0.0 mm 0.07 in1.8 mm
12:39 PM 88.6°F31.4°C 79.2°F26.2°C 74% 2.0 mph NW3.2 kmh NW 11.0 mph17.7 kmh 29.93 in1013.5 mb 0.00 in0.0 mm 0.00 in0.0 mm 0.07 in1.8 mm
12:38 PM 88.7°F31.5°C 79.7°F26.5°C 75% 5.0 mph NW8.0 kmh NW 10.0 mph16.1 kmh 29.93 in1013.5 mb 0.00 in0.0 mm 0.00 in0.0 mm 0.07 in1.8 mm
12:37 PM 88.8°F31.6°C 80.2°F26.8°C 76% 6.0 mph NW9.7 kmh NW 10.0 mph16.1 kmh 29.93 in1013.5 mb 0.00 in0.0 mm 0.00 in0.0 mm 0.07 in1.8 mm
12:36 PM 88.8°F31.6°C 79.8°F26.6°C 75% 6.0 mph W9.7 kmh W 10.0 mph16.1 kmh 29.93 in1013.5 mb 0.00 in0.0 mm 0.00 in0.0 mm 0.07 in1.8 mm
12:35 PM 88.9°F31.6°C 79.9°F26.6°C 75% 4.0 mph WNW6.4 kmh WNW 10.0 mph16.1 kmh 29.93 in1013.5 mb 0.00 in0.0 mm 0.00 in0.0 mm 0.07 in1.8 mm
12:34 PM 88.9°F31.6°C 79.9°F26.6°C 75% 9.0 mph NW14.5 kmh NW 10.0 mph16.1 kmh 29.93 in1013.5 mb 0.00 in0.0 mm 0.00 in0.0 mm 0.07 in1.8 mm
12:33 PM 88.9°F31.6°C 80.3°F26.8°C 76% 5.0 mph NW8.0 kmh NW 11.0 mph17.7 kmh 29.93 in1013.5 mb 0.00 in0.0 mm 0.00 in0.0 mm 0.07 in1.8 mm
12:32 PM 88.8°F31.6°C 80.6°F27.0°C 77% 2.0 mph NW3.2 kmh NW 11.0 mph17.7 kmh 29.93 in1013.5 mb 0.00 in0.0 mm 0.00 in0.0 mm 0.07 in1.8 mm
12:31 PM 88.7°F31.5°C 81.3°F27.4°C 79% 8.0 mph NW12.9 kmh NW 11.0 mph17.7 kmh 29.93 in1013.5 mb 0.00 in0.0 mm 0.00 in0.0 mm 0.07 in1.8 mm
12:30 PM 88.5°F31.4°C 79.9°F26.6°C 76% 6.0 mph W9.7 kmh W 11.0 mph17.7 kmh 29.93 in1013.5 mb 0.00 in0.0 mm 0.00 in0.0 mm 0.07 in1.8 mm
12:29 PM 88.4°F31.3°C 79.8°F26.6°C 76% 4.0 mph NW6.4 kmh NW 11.0 mph17.7 kmh 29.93 in1013.5 mb 0.00 in0.0 mm 0.00 in0.0 mm 0.07 in1.8 mm
12:28 PM 88.4°F31.3°C 79.8°F26.6°C 76% 3.0 mph WNW4.8 kmh WNW 12.0 mph19.3 kmh 29.92 in1013.2 mb 0.00 in0.0 mm 0.00 in0.0 mm 0.07 in1.8 mm
12:27 PM 88.4°F31.3°C 79.4°F26.3°C 75% 7.0 mph NW11.3 kmh NW 12.0 mph19.3 kmh 29.93 in1013.5 mb 0.00 in0.0 mm 0.00 in0.0 mm 0.07 in1.8 mm
12:26 PM 88.4°F31.3°C 79.4°F26.3°C 75% 9.0 mph W14.5 kmh W 16.0 mph25.7 kmh 29.93 in1013.5 mb 0.00 in0.0 mm 0.00 in0.0 mm 0.07 in1.8 mm
12:25 PM 88.5°F31.4°C 79.5°F26.4°C 75% 6.0 mph NW9.7 kmh NW 16.0 mph25.7 kmh 29.93 in1013.5 mb 0.00 in0.0 mm 0.00 in0.0 mm 0.07 in1.8 mm
12:24 PM 88.4°F31.3°C 79.4°F26.3°C 75% 4.0 mph NW6.4 kmh NW 16.0 mph25.7 kmh 29.93 in1013.5 mb 0.00 in0.0 mm 0.00 in0.0 mm 0.07 in1.8 mm
12:23 PM 88.3°F31.3°C 79.7°F26.5°C 76% 6.0 mph NW9.7 kmh NW 16.0 mph25.7 kmh 29.93 in1013.5 mb 0.00 in0.0 mm 0.00 in0.0 mm 0.07 in1.8 mm
12:22 PM 88.2°F31.2°C 79.7°F26.5°C 76% 2.0 mph NW3.2 kmh NW 16.0 mph25.7 kmh 29.93 in1013.5 mb 0.00 in0.0 mm 0.00 in0.0 mm 0.07 in1.8 mm
12:21 PM 88.1°F31.2°C 79.2°F26.2°C 75% 3.0 mph NW4.8 kmh NW 16.0 mph25.7 kmh 29.93 in1013.5 mb 0.00 in0.0 mm 0.00 in0.0 mm 0.07 in1.8 mm
12:20 PM 88.0°F31.1°C 79.1°F26.2°C 75% 4.0 mph NW6.4 kmh NW 16.0 mph25.7 kmh 29.93 in1013.5 mb 0.00 in0.0 mm 0.00 in0.0 mm 0.07 in1.8 mm
12:19 PM 88.1°F31.2°C 79.2°F26.2°C 75% 5.0 mph NW8.0 kmh NW 16.0 mph25.7 kmh 29.93 in1013.5 mb 0.00 in0.0 mm 0.00 in0.0 mm 0.07 in1.8 mm
12:18 PM 88.0°F31.1°C 78.6°F25.9°C 74% 7.0 mph W11.3 kmh W 16.0 mph25.7 kmh 29.93 in1013.5 mb 0.00 in0.0 mm 0.00 in0.0 mm 0.07 in1.8 mm
12:17 PM 88.0°F31.1°C 79.1°F26.2°C 75% 12.0 mph WNW19.3 kmh WNW 14.0 mph22.5 kmh 29.93 in1013.5 mb 0.00 in0.0 mm 0.00 in0.0 mm 0.07 in1.8 mm
12:16 PM 87.9°F31.1°C 79.0°F26.1°C 75% 6.0 mph W9.7 kmh W 14.0 mph22.5 kmh 29.93 in1013.5 mb 0.00 in0.0 mm 0.00 in0.0 mm 0.07 in1.8 mm
12:15 PM 87.9°F31.1°C 78.5°F25.8°C 74% 9.0 mph NW14.5 kmh NW 14.0 mph22.5 kmh 29.93 in1013.5 mb 0.00 in0.0 mm 0.00 in0.0 mm 0.07 in1.8 mm
12:14 PM 87.9°F31.1°C 78.1°F25.6°C 73% 4.0 mph NE6.4 kmh NE 14.0 mph22.5 kmh 29.93 in1013.5 mb 0.00 in0.0 mm 0.00 in0.0 mm 0.07 in1.8 mm
12:13 PM 87.9°F31.1°C 78.1°F25.6°C 73% 9.0 mph WNW14.5 kmh WNW 11.0 mph17.7 kmh 29.93 in1013.5 mb 0.00 in0.0 mm 0.00 in0.0 mm 0.07 in1.8 mm
12:12 PM 87.9°F31.1°C 79.0°F26.1°C 75% 8.0 mph NW12.9 kmh NW 13.0 mph20.9 kmh 29.93 in1013.5 mb 0.00 in0.0 mm 0.00 in0.0 mm 0.07 in1.8 mm
12:11 PM 87.9°F31.1°C 78.5°F25.8°C 74% 10.0 mph NW16.1 kmh NW 13.0 mph20.9 kmh 29.93 in1013.5 mb 0.00 in0.0 mm 0.00 in0.0 mm 0.07 in1.8 mm
12:10 PM 87.8°F31.0°C 78.5°F25.8°C 74% 6.0 mph WNW9.7 kmh WNW 13.0 mph20.9 kmh 29.93 in1013.5 mb 0.00 in0.0 mm 0.00 in0.0 mm 0.07 in1.8 mm
12:09 PM 87.8°F31.0°C 78.9°F26.1°C 75% 8.0 mph W12.9 kmh W 14.0 mph22.5 kmh 29.93 in1013.5 mb 0.00 in0.0 mm 0.00 in0.0 mm 0.07 in1.8 mm
12:08 PM 87.7°F30.9°C 78.8°F26.0°C 75% 8.0 mph WNW12.9 kmh WNW 14.0 mph22.5 kmh 29.93 in1013.5 mb 0.00 in0.0 mm 0.00 in0.0 mm 0.07 in1.8 mm
12:07 PM 87.6°F30.9°C 78.7°F25.9°C 75% 4.0 mph NW6.4 kmh NW 14.0 mph22.5 kmh 29.93 in1013.5 mb 0.00 in0.0 mm 0.00 in0.0 mm 0.07 in1.8 mm
12:06 PM 87.6°F30.9°C 79.1°F26.2°C 76% 4.0 mph N6.4 kmh N 14.0 mph22.5 kmh 29.93 in1013.5 mb 0.00 in0.0 mm 0.00 in0.0 mm 0.07 in1.8 mm
12:05 PM 87.6°F30.9°C 78.7°F25.9°C 75% 5.0 mph NW8.0 kmh NW 14.0 mph22.5 kmh 29.93 in1013.5 mb 0.00 in0.0 mm 0.00 in0.0 mm 0.07 in1.8 mm
12:04 PM 87.6°F30.9°C 79.1°F26.2°C 76% 9.0 mph NW14.5 kmh NW 14.0 mph22.5 kmh 29.93 in1013.5 mb 0.00 in0.0 mm 0.00 in0.0 mm 0.07 in1.8 mm
12:03 PM 87.6°F30.9°C 79.1°F26.2°C 76% 10.0 mph WNW16.1 kmh WNW 14.0 mph22.5 kmh 29.93 in1013.5 mb 0.00 in0.0 mm 0.00 in0.0 mm 0.07 in1.8 mm
12:02 PM 87.6°F30.9°C 79.1°F26.2°C 76% 3.0 mph NW4.8 kmh NW 14.0 mph22.5 kmh 29.93 in1013.5 mb 0.00 in0.0 mm 0.00 in0.0 mm 0.07 in1.8 mm
12:01 PM 87.6°F30.9°C 79.1°F26.2°C 76% 4.0 mph WNW6.4 kmh WNW 14.0 mph22.5 kmh 29.93 in1013.5 mb 0.00 in0.0 mm 0.00 in0.0 mm 0.07 in1.8 mm
12:00 PM 87.6°F30.9°C 79.1°F26.2°C 76% 9.0 mph NW14.5 kmh NW 12.0 mph19.3 kmh 29.93 in1013.5 mb 0.00 in0.0 mm 0.00 in0.0 mm 0.07 in1.8 mm
11:59 AM 87.6°F30.9°C 79.1°F26.2°C 76% 11.0 mph NNW17.7 kmh NNW 12.0 mph19.3 kmh 29.93 in1013.5 mb 0.00 in0.0 mm 0.00 in0.0 mm 0.07 in1.8 mm
11:58 AM 87.7°F30.9°C 79.6°F26.4°C 77% 6.0 mph NW9.7 kmh NW 12.0 mph19.3 kmh 29.94 in1013.9 mb 0.00 in0.0 mm 0.00 in0.0 mm 0.07 in1.8 mm
11:57 AM 87.7°F30.9°C 79.6°F26.4°C 77% 5.0 mph NW8.0 kmh NW 12.0 mph19.3 kmh 29.94 in1013.9 mb 0.00 in0.0 mm 0.00 in0.0 mm 0.07 in1.8 mm
11:56 AM 87.7°F30.9°C 79.2°F26.2°C 76% 9.0 mph NW14.5 kmh NW 11.0 mph17.7 kmh 29.94 in1013.9 mb 0.00 in0.0 mm 0.00 in0.0 mm 0.07 in1.8 mm
11:55 AM 87.7°F30.9°C 79.6°F26.4°C 77% 7.0 mph W11.3 kmh W 11.0 mph17.7 kmh 29.94 in1013.9 mb 0.00 in0.0 mm 0.00 in0.0 mm 0.07 in1.8 mm
11:54 AM 87.7°F30.9°C 79.6°F26.4°C 77% 1.0 mph NW1.6 kmh NW 13.0 mph20.9 kmh 29.94 in1013.9 mb 0.00 in0.0 mm 0.00 in0.0 mm 0.07 in1.8 mm
11:53 AM 87.6°F30.9°C 79.1°F26.2°C 76% 2.0 mph NW3.2 kmh NW 13.0 mph20.9 kmh 29.94 in1013.9 mb 0.00 in0.0 mm 0.00 in0.0 mm 0.07 in1.8 mm
11:52 AM 87.5°F30.8°C 79.4°F26.3°C 77% 8.0 mph NW12.9 kmh NW 13.0 mph20.9 kmh 29.94 in1013.9 mb 0.00 in0.0 mm 0.00 in0.0 mm 0.07 in1.8 mm
11:51 AM 87.4°F30.8°C 79.3°F26.3°C 77% 5.0 mph WNW8.0 kmh WNW 13.0 mph20.9 kmh 29.94 in1013.9 mb 0.00 in0.0 mm 0.00 in0.0 mm 0.07 in1.8 mm
11:50 AM 87.3°F30.7°C 79.6°F26.4°C 78% 1.0 mph NW1.6 kmh NW 13.0 mph20.9 kmh 29.94 in1013.9 mb 0.00 in0.0 mm 0.00 in0.0 mm 0.07 in1.8 mm
11:49 AM 87.1°F30.6°C 79.4°F26.3°C 78% 2.0 mph WNW3.2 kmh WNW 13.0 mph20.9 kmh 29.94 in1013.9 mb 0.00 in0.0 mm 0.00 in0.0 mm 0.07 in1.8 mm
11:48 AM 86.9°F30.5°C 78.8°F26.0°C 77% Calm Calm 13.0 mph20.9 kmh 29.94 in1013.9 mb 0.00 in0.0 mm 0.00 in0.0 mm 0.07 in1.8 mm
11:47 AM 86.8°F30.4°C 78.7°F25.9°C 77% 1.0 mph WNW1.6 kmh WNW 13.0 mph20.9 kmh 29.93 in1013.5 mb 0.00 in0.0 mm 0.00 in0.0 mm 0.07 in1.8 mm
11:46 AM 86.7°F30.4°C 78.6°F25.9°C 77% 2.0 mph N3.2 kmh N 13.0 mph20.9 kmh 29.93 in1013.5 mb 0.00 in0.0 mm 0.00 in0.0 mm 0.07 in1.8 mm
11:45 AM 86.6°F30.3°C 78.9°F26.1°C 78% 10.0 mph WNW16.1 kmh WNW 13.0 mph20.9 kmh 29.93 in1013.5 mb 0.00 in0.0 mm 0.00 in0.0 mm 0.07 in1.8 mm
11:44 AM 86.5°F30.3°C 78.8°F26.0°C 78% 6.0 mph W9.7 kmh W 10.0 mph16.1 kmh 29.94 in1013.9 mb 0.00 in0.0 mm 0.00 in0.0 mm 0.07 in1.8 mm
11:43 AM 86.4°F30.2°C 78.7°F25.9°C 78% 8.0 mph NW12.9 kmh NW 10.0 mph16.1 kmh 29.94 in1013.9 mb 0.00 in0.0 mm 0.00 in0.0 mm 0.07 in1.8 mm
11:42 AM 86.2°F30.1°C 78.5°F25.8°C 78% 8.0 mph NW12.9 kmh NW 10.0 mph16.1 kmh 29.94 in1013.9 mb 0.00 in0.0 mm 0.00 in0.0 mm 0.07 in1.8 mm
11:41 AM 86.1°F30.1°C 78.4°F25.8°C 78% 2.0 mph WNW3.2 kmh WNW 10.0 mph16.1 kmh 29.94 in1013.9 mb 0.00 in0.0 mm 0.00 in0.0 mm 0.07 in1.8 mm
11:40 AM 86.1°F30.1°C 78.4°F25.8°C 78% 1.0 mph N1.6 kmh N 12.0 mph19.3 kmh 29.94 in1013.9 mb 0.00 in0.0 mm 0.00 in0.0 mm 0.07 in1.8 mm
11:39 AM 86.0°F30.0°C 78.3°F25.7°C 78% 4.0 mph W6.4 kmh W 12.0 mph19.3 kmh 29.94 in1013.9 mb 0.00 in0.0 mm 0.00 in0.0 mm 0.07 in1.8 mm
11:38 AM 86.0°F30.0°C 78.3°F25.7°C 78% 1.0 mph WNW1.6 kmh WNW 12.0 mph19.3 kmh 29.94 in1013.9 mb 0.00 in0.0 mm 0.00 in0.0 mm 0.07 in1.8 mm
11:37 AM 86.0°F30.0°C 78.3°F25.7°C 78% Calm Calm 12.0 mph19.3 kmh 29.94 in1013.9 mb 0.00 in0.0 mm 0.00 in0.0 mm 0.07 in1.8 mm
11:36 AM 85.9°F29.9°C 78.2°F25.7°C 78% 3.0 mph NW4.8 kmh NW 13.0 mph20.9 kmh 29.94 in1013.9 mb 0.00 in0.0 mm 0.00 in0.0 mm 0.07 in1.8 mm
11:35 AM 86.0°F30.0°C 78.3°F25.7°C 78% 4.0 mph NW6.4 kmh NW 13.0 mph20.9 kmh 29.94 in1013.9 mb 0.00 in0.0 mm 0.00 in0.0 mm 0.07 in1.8 mm
11:34 AM 86.0°F30.0°C 78.3°F25.7°C 78% Calm Calm 13.0 mph20.9 kmh 29.94 in1013.9 mb 0.00 in0.0 mm 0.00 in0.0 mm 0.07 in1.8 mm
11:33 AM 86.0°F30.0°C 77.9°F25.5°C 77% 1.0 mph NW1.6 kmh NW 13.0 mph20.9 kmh 29.94 in1013.9 mb 0.00 in0.0 mm 0.00 in0.0 mm 0.07 in1.8 mm
11:32 AM 86.0°F30.0°C 77.9°F25.5°C 77% 3.0 mph NW4.8 kmh NW 13.0 mph20.9 kmh 29.94 in1013.9 mb 0.00 in0.0 mm 0.00 in0.0 mm 0.07 in1.8 mm
11:31 AM 86.1°F30.1°C 78.0°F25.6°C 77% 9.0 mph WNW14.5 kmh WNW 13.0 mph20.9 kmh 29.94 in1013.9 mb 0.00 in0.0 mm 0.00 in0.0 mm 0.07 in1.8 mm
11:30 AM 86.1°F30.1°C 78.4°F25.8°C 78% 9.0 mph NNW14.5 kmh NNW 13.0 mph20.9 kmh 29.94 in1013.9 mb 0.00 in0.0 mm 0.00 in0.0 mm 0.07 in1.8 mm
11:29 AM 86.2°F30.1°C 78.5°F25.8°C 78% 2.0 mph NW3.2 kmh NW 13.0 mph20.9 kmh 29.94 in1013.9 mb 0.00 in0.0 mm 0.00 in0.0 mm 0.07 in1.8 mm
11:28 AM 86.3°F30.2°C 78.6°F25.9°C 78% 3.0 mph W4.8 kmh W 13.0 mph20.9 kmh 29.94 in1013.9 mb 0.00 in0.0 mm 0.00 in0.0 mm 0.07 in1.8 mm
11:27 AM 86.3°F30.2°C 79.0°F26.1°C 79% 6.0 mph W9.7 kmh W 13.0 mph20.9 kmh 29.94 in1013.9 mb 0.00 in0.0 mm 0.00 in0.0 mm 0.07 in1.8 mm
11:26 AM 86.3°F30.2°C 78.6°F25.9°C 78% 4.0 mph NW6.4 kmh NW 13.0 mph20.9 kmh 29.94 in1013.9 mb 0.00 in0.0 mm 0.00 in0.0 mm 0.07 in1.8 mm
11:25 AM 86.4°F30.2°C 78.7°F25.9°C 78% 11.0 mph WNW17.7 kmh WNW 12.0 mph19.3 kmh 29.94 in1013.9 mb 0.00 in0.0 mm 0.00 in0.0 mm 0.07 in1.8 mm
11:24 AM 86.4°F30.2°C 78.7°F25.9°C 78% 10.0 mph W16.1 kmh W 12.0 mph19.3 kmh 29.94 in1013.9 mb 0.00 in0.0 mm 0.00 in0.0 mm 0.07 in1.8 mm
11:23 AM 86.5°F30.3°C 78.8°F26.0°C 78% 6.0 mph WNW9.7 kmh WNW 12.0 mph19.3 kmh 29.94 in1013.9 mb 0.00 in0.0 mm 0.00 in0.0 mm 0.07 in1.8 mm
11:22 AM 86.5°F30.3°C 78.8°F26.0°C 78% 9.0 mph WNW14.5 kmh WNW 12.0 mph19.3 kmh 29.94 in1013.9 mb 0.00 in0.0 mm 0.00 in0.0 mm 0.07 in1.8 mm
11:21 AM 86.6°F30.3°C 78.5°F25.8°C 77% 9.0 mph W14.5 kmh W 12.0 mph19.3 kmh 29.94 in1013.9 mb 0.00 in0.0 mm 0.00 in0.0 mm 0.07 in1.8 mm
11:20 AM 86.6°F30.3°C 78.5°F25.8°C 77% 5.0 mph NW8.0 kmh NW 12.0 mph19.3 kmh 29.94 in1013.9 mb 0.00 in0.0 mm 0.00 in0.0 mm 0.07 in1.8 mm
11:19 AM 86.8°F30.4°C 78.7°F25.9°C 77% 5.0 mph NW8.0 kmh NW 12.0 mph19.3 kmh 29.94 in1013.9 mb 0.00 in0.0 mm 0.00 in0.0 mm 0.07 in1.8 mm
11:18 AM 86.8°F30.4°C 78.7°F25.9°C 77% 5.0 mph WNW8.0 kmh WNW 12.0 mph19.3 kmh 29.94 in1013.9 mb 0.00 in0.0 mm 0.00 in0.0 mm 0.07 in1.8 mm
11:17 AM 86.9°F30.5°C 78.8°F26.0°C 77% 4.0 mph NNW6.4 kmh NNW 12.0 mph19.3 kmh 29.94 in1013.9 mb 0.00 in0.0 mm 0.00 in0.0 mm 0.07 in1.8 mm
11:16 AM 86.9°F30.5°C 78.8°F26.0°C 77% 4.0 mph NNW6.4 kmh NNW 12.0 mph19.3 kmh 29.94 in1013.9 mb 0.00 in0.0 mm 0.00 in0.0 mm 0.07 in1.8 mm
11:15 AM 86.9°F30.5°C 78.8°F26.0°C 77% 9.0 mph NW14.5 kmh NW 12.0 mph19.3 kmh 29.94 in1013.9 mb 0.00 in0.0 mm 0.00 in0.0 mm 0.07 in1.8 mm
11:14 AM 86.9°F30.5°C 79.2°F26.2°C 78% 7.0 mph NW11.3 kmh NW 12.0 mph19.3 kmh 29.94 in1013.9 mb 0.00 in0.0 mm 0.00 in0.0 mm 0.07 in1.8 mm
11:13 AM 86.9°F30.5°C 79.2°F26.2°C 78% 7.0 mph W11.3 kmh W 12.0 mph19.3 kmh 29.94 in1013.9 mb 0.00 in0.0 mm 0.00 in0.0 mm 0.07 in1.8 mm
11:12 AM 86.8°F30.4°C 79.1°F26.2°C 78% Calm Calm 12.0 mph19.3 kmh 29.94 in1013.9 mb 0.00 in0.0 mm 0.00 in0.0 mm 0.07 in1.8 mm
11:11 AM 86.7°F30.4°C 79.0°F26.1°C 78% 7.0 mph NW11.3 kmh NW 12.0 mph19.3 kmh 29.94 in1013.9 mb 0.00 in0.0 mm 0.00 in0.0 mm 0.07 in1.8 mm
11:10 AM 86.7°F30.4°C 79.0°F26.1°C 78% 7.0 mph WNW11.3 kmh WNW 12.0 mph19.3 kmh 29.94 in1013.9 mb 0.00 in0.0 mm 0.00 in0.0 mm 0.07 in1.8 mm
11:09 AM 86.7°F30.4°C 79.4°F26.3°C 79% 3.0 mph NW4.8 kmh NW 12.0 mph19.3 kmh 29.94 in1013.9 mb 0.00 in0.0 mm 0.00 in0.0 mm 0.07 in1.8 mm
11:08 AM 86.6°F30.3°C 78.9°F26.1°C 78% 4.0 mph NNW6.4 kmh NNW 16.0 mph25.7 kmh 29.94 in1013.9 mb 0.00 in0.0 mm 0.00 in0.0 mm 0.07 in1.8 mm
11:07 AM 86.6°F30.3°C 79.3°F26.3°C 79% 9.0 mph W14.5 kmh W 16.0 mph25.7 kmh 29.94 in1013.9 mb 0.00 in0.0 mm 0.00 in0.0 mm 0.07 in1.8 mm
11:06 AM 86.6°F30.3°C 79.3°F26.3°C 79% 5.0 mph WNW8.0 kmh WNW 16.0 mph25.7 kmh 29.94 in1013.9 mb 0.00 in0.0 mm 0.00 in0.0 mm 0.07 in1.8 mm
11:05 AM 86.5°F30.3°C 79.2°F26.2°C 79% 1.0 mph NW1.6 kmh NW 16.0 mph25.7 kmh 29.94 in1013.9 mb 0.00 in0.0 mm 0.00 in0.0 mm 0.07 in1.8 mm
11:04 AM 86.5°F30.3°C 79.2°F26.2°C 79% 9.0 mph NW14.5 kmh NW 16.0 mph25.7 kmh 29.94 in1013.9 mb 0.00 in0.0 mm 0.00 in0.0 mm 0.07 in1.8 mm
11:03 AM 86.5°F30.3°C 79.2°F26.2°C 79% 6.0 mph W9.7 kmh W 16.0 mph25.7 kmh 29.94 in1013.9 mb 0.00 in0.0 mm 0.00 in0.0 mm 0.07 in1.8 mm
11:02 AM 86.4°F30.2°C 79.1°F26.2°C 79% 6.0 mph W9.7 kmh W 16.0 mph25.7 kmh 29.94 in1013.9 mb 0.00 in0.0 mm 0.00 in0.0 mm 0.07 in1.8 mm
11:01 AM 86.4°F30.2°C 78.7°F25.9°C 78% 8.0 mph WNW12.9 kmh WNW 16.0 mph25.7 kmh 29.94 in1013.9 mb 0.00 in0.0 mm 0.00 in0.0 mm 0.07 in1.8 mm
11:00 AM 86.4°F30.2°C 78.7°F25.9°C 78% 7.0 mph WNW11.3 kmh WNW 16.0 mph25.7 kmh 29.94 in1013.9 mb 0.00 in0.0 mm 0.00 in0.0 mm 0.07 in1.8 mm
10:59 AM 86.4°F30.2°C 78.7°F25.9°C 78% 7.0 mph NW11.3 kmh NW 13.0 mph20.9 kmh 29.94 in1013.9 mb 0.00 in0.0 mm 0.00 in0.0 mm 0.07 in1.8 mm
10:58 AM 86.4°F30.2°C 79.1°F26.2°C 79% 4.0 mph WNW6.4 kmh WNW 13.0 mph20.9 kmh 29.94 in1013.9 mb 0.00 in0.0 mm 0.00 in0.0 mm 0.07 in1.8 mm
10:57 AM 86.4°F30.2°C 79.1°F26.2°C 79% 3.0 mph NW4.8 kmh NW 13.0 mph20.9 kmh 29.95 in1014.2 mb 0.00 in0.0 mm 0.00 in0.0 mm 0.07 in1.8 mm
10:56 AM 86.4°F30.2°C 79.1°F26.2°C 79% 12.0 mph W19.3 kmh W 13.0 mph20.9 kmh 29.94 in1013.9 mb 0.00 in0.0 mm 0.00 in0.0 mm 0.07 in1.8 mm
10:55 AM 86.4°F30.2°C 78.7°F25.9°C 78% 8.0 mph WNW12.9 kmh WNW 13.0 mph20.9 kmh 29.95 in1014.2 mb 0.00 in0.0 mm 0.00 in0.0 mm 0.07 in1.8 mm
10:54 AM 86.4°F30.2°C 78.7°F25.9°C 78% 10.0 mph W16.1 kmh W 13.0 mph20.9 kmh 29.95 in1014.2 mb 0.00 in0.0 mm 0.00 in0.0 mm 0.07 in1.8 mm
10:53 AM 86.5°F30.3°C 78.8°F26.0°C 78% 10.0 mph WSW16.1 kmh WSW 13.0 mph20.9 kmh 29.95 in1014.2 mb 0.00 in0.0 mm 0.00 in0.0 mm 0.07 in1.8 mm
10:52 AM 86.6°F30.3°C 79.3°F26.3°C 79% 5.0 mph NW8.0 kmh NW 13.0 mph20.9 kmh 29.95 in1014.2 mb 0.00 in0.0 mm 0.00 in0.0 mm 0.07 in1.8 mm
10:51 AM 86.6°F30.3°C 79.3°F26.3°C 79% 11.0 mph WNW17.7 kmh WNW 14.0 mph22.5 kmh 29.95 in1014.2 mb 0.00 in0.0 mm 0.00 in0.0 mm 0.07 in1.8 mm
10:50 AM 86.5°F30.3°C 79.2°F26.2°C 79% 6.0 mph W9.7 kmh W 14.0 mph22.5 kmh 29.95 in1014.2 mb 0.00 in0.0 mm 0.00 in0.0 mm 0.07 in1.8 mm
10:49 AM 86.5°F30.3°C 79.2°F26.2°C 79% 5.0 mph NW8.0 kmh NW 14.0 mph22.5 kmh 29.95 in1014.2 mb 0.00 in0.0 mm 0.00 in0.0 mm 0.07 in1.8 mm
10:48 AM 86.4°F30.2°C 79.1°F26.2°C 79% 5.0 mph NW8.0 kmh NW 14.0 mph22.5 kmh 29.95 in1014.2 mb 0.00 in0.0 mm 0.00 in0.0 mm 0.07 in1.8 mm
10:47 AM 86.4°F30.2°C 79.1°F26.2°C 79% 9.0 mph WNW14.5 kmh WNW 14.0 mph22.5 kmh 29.95 in1014.2 mb 0.00 in0.0 mm 0.00 in0.0 mm 0.07 in1.8 mm
10:46 AM 86.3°F30.2°C 79.0°F26.1°C 79% 9.0 mph WNW14.5 kmh WNW 14.0 mph22.5 kmh 29.95 in1014.2 mb 0.00 in0.0 mm 0.00 in0.0 mm 0.07 in1.8 mm
10:45 AM 86.2°F30.1°C 79.3°F26.3°C 80% 4.0 mph NW6.4 kmh NW 14.0 mph22.5 kmh 29.94 in1013.9 mb 0.00 in0.0 mm 0.00 in0.0 mm 0.07 in1.8 mm
10:44 AM 86.2°F30.1°C 78.9°F26.1°C 79% 4.0 mph W6.4 kmh W 14.0 mph22.5 kmh 29.95 in1014.2 mb 0.00 in0.0 mm 0.00 in0.0 mm 0.07 in1.8 mm
10:43 AM 86.1°F30.1°C 78.8°F26.0°C 79% 10.0 mph W16.1 kmh W 15.0 mph24.1 kmh 29.95 in1014.2 mb 0.00 in0.0 mm 0.00 in0.0 mm 0.07 in1.8 mm
10:42 AM 86.2°F30.1°C 78.9°F26.1°C 79% 8.0 mph NW12.9 kmh NW 15.0 mph24.1 kmh 29.95 in1014.2 mb 0.00 in0.0 mm 0.00 in0.0 mm 0.07 in1.8 mm
10:41 AM 86.2°F30.1°C 78.9°F26.1°C 79% 9.0 mph NW14.5 kmh NW 15.0 mph24.1 kmh 29.95 in1014.2 mb 0.00 in0.0 mm 0.00 in0.0 mm 0.07 in1.8 mm
10:40 AM 86.2°F30.1°C 79.3°F26.3°C 80% 8.0 mph WNW12.9 kmh WNW 15.0 mph24.1 kmh 29.95 in1014.2 mb 0.00 in0.0 mm 0.00 in0.0 mm 0.07 in1.8 mm
10:39 AM 86.2°F30.1°C 79.3°F26.3°C 80% 11.0 mph NW17.7 kmh NW 15.0 mph24.1 kmh 29.95 in1014.2 mb 0.00 in0.0 mm 0.00 in0.0 mm 0.07 in1.8 mm
10:38 AM 86.2°F30.1°C 79.3°F26.3°C 80% 5.0 mph WSW8.0 kmh WSW 15.0 mph24.1 kmh 29.95 in1014.2 mb 0.00 in0.0 mm 0.00 in0.0 mm 0.07 in1.8 mm
10:37 AM 86.1°F30.1°C 79.2°F26.2°C 80% 7.0 mph W11.3 kmh W 15.0 mph24.1 kmh 29.95 in1014.2 mb 0.00 in0.0 mm 0.00 in0.0 mm 0.07 in1.8 mm
10:36 AM 86.0°F30.0°C 79.1°F26.2°C 80% 8.0 mph NW12.9 kmh NW 15.0 mph24.1 kmh 29.95 in1014.2 mb 0.00 in0.0 mm 0.00 in0.0 mm 0.07 in1.8 mm
10:35 AM 85.9°F29.9°C 79.0°F26.1°C 80% 9.0 mph WSW14.5 kmh WSW 15.0 mph24.1 kmh 29.95 in1014.2 mb 0.00 in0.0 mm 0.00 in0.0 mm 0.07 in1.8 mm
10:34 AM 85.8°F29.9°C 78.9°F26.1°C 80% 15.0 mph WNW24.1 kmh WNW 15.0 mph24.1 kmh 29.94 in1013.9 mb 0.00 in0.0 mm 0.00 in0.0 mm 0.07 in1.8 mm
10:33 AM 85.8°F29.9°C 78.9°F26.1°C 80% 7.0 mph WNW11.3 kmh WNW 15.0 mph24.1 kmh 29.95 in1014.2 mb 0.00 in0.0 mm 0.00 in0.0 mm 0.07 in1.8 mm
10:32 AM 85.7°F29.8°C 78.8°F26.0°C 80% 7.0 mph W11.3 kmh W 14.0 mph22.5 kmh 29.94 in1013.9 mb 0.00 in0.0 mm 0.00 in0.0 mm 0.07 in1.8 mm
10:31 AM 85.8°F29.9°C 79.3°F26.3°C 81% 7.0 mph WNW11.3 kmh WNW 14.0 mph22.5 kmh 29.94 in1013.9 mb 0.00 in0.0 mm 0.00 in0.0 mm 0.07 in1.8 mm
10:30 AM 85.8°F29.9°C 79.3°F26.3°C 81% 10.0 mph NW16.1 kmh NW 14.0 mph22.5 kmh 29.94 in1013.9 mb 0.00 in0.0 mm 0.00 in0.0 mm 0.07 in1.8 mm
10:29 AM 85.8°F29.9°C 79.3°F26.3°C 81% Calm Calm 14.0 mph22.5 kmh 29.94 in1013.9 mb 0.00 in0.0 mm 0.00 in0.0 mm 0.07 in1.8 mm
10:28 AM 85.8°F29.9°C 79.3°F26.3°C 81% 8.0 mph WNW12.9 kmh WNW 14.0 mph22.5 kmh 29.94 in1013.9 mb 0.00 in0.0 mm 0.00 in0.0 mm 0.07 in1.8 mm
10:27 AM 85.8°F29.9°C 79.3°F26.3°C 81% 4.0 mph W6.4 kmh W 14.0 mph22.5 kmh 29.94 in1013.9 mb 0.00 in0.0 mm 0.00 in0.0 mm 0.07 in1.8 mm
10:26 AM 85.9°F29.9°C 79.4°F26.3°C 81% 6.0 mph W9.7 kmh W 14.0 mph22.5 kmh 29.94 in1013.9 mb 0.00 in0.0 mm 0.00 in0.0 mm 0.07 in1.8 mm
10:25 AM 85.8°F29.9°C 79.3°F26.3°C 81% 5.0 mph NW8.0 kmh NW 13.0 mph20.9 kmh 29.94 in1013.9 mb 0.00 in0.0 mm 0.00 in0.0 mm 0.07 in1.8 mm
10:24 AM 85.8°F29.9°C 79.6°F26.4°C 82% 10.0 mph WNW16.1 kmh WNW 13.0 mph20.9 kmh 29.94 in1013.9 mb 0.00 in0.0 mm 0.00 in0.0 mm 0.07 in1.8 mm
10:23 AM 85.7°F29.8°C 79.6°F26.4°C 82% 8.0 mph WNW12.9 kmh WNW 13.0 mph20.9 kmh 29.94 in1013.9 mb 0.00 in0.0 mm 0.00 in0.0 mm 0.07 in1.8 mm
10:22 AM 85.7°F29.8°C 79.2°F26.2°C 81% 12.0 mph W19.3 kmh W 13.0 mph20.9 kmh 29.94 in1013.9 mb 0.00 in0.0 mm 0.00 in0.0 mm 0.07 in1.8 mm
10:21 AM 85.7°F29.8°C 79.2°F26.2°C 81% 11.0 mph WNW17.7 kmh WNW 12.0 mph19.3 kmh 29.94 in1013.9 mb 0.00 in0.0 mm 0.00 in0.0 mm 0.07 in1.8 mm
10:20 AM 85.7°F29.8°C 79.2°F26.2°C 81% 2.0 mph WSW3.2 kmh WSW 12.0 mph19.3 kmh 29.94 in1013.9 mb 0.00 in0.0 mm 0.00 in0.0 mm 0.07 in1.8 mm
10:19 AM 85.7°F29.8°C 79.2°F26.2°C 81% 7.0 mph W11.3 kmh W 12.0 mph19.3 kmh 29.94 in1013.9 mb 0.00 in0.0 mm 0.00 in0.0 mm 0.07 in1.8 mm
10:18 AM 85.7°F29.8°C 79.2°F26.2°C 81% 3.0 mph SW4.8 kmh SW 12.0 mph19.3 kmh 29.94 in1013.9 mb 0.00 in0.0 mm 0.00 in0.0 mm 0.07 in1.8 mm
10:17 AM 85.8°F29.9°C 79.3°F26.3°C 81% 5.0 mph WNW8.0 kmh WNW 12.0 mph19.3 kmh 29.94 in1013.9 mb 0.00 in0.0 mm 0.00 in0.0 mm 0.07 in1.8 mm
10:16 AM 85.8°F29.9°C 79.6°F26.4°C 82% 3.0 mph W4.8 kmh W 11.0 mph17.7 kmh 29.94 in1013.9 mb 0.00 in0.0 mm 0.00 in0.0 mm 0.07 in1.8 mm
10:15 AM 85.8°F29.9°C 79.6°F26.4°C 82% 3.0 mph NW4.8 kmh NW 11.0 mph17.7 kmh 29.94 in1013.9 mb 0.00 in0.0 mm 0.00 in0.0 mm 0.07 in1.8 mm
10:14 AM 85.7°F29.8°C 79.6°F26.4°C 82% 8.0 mph W12.9 kmh W 11.0 mph17.7 kmh 29.94 in1013.9 mb 0.00 in0.0 mm 0.00 in0.0 mm 0.07 in1.8 mm
10:13 AM 85.7°F29.8°C 79.6°F26.4°C 82% 5.0 mph SW8.0 kmh SW 11.0 mph17.7 kmh 29.93 in1013.5 mb 0.00 in0.0 mm 0.00 in0.0 mm 0.07 in1.8 mm
10:12 AM 85.6°F29.8°C 79.5°F26.4°C 82% 2.0 mph W3.2 kmh W 11.0 mph17.7 kmh 29.93 in1013.5 mb 0.00 in0.0 mm 0.00 in0.0 mm 0.07 in1.8 mm
10:11 AM 85.5°F29.7°C 79.0°F26.1°C 81% 7.0 mph SW11.3 kmh SW 11.0 mph17.7 kmh 29.93 in1013.5 mb 0.00 in0.0 mm 0.00 in0.0 mm 0.07 in1.8 mm
10:10 AM 85.5°F29.7°C 79.0°F26.1°C 81% 7.0 mph WNW11.3 kmh WNW 11.0 mph17.7 kmh 29.93 in1013.5 mb 0.00 in0.0 mm 0.00 in0.0 mm 0.07 in1.8 mm
10:09 AM 85.5°F29.7°C 79.4°F26.3°C 82% 10.0 mph NW16.1 kmh NW 11.0 mph17.7 kmh 29.93 in1013.5 mb 0.00 in0.0 mm 0.00 in0.0 mm 0.07 in1.8 mm
10:08 AM 85.5°F29.7°C 79.4°F26.3°C 82% 3.0 mph WSW4.8 kmh WSW 11.0 mph17.7 kmh 29.93 in1013.5 mb 0.00 in0.0 mm 0.00 in0.0 mm 0.07 in1.8 mm
10:07 AM 85.4°F29.7°C 79.3°F26.3°C 82% 4.0 mph W6.4 kmh W 11.0 mph17.7 kmh 29.93 in1013.5 mb 0.00 in0.0 mm 0.00 in0.0 mm 0.07 in1.8 mm
10:06 AM 85.4°F29.7°C 78.9°F26.1°C 81% Calm Calm 11.0 mph17.7 kmh 29.93 in1013.5 mb 0.00 in0.0 mm 0.00 in0.0 mm 0.07 in1.8 mm
10:05 AM 85.4°F29.7°C 78.9°F26.1°C 81% Calm Calm 11.0 mph17.7 kmh 29.93 in1013.5 mb 0.00 in0.0 mm 0.00 in0.0 mm 0.07 in1.8 mm
10:04 AM 85.5°F29.7°C 79.0°F26.1°C 81% 4.0 mph SW6.4 kmh SW 11.0 mph17.7 kmh 29.93 in1013.5 mb 0.00 in0.0 mm 0.00 in0.0 mm 0.07 in1.8 mm
10:03 AM 85.5°F29.7°C 79.0°F26.1°C 81% 2.0 mph W3.2 kmh W 11.0 mph17.7 kmh 29.93 in1013.5 mb 0.00 in0.0 mm 0.00 in0.0 mm 0.07 in1.8 mm
10:02 AM 85.5°F29.7°C 79.0°F26.1°C 81% 4.0 mph NW6.4 kmh NW 11.0 mph17.7 kmh 29.93 in1013.5 mb 0.00 in0.0 mm 0.00 in0.0 mm 0.07 in1.8 mm
10:01 AM 85.6°F29.8°C 78.7°F25.9°C 80% 4.0 mph W6.4 kmh W 11.0 mph17.7 kmh 29.93 in1013.5 mb 0.00 in0.0 mm 0.00 in0.0 mm 0.07 in1.8 mm
10:00 AM 85.6°F29.8°C 78.7°F25.9°C 80% 8.0 mph W12.9 kmh W 12.0 mph19.3 kmh 29.93 in1013.5 mb 0.00 in0.0 mm 0.00 in0.0 mm 0.07 in1.8 mm
09:59 AM 85.6°F29.8°C 78.7°F25.9°C 80% 11.0 mph WSW17.7 kmh WSW 12.0 mph19.3 kmh 29.93 in1013.5 mb 0.00 in0.0 mm 0.00 in0.0 mm 0.07 in1.8 mm
09:58 AM 85.6°F29.8°C 78.7°F25.9°C 80% 7.0 mph W11.3 kmh W 12.0 mph19.3 kmh 29.93 in1013.5 mb 0.00 in0.0 mm 0.00 in0.0 mm 0.07 in1.8 mm
09:57 AM 85.6°F29.8°C 78.7°F25.9°C 80% 3.0 mph WNW4.8 kmh WNW 12.0 mph19.3 kmh 29.93 in1013.5 mb 0.00 in0.0 mm 0.00 in0.0 mm 0.07 in1.8 mm
09:56 AM 85.6°F29.8°C 78.7°F25.9°C 80% 4.0 mph W6.4 kmh W 12.0 mph19.3 kmh 29.93 in1013.5 mb 0.00 in0.0 mm 0.00 in0.0 mm 0.07 in1.8 mm
09:55 AM 85.6°F29.8°C 78.7°F25.9°C 80% 10.0 mph NW16.1 kmh NW 12.0 mph19.3 kmh 29.93 in1013.5 mb 0.00 in0.0 mm 0.00 in0.0 mm 0.07 in1.8 mm
09:54 AM 85.6°F29.8°C 78.7°F25.9°C 80% 4.0 mph W6.4 kmh W 12.0 mph19.3 kmh 29.93 in1013.5 mb 0.00 in0.0 mm 0.00 in0.0 mm 0.07 in1.8 mm
09:53 AM 85.6°F29.8°C 78.7°F25.9°C 80% 5.0 mph NW8.0 kmh NW 12.0 mph19.3 kmh 29.92 in1013.2 mb 0.00 in0.0 mm 0.00 in0.0 mm 0.07 in1.8 mm
09:52 AM 85.6°F29.8°C 78.7°F25.9°C 80% 7.0 mph WSW11.3 kmh WSW 12.0 mph19.3 kmh 29.92 in1013.2 mb 0.00 in0.0 mm 0.00 in0.0 mm 0.07 in1.8 mm
09:51 AM 85.7°F29.8°C 78.8°F26.0°C 80% 5.0 mph WNW8.0 kmh WNW 11.0 mph17.7 kmh 29.92 in1013.2 mb 0.00 in0.0 mm 0.00 in0.0 mm 0.07 in1.8 mm
09:50 AM 85.8°F29.9°C 78.9°F26.1°C 80% 5.0 mph WSW8.0 kmh WSW 11.0 mph17.7 kmh 29.92 in1013.2 mb 0.00 in0.0 mm 0.00 in0.0 mm 0.07 in1.8 mm
09:49 AM 85.8°F29.9°C 78.9°F26.1°C 80% 2.0 mph SW3.2 kmh SW 13.0 mph20.9 kmh 29.92 in1013.2 mb 0.00 in0.0 mm 0.00 in0.0 mm 0.07 in1.8 mm
09:48 AM 85.8°F29.9°C 78.9°F26.1°C 80% 7.0 mph WSW11.3 kmh WSW 13.0 mph20.9 kmh 29.92 in1013.2 mb 0.00 in0.0 mm 0.00 in0.0 mm 0.07 in1.8 mm
09:47 AM 85.9°F29.9°C 79.0°F26.1°C 80% 4.0 mph WSW6.4 kmh WSW 13.0 mph20.9 kmh 29.92 in1013.2 mb 0.00 in0.0 mm 0.00 in0.0 mm 0.07 in1.8 mm
09:46 AM 85.9°F29.9°C 79.0°F26.1°C 80% 2.0 mph WSW3.2 kmh WSW 13.0 mph20.9 kmh 29.92 in1013.2 mb 0.00 in0.0 mm 0.00 in0.0 mm 0.07 in1.8 mm
09:45 AM 85.8°F29.9°C 78.9°F26.1°C 80% 6.0 mph W9.7 kmh W 13.0 mph20.9 kmh 29.92 in1013.2 mb 0.00 in0.0 mm 0.00 in0.0 mm 0.07 in1.8 mm
09:44 AM 85.8°F29.9°C 78.9°F26.1°C 80% 7.0 mph WSW11.3 kmh WSW 13.0 mph20.9 kmh 29.92 in1013.2 mb 0.00 in0.0 mm 0.00 in0.0 mm 0.07 in1.8 mm
09:43 AM 85.8°F29.9°C 78.9°F26.1°C 80% 1.0 mph WSW1.6 kmh WSW 13.0 mph20.9 kmh 29.92 in1013.2 mb 0.00 in0.0 mm 0.00 in0.0 mm 0.07 in1.8 mm
09:42 AM 85.7°F29.8°C 78.8°F26.0°C 80% 4.0 mph WSW6.4 kmh WSW 13.0 mph20.9 kmh 29.92 in1013.2 mb 0.00 in0.0 mm 0.00 in0.0 mm 0.07 in1.8 mm
09:41 AM 85.7°F29.8°C 78.8°F26.0°C 80% 8.0 mph WSW12.9 kmh WSW 13.0 mph20.9 kmh 29.92 in1013.2 mb 0.00 in0.0 mm 0.00 in0.0 mm 0.07 in1.8 mm
09:40 AM 85.7°F29.8°C 78.8°F26.0°C 80% 2.0 mph WNW3.2 kmh WNW 11.0 mph17.7 kmh 29.92 in1013.2 mb 0.00 in0.0 mm 0.00 in0.0 mm 0.07 in1.8 mm
09:39 AM 85.6°F29.8°C 79.1°F26.2°C 81% 3.0 mph NW4.8 kmh NW 11.0 mph17.7 kmh 29.92 in1013.2 mb 0.00 in0.0 mm 0.00 in0.0 mm 0.07 in1.8 mm
09:38 AM 85.6°F29.8°C 78.7°F25.9°C 80% 2.0 mph WSW3.2 kmh WSW 13.0 mph20.9 kmh 29.93 in1013.5 mb 0.00 in0.0 mm 0.00 in0.0 mm 0.07 in1.8 mm
09:37 AM 85.5°F29.7°C 79.0°F26.1°C 81% 7.0 mph W11.3 kmh W 13.0 mph20.9 kmh 29.93 in1013.5 mb 0.00 in0.0 mm 0.00 in0.0 mm 0.07 in1.8 mm
09:36 AM 85.4°F29.7°C 78.9°F26.1°C 81% 2.0 mph WNW3.2 kmh WNW 13.0 mph20.9 kmh 29.93 in1013.5 mb 0.00 in0.0 mm 0.00 in0.0 mm 0.07 in1.8 mm
09:35 AM 85.3°F29.6°C 78.4°F25.8°C 80% 5.0 mph WSW8.0 kmh WSW 13.0 mph20.9 kmh 29.93 in1013.5 mb 0.00 in0.0 mm 0.00 in0.0 mm 0.07 in1.8 mm
09:34 AM 85.3°F29.6°C 78.8°F26.0°C 81% 7.0 mph WSW11.3 kmh WSW 13.0 mph20.9 kmh 29.93 in1013.5 mb 0.00 in0.0 mm 0.00 in0.0 mm 0.07 in1.8 mm
09:33 AM 85.2°F29.6°C 78.7°F25.9°C 81% 6.0 mph WNW9.7 kmh WNW 13.0 mph20.9 kmh 29.93 in1013.5 mb 0.00 in0.0 mm 0.00 in0.0 mm 0.07 in1.8 mm
09:32 AM 85.2°F29.6°C 78.7°F25.9°C 81% 9.0 mph WNW14.5 kmh WNW 13.0 mph20.9 kmh 29.93 in1013.5 mb 0.00 in0.0 mm 0.00 in0.0 mm 0.07 in1.8 mm
09:31 AM 85.1°F29.5°C 78.6°F25.9°C 81% 8.0 mph WSW12.9 kmh WSW 13.0 mph20.9 kmh 29.93 in1013.5 mb 0.00 in0.0 mm 0.00 in0.0 mm 0.07 in1.8 mm
09:30 AM 85.1°F29.5°C 78.6°F25.9°C 81% 9.0 mph W14.5 kmh W 13.0 mph20.9 kmh 29.92 in1013.2 mb 0.00 in0.0 mm 0.00 in0.0 mm 0.07 in1.8 mm
09:29 AM 85.1°F29.5°C 78.6°F25.9°C 81% 8.0 mph SW12.9 kmh SW 13.0 mph20.9 kmh 29.92 in1013.2 mb 0.00 in0.0 mm 0.00 in0.0 mm 0.07 in1.8 mm
09:28 AM 85.0°F29.4°C 78.5°F25.8°C 81% 9.0 mph WSW14.5 kmh WSW 13.0 mph20.9 kmh 29.92 in1013.2 mb 0.00 in0.0 mm 0.00 in0.0 mm 0.07 in1.8 mm
09:27 AM 84.9°F29.4°C 78.4°F25.8°C 81% 4.0 mph WSW6.4 kmh WSW 13.0 mph20.9 kmh 29.92 in1013.2 mb 0.00 in0.0 mm 0.00 in0.0 mm 0.07 in1.8 mm
09:26 AM 84.8°F29.3°C 78.7°F25.9°C 82% 5.0 mph WSW8.0 kmh WSW 13.0 mph20.9 kmh 29.92 in1013.2 mb 0.00 in0.0 mm 0.00 in0.0 mm 0.07 in1.8 mm
09:25 AM 84.8°F29.3°C 78.7°F25.9°C 82% Calm Calm 13.0 mph20.9 kmh 29.92 in1013.2 mb 0.00 in0.0 mm 0.00 in0.0 mm 0.07 in1.8 mm
09:24 AM 84.7°F29.3°C 78.6°F25.9°C 82% 4.0 mph WSW6.4 kmh WSW 13.0 mph20.9 kmh 29.92 in1013.2 mb 0.00 in0.0 mm 0.00 in0.0 mm 0.07 in1.8 mm
09:23 AM 84.6°F29.2°C 78.8°F26.0°C 83% 6.0 mph SW9.7 kmh SW 13.0 mph20.9 kmh 29.92 in1013.2 mb 0.00 in0.0 mm 0.00 in0.0 mm 0.07 in1.8 mm
09:22 AM 84.5°F29.2°C 78.8°F26.0°C 83% Calm Calm 13.0 mph20.9 kmh 29.92 in1013.2 mb 0.00 in0.0 mm 0.00 in0.0 mm 0.07 in1.8 mm
09:21 AM 84.4°F29.1°C 78.7°F25.9°C 83% 7.0 mph W11.3 kmh W 13.0 mph20.9 kmh 29.92 in1013.2 mb 0.00 in0.0 mm 0.00 in0.0 mm 0.07 in1.8 mm
09:20 AM 84.3°F29.1°C 78.2°F25.7°C 82% 4.0 mph W6.4 kmh W 15.0 mph24.1 kmh 29.92 in1013.2 mb 0.00 in0.0 mm 0.00 in0.0 mm 0.07 in1.8 mm
09:19 AM 84.3°F29.1°C 78.6°F25.9°C 83% 10.0 mph W16.1 kmh W 15.0 mph24.1 kmh 29.92 in1013.2 mb 0.00 in0.0 mm 0.00 in0.0 mm 0.07 in1.8 mm
09:18 AM 84.3°F29.1°C 78.6°F25.9°C 83% 12.0 mph WSW19.3 kmh WSW 19.0 mph30.6 kmh 29.92 in1013.2 mb 0.00 in0.0 mm 0.00 in0.0 mm 0.07 in1.8 mm
09:17 AM 84.3°F29.1°C 78.6°F25.9°C 83% 8.0 mph WNW12.9 kmh WNW 19.0 mph30.6 kmh 29.92 in1013.2 mb 0.00 in0.0 mm 0.00 in0.0 mm 0.07 in1.8 mm
09:16 AM 84.2°F29.0°C 78.5°F25.8°C 83% 5.0 mph WSW8.0 kmh WSW 19.0 mph30.6 kmh 29.92 in1013.2 mb 0.00 in0.0 mm 0.00 in0.0 mm 0.07 in1.8 mm
09:15 AM 84.2°F29.0°C 78.5°F25.8°C 83% 11.0 mph SW17.7 kmh SW 19.0 mph30.6 kmh 29.92 in1013.2 mb 0.00 in0.0 mm 0.00 in0.0 mm 0.07 in1.8 mm
09:14 AM 84.2°F29.0°C 78.5°F25.8°C 83% 6.0 mph SW9.7 kmh SW 19.0 mph30.6 kmh 29.92 in1013.2 mb 0.00 in0.0 mm 0.00 in0.0 mm 0.07 in1.8 mm
09:13 AM 84.2°F29.0°C 78.5°F25.8°C 83% 10.0 mph WSW16.1 kmh WSW 19.0 mph30.6 kmh 29.92 in1013.2 mb 0.00 in0.0 mm 0.00 in0.0 mm 0.07 in1.8 mm
09:12 AM 84.2°F29.0°C 78.5°F25.8°C 83% 4.0 mph WSW6.4 kmh WSW 19.0 mph30.6 kmh 29.92 in1013.2 mb 0.00 in0.0 mm 0.00 in0.0 mm 0.07 in1.8 mm
09:11 AM 84.3°F29.1°C 78.6°F25.9°C 83% 10.0 mph WSW16.1 kmh WSW 19.0 mph30.6 kmh 29.92 in1013.2 mb 0.00 in0.0 mm 0.00 in0.0 mm 0.07 in1.8 mm
09:10 AM 84.3°F29.1°C 78.6°F25.9°C 83% 8.0 mph WSW12.9 kmh WSW 19.0 mph30.6 kmh 29.92 in1013.2 mb 0.00 in0.0 mm 0.00 in0.0 mm 0.07 in1.8 mm
09:09 AM 84.4°F29.1°C 78.7°F25.9°C 83% 8.0 mph WSW12.9 kmh WSW 18.0 mph29.0 kmh 29.92 in1013.2 mb 0.00 in0.0 mm 0.00 in0.0 mm 0.07 in1.8 mm
09:08 AM 84.5°F29.2°C 78.8°F26.0°C 83% 2.0 mph WSW3.2 kmh WSW 16.0 mph25.7 kmh 29.92 in1013.2 mb 0.00 in0.0 mm 0.00 in0.0 mm 0.07 in1.8 mm
09:07 AM 84.4°F29.1°C 78.7°F25.9°C 83% 10.0 mph SW16.1 kmh SW 16.0 mph25.7 kmh 29.92 in1013.2 mb 0.00 in0.0 mm 0.00 in0.0 mm 0.07 in1.8 mm
09:06 AM 84.4°F29.1°C 78.7°F25.9°C 83% 5.0 mph WSW8.0 kmh WSW 16.0 mph25.7 kmh 29.92 in1013.2 mb 0.00 in0.0 mm 0.00 in0.0 mm 0.07 in1.8 mm
09:05 AM 84.3°F29.1°C 78.6°F25.9°C 83% 9.0 mph WSW14.5 kmh WSW 16.0 mph25.7 kmh 29.92 in1013.2 mb 0.00 in0.0 mm 0.00 in0.0 mm 0.07 in1.8 mm
09:04 AM 84.2°F29.0°C 78.5°F25.8°C 83% 13.0 mph WSW20.9 kmh WSW 16.0 mph25.7 kmh 29.92 in1013.2 mb 0.00 in0.0 mm 0.00 in0.0 mm 0.07 in1.8 mm
09:03 AM 84.1°F28.9°C 78.0°F25.6°C 82% 12.0 mph W19.3 kmh W 16.0 mph25.7 kmh 29.92 in1013.2 mb 0.00 in0.0 mm 0.00 in0.0 mm 0.07 in1.8 mm
09:02 AM 84.1°F28.9°C 78.0°F25.6°C 82% 15.0 mph WSW24.1 kmh WSW 16.0 mph25.7 kmh 29.92 in1013.2 mb 0.00 in0.0 mm 0.00 in0.0 mm 0.07 in1.8 mm
09:01 AM 84.0°F28.9°C 77.9°F25.5°C 82% 5.0 mph SW8.0 kmh SW 15.0 mph24.1 kmh 29.92 in1013.2 mb 0.00 in0.0 mm 0.00 in0.0 mm 0.07 in1.8 mm
09:00 AM 84.0°F28.9°C 77.9°F25.5°C 82% 9.0 mph WSW14.5 kmh WSW 15.0 mph24.1 kmh 29.92 in1013.2 mb 0.00 in0.0 mm 0.00 in0.0 mm 0.07 in1.8 mm
08:59 AM 84.0°F28.9°C 77.9°F25.5°C 82% 13.0 mph WSW20.9 kmh WSW 15.0 mph24.1 kmh 29.92 in1013.2 mb 0.00 in0.0 mm 0.00 in0.0 mm 0.07 in1.8 mm
08:58 AM 83.9°F28.8°C 77.8°F25.4°C 82% 4.0 mph WSW6.4 kmh WSW 15.0 mph24.1 kmh 29.92 in1013.2 mb 0.00 in0.0 mm 0.00 in0.0 mm 0.07 in1.8 mm
08:57 AM 83.9°F28.8°C 77.8°F25.4°C 82% 11.0 mph WSW17.7 kmh WSW 15.0 mph24.1 kmh 29.92 in1013.2 mb 0.00 in0.0 mm 0.00 in0.0 mm 0.07 in1.8 mm
08:56 AM 83.9°F28.8°C 77.8°F25.4°C 82% 7.0 mph SW11.3 kmh SW 15.0 mph24.1 kmh 29.92 in1013.2 mb 0.00 in0.0 mm 0.00 in0.0 mm 0.07 in1.8 mm
08:55 AM 83.9°F28.8°C 77.8°F25.4°C 82% 5.0 mph WSW8.0 kmh WSW 19.0 mph30.6 kmh 29.92 in1013.2 mb 0.00 in0.0 mm 0.00 in0.0 mm 0.07 in1.8 mm
08:54 AM 83.9°F28.8°C 77.8°F25.4°C 82% 6.0 mph SW9.7 kmh SW 19.0 mph30.6 kmh 29.92 in1013.2 mb 0.00 in0.0 mm 0.00 in0.0 mm 0.07 in1.8 mm
08:53 AM 83.9°F28.8°C 77.8°F25.4°C 82% 10.0 mph WSW16.1 kmh WSW 19.0 mph30.6 kmh 29.92 in1013.2 mb 0.00 in0.0 mm 0.00 in0.0 mm 0.07 in1.8 mm
08:52 AM 83.9°F28.8°C 77.8°F25.4°C 82% 12.0 mph WNW19.3 kmh WNW 19.0 mph30.6 kmh 29.92 in1013.2 mb 0.00 in0.0 mm 0.00 in0.0 mm 0.07 in1.8 mm
08:51 AM 84.0°F28.9°C 77.9°F25.5°C 82% 9.0 mph SW14.5 kmh SW 19.0 mph30.6 kmh 29.92 in1013.2 mb 0.00 in0.0 mm 0.00 in0.0 mm 0.07 in1.8 mm
08:50 AM 84.0°F28.9°C 77.9°F25.5°C 82% 12.0 mph SW19.3 kmh SW 19.0 mph30.6 kmh 29.92 in1013.2 mb 0.00 in0.0 mm 0.00 in0.0 mm 0.07 in1.8 mm
08:49 AM 84.1°F28.9°C 77.6°F25.3°C 81% 9.0 mph W14.5 kmh W 19.0 mph30.6 kmh 29.92 in1013.2 mb 0.00 in0.0 mm 0.00 in0.0 mm 0.07 in1.8 mm
08:48 AM 84.2°F29.0°C 78.1°F25.6°C 82% 8.0 mph WSW12.9 kmh WSW 19.0 mph30.6 kmh 29.92 in1013.2 mb 0.00 in0.0 mm 0.00 in0.0 mm 0.07 in1.8 mm
08:47 AM 84.2°F29.0°C 78.1°F25.6°C 82% 12.0 mph SW19.3 kmh SW 19.0 mph30.6 kmh 29.91 in1012.9 mb 0.00 in0.0 mm 0.00 in0.0 mm 0.07 in1.8 mm
08:46 AM 84.3°F29.1°C 78.2°F25.7°C 82% 14.0 mph WSW22.5 kmh WSW 18.0 mph29.0 kmh 29.91 in1012.9 mb 0.00 in0.0 mm 0.00 in0.0 mm 0.07 in1.8 mm
08:45 AM 84.3°F29.1°C 78.2°F25.7°C 82% 8.0 mph SSW12.9 kmh SSW 18.0 mph29.0 kmh 29.91 in1012.9 mb 0.00 in0.0 mm 0.00 in0.0 mm 0.07 in1.8 mm
08:44 AM 84.2°F29.0°C 78.1°F25.6°C 82% 12.0 mph WSW19.3 kmh WSW 18.0 mph29.0 kmh 29.91 in1012.9 mb 0.00 in0.0 mm 0.00 in0.0 mm 0.07 in1.8 mm
08:43 AM 84.2°F29.0°C 78.1°F25.6°C 82% 9.0 mph SW14.5 kmh SW 17.0 mph27.4 kmh 29.91 in1012.9 mb 0.00 in0.0 mm 0.00 in0.0 mm 0.07 in1.8 mm
08:42 AM 84.2°F29.0°C 78.1°F25.6°C 82% 12.0 mph W19.3 kmh W 19.0 mph30.6 kmh 29.91 in1012.9 mb 0.00 in0.0 mm 0.00 in0.0 mm 0.07 in1.8 mm
08:41 AM 84.3°F29.1°C 78.2°F25.7°C 82% 12.0 mph WSW19.3 kmh WSW 19.0 mph30.6 kmh 29.91 in1012.9 mb 0.00 in0.0 mm 0.00 in0.0 mm 0.07 in1.8 mm
08:40 AM 84.2°F29.0°C 78.1°F25.6°C 82% 10.0 mph WSW16.1 kmh WSW 19.0 mph30.6 kmh 29.91 in1012.9 mb 0.00 in0.0 mm 0.00 in0.0 mm 0.07 in1.8 mm
08:39 AM 84.2°F29.0°C 78.1°F25.6°C 82% 10.0 mph WSW16.1 kmh WSW 19.0 mph30.6 kmh 29.91 in1012.9 mb 0.00 in0.0 mm 0.00 in0.0 mm 0.07 in1.8 mm
08:38 AM 84.1°F28.9°C 78.0°F25.6°C 82% 10.0 mph SW16.1 kmh SW 19.0 mph30.6 kmh 29.91 in1012.9 mb 0.00 in0.0 mm 0.00 in0.0 mm 0.07 in1.8 mm
08:37 AM 84.1°F28.9°C 78.0°F25.6°C 82% 13.0 mph SW20.9 kmh SW 19.0 mph30.6 kmh 29.91 in1012.9 mb 0.00 in0.0 mm 0.00 in0.0 mm 0.07 in1.8 mm
08:36 AM 84.1°F28.9°C 78.4°F25.8°C 83% 5.0 mph SSW8.0 kmh SSW 19.0 mph30.6 kmh 29.90 in1012.5 mb 0.00 in0.0 mm 0.00 in0.0 mm 0.07 in1.8 mm
08:35 AM 84.1°F28.9°C 78.4°F25.8°C 83% 12.0 mph WSW19.3 kmh WSW 19.0 mph30.6 kmh 29.90 in1012.5 mb 0.00 in0.0 mm 0.00 in0.0 mm 0.07 in1.8 mm
08:34 AM 84.0°F28.9°C 78.3°F25.7°C 83% 19.0 mph WSW30.6 kmh WSW 19.0 mph30.6 kmh 29.90 in1012.5 mb 0.00 in0.0 mm 0.00 in0.0 mm 0.07 in1.8 mm
08:33 AM 83.9°F28.8°C 78.2°F25.7°C 83% 8.0 mph S12.9 kmh S 19.0 mph30.6 kmh 29.90 in1012.5 mb 0.00 in0.0 mm 0.00 in0.0 mm 0.07 in1.8 mm
08:32 AM 83.9°F28.8°C 78.2°F25.7°C 83% 12.0 mph SSW19.3 kmh SSW 19.0 mph30.6 kmh 29.90 in1012.5 mb 0.00 in0.0 mm 0.00 in0.0 mm 0.07 in1.8 mm
08:31 AM 83.7°F28.7°C 78.0°F25.6°C 83% 14.0 mph SW22.5 kmh SW 18.0 mph29.0 kmh 29.90 in1012.5 mb 0.00 in0.0 mm 0.00 in0.0 mm 0.07 in1.8 mm
08:30 AM 83.7°F28.7°C 78.3°F25.7°C 84% 11.0 mph WSW17.7 kmh WSW 18.0 mph29.0 kmh 29.90 in1012.5 mb 0.00 in0.0 mm 0.00 in0.0 mm 0.07 in1.8 mm
08:29 AM 83.6°F28.7°C 78.2°F25.7°C 84% 16.0 mph WSW25.7 kmh WSW 16.0 mph25.7 kmh 29.90 in1012.5 mb 0.00 in0.0 mm 0.00 in0.0 mm 0.07 in1.8 mm
08:28 AM 83.5°F28.6°C 78.1°F25.6°C 84% 11.0 mph SW17.7 kmh SW 16.0 mph25.7 kmh 29.90 in1012.5 mb 0.00 in0.0 mm 0.00 in0.0 mm 0.07 in1.8 mm
08:27 AM 83.4°F28.6°C 78.0°F25.6°C 84% 8.0 mph WSW12.9 kmh WSW 16.0 mph25.7 kmh 29.90 in1012.5 mb 0.00 in0.0 mm 0.00 in0.0 mm 0.07 in1.8 mm
08:26 AM 83.3°F28.5°C 77.9°F25.5°C 84% 11.0 mph SW17.7 kmh SW 16.0 mph25.7 kmh 29.90 in1012.5 mb 0.00 in0.0 mm 0.00 in0.0 mm 0.07 in1.8 mm
08:25 AM 83.3°F28.5°C 77.9°F25.5°C 84% 11.0 mph WSW17.7 kmh WSW 16.0 mph25.7 kmh 29.90 in1012.5 mb 0.00 in0.0 mm 0.00 in0.0 mm 0.07 in1.8 mm
08:24 AM 83.3°F28.5°C 78.3°F25.7°C 85% 9.0 mph WSW14.5 kmh WSW 16.0 mph25.7 kmh 29.89 in1012.2 mb 0.00 in0.0 mm 0.00 in0.0 mm 0.07 in1.8 mm
08:23 AM 83.3°F28.5°C 78.3°F25.7°C 85% 10.0 mph WSW16.1 kmh WSW 13.0 mph20.9 kmh 29.90 in1012.5 mb 0.00 in0.0 mm 0.00 in0.0 mm 0.07 in1.8 mm
08:22 AM 83.3°F28.5°C 78.3°F25.7°C 85% 10.0 mph SW16.1 kmh SW 12.0 mph19.3 kmh 29.89 in1012.2 mb 0.00 in0.0 mm 0.00 in0.0 mm 0.07 in1.8 mm
08:21 AM 83.3°F28.5°C 78.3°F25.7°C 85% 9.0 mph WSW14.5 kmh WSW 12.0 mph19.3 kmh 29.89 in1012.2 mb 0.00 in0.0 mm 0.00 in0.0 mm 0.07 in1.8 mm
08:20 AM 83.2°F28.4°C 78.2°F25.7°C 85% 1.0 mph WSW1.6 kmh WSW 12.0 mph19.3 kmh 29.89 in1012.2 mb 0.00 in0.0 mm 0.00 in0.0 mm 0.07 in1.8 mm
08:19 AM 83.2°F28.4°C 78.2°F25.7°C 85% 6.0 mph SW9.7 kmh SW 12.0 mph19.3 kmh 29.89 in1012.2 mb 0.00 in0.0 mm 0.00 in0.0 mm 0.07 in1.8 mm
08:18 AM 83.1°F28.4°C 78.1°F25.6°C 85% 5.0 mph SW8.0 kmh SW 12.0 mph19.3 kmh 29.89 in1012.2 mb 0.00 in0.0 mm 0.00 in0.0 mm 0.07 in1.8 mm
08:17 AM 83.1°F28.4°C 78.1°F25.6°C 85% 6.0 mph SW9.7 kmh SW 14.0 mph22.5 kmh 29.89 in1012.2 mb 0.00 in0.0 mm 0.00 in0.0 mm 0.07 in1.8 mm
08:16 AM 83.1°F28.4°C 78.1°F25.6°C 85% 9.0 mph WSW14.5 kmh WSW 16.0 mph25.7 kmh 29.89 in1012.2 mb 0.00 in0.0 mm 0.00 in0.0 mm 0.07 in1.8 mm
08:15 AM 83.2°F28.4°C 78.2°F25.7°C 85% 7.0 mph SW11.3 kmh SW 16.0 mph25.7 kmh 29.89 in1012.2 mb 0.00 in0.0 mm 0.00 in0.0 mm 0.07 in1.8 mm
08:14 AM 83.2°F28.4°C 78.2°F25.7°C 85% 2.0 mph WNW3.2 kmh WNW 16.0 mph25.7 kmh 29.89 in1012.2 mb 0.00 in0.0 mm 0.00 in0.0 mm 0.07 in1.8 mm
08:13 AM 83.2°F28.4°C 78.6°F25.9°C 86% 7.0 mph WSW11.3 kmh WSW 16.0 mph25.7 kmh 29.89 in1012.2 mb 0.00 in0.0 mm 0.00 in0.0 mm 0.07 in1.8 mm
08:12 AM 83.2°F28.4°C 78.6°F25.9°C 86% 11.0 mph WSW17.7 kmh WSW 16.0 mph25.7 kmh 29.89 in1012.2 mb 0.00 in0.0 mm 0.00 in0.0 mm 0.07 in1.8 mm
08:11 AM 83.1°F28.4°C 78.1°F25.6°C 85% 8.0 mph SW12.9 kmh SW 16.0 mph25.7 kmh 29.90 in1012.5 mb 0.00 in0.0 mm 0.00 in0.0 mm 0.07 in1.8 mm
08:10 AM 83.1°F28.4°C 78.5°F25.8°C 86% 8.0 mph SW12.9 kmh SW 16.0 mph25.7 kmh 29.90 in1012.5 mb 0.00 in0.0 mm 0.00 in0.0 mm 0.07 in1.8 mm
08:09 AM 83.2°F28.4°C 78.6°F25.9°C 86% 12.0 mph SW19.3 kmh SW 16.0 mph25.7 kmh 29.90 in1012.5 mb 0.00 in0.0 mm 0.00 in0.0 mm 0.07 in1.8 mm
08:08 AM 83.2°F28.4°C 78.6°F25.9°C 86% 13.0 mph WSW20.9 kmh WSW 16.0 mph25.7 kmh 29.90 in1012.5 mb 0.00 in0.0 mm 0.00 in0.0 mm 0.07 in1.8 mm
08:07 AM 83.2°F28.4°C 78.6°F25.9°C 86% 12.0 mph WSW19.3 kmh WSW 15.0 mph24.1 kmh 29.90 in1012.5 mb 0.00 in0.0 mm 0.00 in0.0 mm 0.07 in1.8 mm
08:06 AM 83.2°F28.4°C 78.6°F25.9°C 86% 10.0 mph SW16.1 kmh SW 15.0 mph24.1 kmh 29.90 in1012.5 mb 0.00 in0.0 mm 0.00 in0.0 mm 0.07 in1.8 mm
08:05 AM 83.1°F28.4°C 78.1°F25.6°C 85% 14.0 mph WSW22.5 kmh WSW 15.0 mph24.1 kmh 29.90 in1012.5 mb 0.00 in0.0 mm 0.00 in0.0 mm 0.07 in1.8 mm
08:04 AM 83.1°F28.4°C 78.1°F25.6°C 85% 11.0 mph SW17.7 kmh SW 15.0 mph24.1 kmh 29.90 in1012.5 mb 0.00 in0.0 mm 0.00 in0.0 mm 0.07 in1.8 mm
08:03 AM 83.1°F28.4°C 78.1°F25.6°C 85% 13.0 mph WSW20.9 kmh WSW 15.0 mph24.1 kmh 29.90 in1012.5 mb 0.00 in0.0 mm 0.00 in0.0 mm 0.07 in1.8 mm
08:02 AM 83.2°F28.4°C 78.6°F25.9°C 86% 12.0 mph WSW19.3 kmh WSW 15.0 mph24.1 kmh 29.90 in1012.5 mb 0.00 in0.0 mm 0.00 in0.0 mm 0.07 in1.8 mm
08:01 AM 83.1°F28.4°C 78.1°F25.6°C 85% 8.0 mph WSW12.9 kmh WSW 17.0 mph27.4 kmh 29.90 in1012.5 mb 0.00 in0.0 mm 0.00 in0.0 mm 0.07 in1.8 mm
08:00 AM 83.1°F28.4°C 78.1°F25.6°C 85% 10.0 mph SW16.1 kmh SW 17.0 mph27.4 kmh 29.90 in1012.5 mb 0.00 in0.0 mm 0.00 in0.0 mm 0.07 in1.8 mm
07:59 AM 83.1°F28.4°C 78.1°F25.6°C 85% 7.0 mph SSW11.3 kmh SSW 17.0 mph27.4 kmh 29.90 in1012.5 mb 0.00 in0.0 mm 0.00 in0.0 mm 0.07 in1.8 mm
07:58 AM 83.1°F28.4°C 78.1°F25.6°C 85% 6.0 mph SSW9.7 kmh SSW 17.0 mph27.4 kmh 29.90 in1012.5 mb 0.00 in0.0 mm 0.00 in0.0 mm 0.07 in1.8 mm
07:57 AM 83.2°F28.4°C 78.2°F25.7°C 85% 9.0 mph WSW14.5 kmh WSW 17.0 mph27.4 kmh 29.90 in1012.5 mb 0.00 in0.0 mm 0.00 in0.0 mm 0.07 in1.8 mm
07:56 AM 83.2°F28.4°C 78.2°F25.7°C 85% 14.0 mph WSW22.5 kmh WSW 17.0 mph27.4 kmh 29.90 in1012.5 mb 0.00 in0.0 mm 0.00 in0.0 mm 0.07 in1.8 mm
07:55 AM 83.2°F28.4°C 78.2°F25.7°C 85% 12.0 mph WSW19.3 kmh WSW 17.0 mph27.4 kmh 29.90 in1012.5 mb 0.00 in0.0 mm 0.00 in0.0 mm 0.07 in1.8 mm
07:54 AM 83.3°F28.5°C 78.3°F25.7°C 85% 13.0 mph WSW20.9 kmh WSW 17.0 mph27.4 kmh 29.90 in1012.5 mb 0.00 in0.0 mm 0.00 in0.0 mm 0.07 in1.8 mm
07:53 AM 83.5°F28.6°C 78.5°F25.8°C 85% 15.0 mph WSW24.1 kmh WSW 15.0 mph24.1 kmh 29.90 in1012.5 mb 0.00 in0.0 mm 0.00 in0.0 mm 0.07 in1.8 mm
07:52 AM 83.5°F28.6°C 78.5°F25.8°C 85% 12.0 mph WSW19.3 kmh WSW 15.0 mph24.1 kmh 29.90 in1012.5 mb 0.00 in0.0 mm 0.00 in0.0 mm 0.07 in1.8 mm
07:51 AM 83.6°F28.7°C 78.6°F25.9°C 85% 8.0 mph SW12.9 kmh SW 15.0 mph24.1 kmh 29.90 in1012.5 mb 0.00 in0.0 mm 0.00 in0.0 mm 0.07 in1.8 mm
07:50 AM 83.6°F28.7°C 78.6°F25.9°C 85% 9.0 mph WSW14.5 kmh WSW 15.0 mph24.1 kmh 29.90 in1012.5 mb 0.00 in0.0 mm 0.00 in0.0 mm 0.07 in1.8 mm
07:49 AM 83.6°F28.7°C 78.6°F25.9°C 85% 9.0 mph SW14.5 kmh SW 15.0 mph24.1 kmh 29.90 in1012.5 mb 0.00 in0.0 mm 0.00 in0.0 mm 0.07 in1.8 mm
07:48 AM 83.6°F28.7°C 78.6°F25.9°C 85% 10.0 mph SW16.1 kmh SW 15.0 mph24.1 kmh 29.90 in1012.5 mb 0.00 in0.0 mm 0.00 in0.0 mm 0.07 in1.8 mm
07:47 AM 83.5°F28.6°C 78.1°F25.6°C 84% 11.0 mph SW17.7 kmh SW 15.0 mph24.1 kmh 29.90 in1012.5 mb 0.00 in0.0 mm 0.00 in0.0 mm 0.07 in1.8 mm
07:46 AM 83.4°F28.6°C 78.0°F25.6°C 84% 6.0 mph WSW9.7 kmh WSW 15.0 mph24.1 kmh 29.90 in1012.5 mb 0.00 in0.0 mm 0.00 in0.0 mm 0.07 in1.8 mm
07:45 AM 83.3°F28.5°C 77.9°F25.5°C 84% 7.0 mph WSW11.3 kmh WSW 11.0 mph17.7 kmh 29.90 in1012.5 mb 0.00 in0.0 mm 0.00 in0.0 mm 0.07 in1.8 mm
07:44 AM 83.3°F28.5°C 77.9°F25.5°C 84% 3.0 mph SW4.8 kmh SW 11.0 mph17.7 kmh 29.90 in1012.5 mb 0.00 in0.0 mm 0.00 in0.0 mm 0.07 in1.8 mm
07:43 AM 83.3°F28.5°C 77.9°F25.5°C 84% 9.0 mph WSW14.5 kmh WSW 11.0 mph17.7 kmh 29.90 in1012.5 mb 0.00 in0.0 mm 0.00 in0.0 mm 0.07 in1.8 mm
07:42 AM 83.3°F28.5°C 77.9°F25.5°C 84% 8.0 mph WSW12.9 kmh WSW 11.0 mph17.7 kmh 29.90 in1012.5 mb 0.00 in0.0 mm 0.00 in0.0 mm 0.07 in1.8 mm
07:41 AM 83.3°F28.5°C 78.3°F25.7°C 85% 6.0 mph SW9.7 kmh SW 11.0 mph17.7 kmh 29.90 in1012.5 mb 0.00 in0.0 mm 0.00 in0.0 mm 0.07 in1.8 mm
07:40 AM 83.3°F28.5°C 78.3°F25.7°C 85% 3.0 mph WSW4.8 kmh WSW 11.0 mph17.7 kmh 29.89 in1012.2 mb 0.00 in0.0 mm 0.00 in0.0 mm 0.07 in1.8 mm
07:39 AM 83.3°F28.5°C 78.3°F25.7°C 85% 7.0 mph SW11.3 kmh SW 11.0 mph17.7 kmh 29.89 in1012.2 mb 0.00 in0.0 mm 0.00 in0.0 mm 0.07 in1.8 mm
07:38 AM 83.3°F28.5°C 78.3°F25.7°C 85% 4.0 mph WSW6.4 kmh WSW 11.0 mph17.7 kmh 29.89 in1012.2 mb 0.00 in0.0 mm 0.00 in0.0 mm 0.07 in1.8 mm
07:37 AM 83.3°F28.5°C 78.3°F25.7°C 85% 7.0 mph SW11.3 kmh SW 12.0 mph19.3 kmh 29.89 in1012.2 mb 0.00 in0.0 mm 0.00 in0.0 mm 0.07 in1.8 mm
07:36 AM 83.4°F28.6°C 78.4°F25.8°C 85% 10.0 mph WSW16.1 kmh WSW 14.0 mph22.5 kmh 29.89 in1012.2 mb 0.00 in0.0 mm 0.00 in0.0 mm 0.07 in1.8 mm
07:35 AM 83.3°F28.5°C 78.3°F25.7°C 85% 4.0 mph WSW6.4 kmh WSW 14.0 mph22.5 kmh 29.89 in1012.2 mb 0.00 in0.0 mm 0.00 in0.0 mm 0.07 in1.8 mm
07:34 AM 83.3°F28.5°C 78.3°F25.7°C 85% 2.0 mph SW3.2 kmh SW 14.0 mph22.5 kmh 29.89 in1012.2 mb 0.00 in0.0 mm 0.00 in0.0 mm 0.07 in1.8 mm
07:33 AM 83.2°F28.4°C 77.8°F25.4°C 84% 9.0 mph WSW14.5 kmh WSW 14.0 mph22.5 kmh 29.89 in1012.2 mb 0.00 in0.0 mm 0.00 in0.0 mm 0.07 in1.8 mm
07:32 AM 83.2°F28.4°C 77.8°F25.4°C 84% 1.0 mph SW1.6 kmh SW 14.0 mph22.5 kmh 29.89 in1012.2 mb 0.00 in0.0 mm 0.00 in0.0 mm 0.07 in1.8 mm
07:31 AM 83.1°F28.4°C 77.7°F25.4°C 84% 4.0 mph WSW6.4 kmh WSW 14.0 mph22.5 kmh 29.89 in1012.2 mb 0.00 in0.0 mm 0.00 in0.0 mm 0.07 in1.8 mm
07:30 AM 83.1°F28.4°C 77.7°F25.4°C 84% 7.0 mph SW11.3 kmh SW 14.0 mph22.5 kmh 29.89 in1012.2 mb 0.00 in0.0 mm 0.00 in0.0 mm 0.07 in1.8 mm
07:29 AM 83.1°F28.4°C 77.7°F25.4°C 84% 7.0 mph WSW11.3 kmh WSW 14.0 mph22.5 kmh 29.89 in1012.2 mb 0.00 in0.0 mm 0.00 in0.0 mm 0.07 in1.8 mm
07:28 AM 83.1°F28.4°C 78.1°F25.6°C 85% 9.0 mph SW14.5 kmh SW 12.0 mph19.3 kmh 29.89 in1012.2 mb 0.00 in0.0 mm 0.00 in0.0 mm 0.07 in1.8 mm
07:27 AM 83.1°F28.4°C 78.1°F25.6°C 85% 9.0 mph WSW14.5 kmh WSW 13.0 mph20.9 kmh 29.89 in1012.2 mb 0.00 in0.0 mm 0.00 in0.0 mm 0.07 in1.8 mm
07:26 AM 83.0°F28.3°C 78.0°F25.6°C 85% 8.0 mph SW12.9 kmh SW 13.0 mph20.9 kmh 29.89 in1012.2 mb 0.00 in0.0 mm 0.00 in0.0 mm 0.07 in1.8 mm
07:25 AM 83.0°F28.3°C 78.0°F25.6°C 85% 8.0 mph WSW12.9 kmh WSW 13.0 mph20.9 kmh 29.89 in1012.2 mb 0.00 in0.0 mm 0.00 in0.0 mm 0.07 in1.8 mm
07:24 AM 83.0°F28.3°C 78.0°F25.6°C 85% 11.0 mph WSW17.7 kmh WSW 13.0 mph20.9 kmh 29.89 in1012.2 mb 0.00 in0.0 mm 0.00 in0.0 mm 0.07 in1.8 mm
07:23 AM 82.9°F28.3°C 77.9°F25.5°C 85% 10.0 mph WSW16.1 kmh WSW 13.0 mph20.9 kmh 29.89 in1012.2 mb 0.00 in0.0 mm 0.00 in0.0 mm 0.07 in1.8 mm
07:22 AM 82.9°F28.3°C 77.9°F25.5°C 85% 8.0 mph WSW12.9 kmh WSW 12.0 mph19.3 kmh 29.89 in1012.2 mb 0.00 in0.0 mm 0.00 in0.0 mm 0.07 in1.8 mm
07:21 AM 82.8°F28.2°C 77.8°F25.4°C 85% 10.0 mph WSW16.1 kmh WSW 12.0 mph19.3 kmh 29.89 in1012.2 mb 0.00 in0.0 mm 0.00 in0.0 mm 0.07 in1.8 mm
07:20 AM 82.8°F28.2°C 77.8°F25.4°C 85% 8.0 mph WSW12.9 kmh WSW 12.0 mph19.3 kmh 29.89 in1012.2 mb 0.00 in0.0 mm 0.00 in0.0 mm 0.07 in1.8 mm
07:19 AM 82.7°F28.2°C 77.7°F25.4°C 85% 9.0 mph SW14.5 kmh SW 11.0 mph17.7 kmh 29.89 in1012.2 mb 0.00 in0.0 mm 0.00 in0.0 mm 0.07 in1.8 mm
07:18 AM 82.7°F28.2°C 77.7°F25.4°C 85% 8.0 mph SW12.9 kmh SW 11.0 mph17.7 kmh 29.88 in1011.9 mb 0.00 in0.0 mm 0.00 in0.0 mm 0.07 in1.8 mm
07:17 AM 82.6°F28.1°C 77.6°F25.3°C 85% 9.0 mph WSW14.5 kmh WSW 11.0 mph17.7 kmh 29.88 in1011.9 mb 0.00 in0.0 mm 0.00 in0.0 mm 0.07 in1.8 mm
07:16 AM 82.6°F28.1°C 77.6°F25.3°C 85% 5.0 mph WSW8.0 kmh WSW 11.0 mph17.7 kmh 29.88 in1011.9 mb 0.00 in0.0 mm 0.00 in0.0 mm 0.07 in1.8 mm
07:15 AM 82.5°F28.1°C 77.5°F25.3°C 85% 6.0 mph SW9.7 kmh SW 11.0 mph17.7 kmh 29.88 in1011.9 mb 0.00 in0.0 mm 0.00 in0.0 mm 0.07 in1.8 mm
07:14 AM 82.5°F28.1°C 77.5°F25.3°C 85% 4.0 mph SW6.4 kmh SW 11.0 mph17.7 kmh 29.89 in1012.2 mb 0.00 in0.0 mm 0.00 in0.0 mm 0.07 in1.8 mm
07:13 AM 82.5°F28.1°C 77.9°F25.5°C 86% 3.0 mph SW4.8 kmh SW 11.0 mph17.7 kmh 29.89 in1012.2 mb 0.00 in0.0 mm 0.00 in0.0 mm 0.07 in1.8 mm
07:12 AM 82.4°F28.0°C 77.8°F25.4°C 86% 8.0 mph SW12.9 kmh SW 11.0 mph17.7 kmh 29.89 in1012.2 mb 0.00 in0.0 mm 0.00 in0.0 mm 0.07 in1.8 mm
07:11 AM 82.4°F28.0°C 77.8°F25.4°C 86% 7.0 mph WSW11.3 kmh WSW 11.0 mph17.7 kmh 29.89 in1012.2 mb 0.00 in0.0 mm 0.00 in0.0 mm 0.07 in1.8 mm
07:10 AM 82.4°F28.0°C 77.8°F25.4°C 86% 3.0 mph WSW4.8 kmh WSW 11.0 mph17.7 kmh 29.89 in1012.2 mb 0.00 in0.0 mm 0.00 in0.0 mm 0.07 in1.8 mm
07:09 AM 82.4°F28.0°C 77.8°F25.4°C 86% 11.0 mph WSW17.7 kmh WSW 11.0 mph17.7 kmh 29.89 in1012.2 mb 0.00 in0.0 mm 0.00 in0.0 mm 0.07 in1.8 mm
07:08 AM 82.3°F27.9°C 77.7°F25.4°C 86% 6.0 mph SW9.7 kmh SW 11.0 mph17.7 kmh 29.89 in1012.2 mb 0.00 in0.0 mm 0.00 in0.0 mm 0.07 in1.8 mm
07:07 AM 82.3°F27.9°C 77.7°F25.4°C 86% 5.0 mph SSW8.0 kmh SSW 9.0 mph14.5 kmh 29.89 in1012.2 mb 0.00 in0.0 mm 0.00 in0.0 mm 0.07 in1.8 mm
07:06 AM 82.3°F27.9°C 77.7°F25.4°C 86% 6.0 mph SW9.7 kmh SW 9.0 mph14.5 kmh 29.89 in1012.2 mb 0.00 in0.0 mm 0.00 in0.0 mm 0.07 in1.8 mm
07:05 AM 82.2°F27.9°C 77.6°F25.3°C 86% 3.0 mph WSW4.8 kmh WSW 9.0 mph14.5 kmh 29.89 in1012.2 mb 0.00 in0.0 mm 0.00 in0.0 mm 0.07 in1.8 mm
07:04 AM 82.2°F27.9°C 77.6°F25.3°C 86% 6.0 mph WSW9.7 kmh WSW 9.0 mph14.5 kmh 29.89 in1012.2 mb 0.00 in0.0 mm 0.00 in0.0 mm 0.07 in1.8 mm
07:03 AM 82.1°F27.8°C 77.5°F25.3°C 86% 5.0 mph SW8.0 kmh SW 8.0 mph12.9 kmh 29.89 in1012.2 mb 0.00 in0.0 mm 0.00 in0.0 mm 0.07 in1.8 mm
07:02 AM 82.1°F27.8°C 77.5°F25.3°C 86% 7.0 mph WSW11.3 kmh WSW 8.0 mph12.9 kmh 29.89 in1012.2 mb 0.00 in0.0 mm 0.00 in0.0 mm 0.07 in1.8 mm
07:01 AM 82.1°F27.8°C 77.5°F25.3°C 86% 7.0 mph WSW11.3 kmh WSW 9.0 mph14.5 kmh 29.89 in1012.2 mb 0.00 in0.0 mm 0.00 in0.0 mm 0.07 in1.8 mm
07:00 AM 82.1°F27.8°C 77.5°F25.3°C 86% 5.0 mph WSW8.0 kmh WSW 9.0 mph14.5 kmh 29.89 in1012.2 mb 0.00 in0.0 mm 0.00 in0.0 mm 0.07 in1.8 mm
06:59 AM 82.1°F27.8°C 77.5°F25.3°C 86% 5.0 mph WSW8.0 kmh WSW 9.0 mph14.5 kmh 29.89 in1012.2 mb 0.00 in0.0 mm 0.00 in0.0 mm 0.07 in1.8 mm
06:58 AM 82.1°F27.8°C 77.5°F25.3°C 86% 5.0 mph SW8.0 kmh SW 9.0 mph14.5 kmh 29.89 in1012.2 mb 0.00 in0.0 mm 0.00 in0.0 mm 0.07 in1.8 mm
06:57 AM 82.0°F27.8°C 77.4°F25.2°C 86% 2.0 mph WSW3.2 kmh WSW 9.0 mph14.5 kmh 29.89 in1012.2 mb 0.00 in0.0 mm 0.00 in0.0 mm 0.07 in1.8 mm
06:56 AM 82.0°F27.8°C 77.4°F25.2°C 86% 4.0 mph WSW6.4 kmh WSW 9.0 mph14.5 kmh 29.89 in1012.2 mb 0.00 in0.0 mm 0.00 in0.0 mm 0.07 in1.8 mm
06:55 AM 82.0°F27.8°C 77.4°F25.2°C 86% 6.0 mph WSW9.7 kmh WSW 9.0 mph14.5 kmh 29.89 in1012.2 mb 0.00 in0.0 mm 0.00 in0.0 mm 0.07 in1.8 mm
06:54 AM 81.9°F27.7°C 77.3°F25.2°C 86% 2.0 mph SW3.2 kmh SW 9.0 mph14.5 kmh 29.89 in1012.2 mb 0.00 in0.0 mm 0.00 in0.0 mm 0.07 in1.8 mm
06:53 AM 81.9°F27.7°C 77.3°F25.2°C 86% 3.0 mph WSW4.8 kmh WSW 9.0 mph14.5 kmh 29.89 in1012.2 mb 0.00 in0.0 mm 0.00 in0.0 mm 0.07 in1.8 mm
06:52 AM 81.9°F27.7°C 77.3°F25.2°C 86% 4.0 mph WSW6.4 kmh WSW 9.0 mph14.5 kmh 29.89 in1012.2 mb 0.00 in0.0 mm 0.00 in0.0 mm 0.07 in1.8 mm
06:51 AM 82.0°F27.8°C 77.4°F25.2°C 86% 7.0 mph W11.3 kmh W 11.0 mph17.7 kmh 29.89 in1012.2 mb 0.00 in0.0 mm 0.00 in0.0 mm 0.07 in1.8 mm
06:50 AM 82.0°F27.8°C 77.7°F25.4°C 87% 6.0 mph WSW9.7 kmh WSW 11.0 mph17.7 kmh 29.89 in1012.2 mb 0.00 in0.0 mm 0.00 in0.0 mm 0.07 in1.8 mm
06:49 AM 82.0°F27.8°C 77.7°F25.4°C 87% 3.0 mph WSW4.8 kmh WSW 11.0 mph17.7 kmh 29.89 in1012.2 mb 0.00 in0.0 mm 0.00 in0.0 mm 0.07 in1.8 mm
06:48 AM 81.9°F27.7°C 77.6°F25.3°C 87% 3.0 mph SW4.8 kmh SW 11.0 mph17.7 kmh 29.88 in1011.9 mb 0.00 in0.0 mm 0.00 in0.0 mm 0.07 in1.8 mm
06:47 AM 82.0°F27.8°C 77.7°F25.4°C 87% 2.0 mph WSW3.2 kmh WSW 11.0 mph17.7 kmh 29.88 in1011.9 mb 0.00 in0.0 mm 0.00 in0.0 mm 0.07 in1.8 mm
06:46 AM 81.9°F27.7°C 77.6°F25.3°C 87% 4.0 mph W6.4 kmh W 11.0 mph17.7 kmh 29.88 in1011.9 mb 0.00 in0.0 mm 0.00 in0.0 mm 0.07 in1.8 mm
06:45 AM 81.8°F27.7°C 77.5°F25.3°C 87% 6.0 mph SSW9.7 kmh SSW 11.0 mph17.7 kmh 29.88 in1011.9 mb 0.00 in0.0 mm 0.00 in0.0 mm 0.07 in1.8 mm
06:44 AM 81.7°F27.6°C 77.4°F25.2°C 87% 5.0 mph WSW8.0 kmh WSW 11.0 mph17.7 kmh 29.88 in1011.9 mb 0.00 in0.0 mm 0.00 in0.0 mm 0.07 in1.8 mm
06:43 AM 81.6°F27.6°C 77.3°F25.2°C 87% 9.0 mph WSW14.5 kmh WSW 11.0 mph17.7 kmh 29.88 in1011.9 mb 0.00 in0.0 mm 0.00 in0.0 mm 0.07 in1.8 mm
06:42 AM 81.5°F27.5°C 77.2°F25.1°C 87% 4.0 mph SW6.4 kmh SW 11.0 mph17.7 kmh 29.88 in1011.9 mb 0.00 in0.0 mm 0.00 in0.0 mm 0.07 in1.8 mm
06:41 AM 81.4°F27.4°C 77.1°F25.1°C 87% 8.0 mph SW12.9 kmh SW 11.0 mph17.7 kmh 29.88 in1011.9 mb 0.00 in0.0 mm 0.00 in0.0 mm 0.07 in1.8 mm
06:40 AM 81.4°F27.4°C 77.5°F25.3°C 88% 5.0 mph WSW8.0 kmh WSW 11.0 mph17.7 kmh 29.88 in1011.9 mb 0.00 in0.0 mm 0.00 in0.0 mm 0.07 in1.8 mm
06:39 AM 81.3°F27.4°C 77.4°F25.2°C 88% 5.0 mph WSW8.0 kmh WSW 11.0 mph17.7 kmh 29.88 in1011.9 mb 0.00 in0.0 mm 0.00 in0.0 mm 0.07 in1.8 mm
06:38 AM 81.2°F27.3°C 77.3°F25.2°C 88% 6.0 mph SW9.7 kmh SW 11.0 mph17.7 kmh 29.88 in1011.9 mb 0.00 in0.0 mm 0.00 in0.0 mm 0.07 in1.8 mm
06:37 AM 81.2°F27.3°C 77.3°F25.2°C 88% 4.0 mph SW6.4 kmh SW 12.0 mph19.3 kmh 29.88 in1011.9 mb 0.00 in0.0 mm 0.00 in0.0 mm 0.07 in1.8 mm
06:36 AM 81.2°F27.3°C 77.3°F25.2°C 88% 9.0 mph SW14.5 kmh SW 11.0 mph17.7 kmh 29.88 in1011.9 mb 0.00 in0.0 mm 0.00 in0.0 mm 0.07 in1.8 mm
06:35 AM 81.1°F27.3°C 77.2°F25.1°C 88% 6.0 mph SW9.7 kmh SW 9.0 mph14.5 kmh 29.88 in1011.9 mb 0.00 in0.0 mm 0.00 in0.0 mm 0.07 in1.8 mm
06:34 AM 81.1°F27.3°C 77.2°F25.1°C 88% 2.0 mph SW3.2 kmh SW 9.0 mph14.5 kmh 29.88 in1011.9 mb 0.00 in0.0 mm 0.00 in0.0 mm 0.07 in1.8 mm
06:33 AM 81.1°F27.3°C 77.2°F25.1°C 88% 5.0 mph SW8.0 kmh SW 9.0 mph14.5 kmh 29.88 in1011.9 mb 0.00 in0.0 mm 0.00 in0.0 mm 0.07 in1.8 mm
06:32 AM 81.0°F27.2°C 77.1°F25.1°C 88% 7.0 mph WSW11.3 kmh WSW 9.0 mph14.5 kmh 29.88 in1011.9 mb 0.00 in0.0 mm 0.00 in0.0 mm 0.07 in1.8 mm
06:31 AM 81.0°F27.2°C 77.1°F25.1°C 88% 2.0 mph SW3.2 kmh SW 10.0 mph16.1 kmh 29.88 in1011.9 mb 0.00 in0.0 mm 0.00 in0.0 mm 0.07 in1.8 mm
06:30 AM 80.9°F27.2°C 77.0°F25.0°C 88% 5.0 mph SW8.0 kmh SW 10.0 mph16.1 kmh 29.88 in1011.9 mb 0.00 in0.0 mm 0.00 in0.0 mm 0.07 in1.8 mm
06:29 AM 80.9°F27.2°C 77.0°F25.0°C 88% 5.0 mph SW8.0 kmh SW 10.0 mph16.1 kmh 29.88 in1011.9 mb 0.00 in0.0 mm 0.00 in0.0 mm 0.07 in1.8 mm
06:28 AM 80.9°F27.2°C 77.0°F25.0°C 88% 7.0 mph WSW11.3 kmh WSW 9.0 mph14.5 kmh 29.88 in1011.9 mb 0.00 in0.0 mm 0.00 in0.0 mm 0.07 in1.8 mm
06:27 AM 80.8°F27.1°C 76.9°F24.9°C 88% 5.0 mph SW8.0 kmh SW 7.0 mph11.3 kmh 29.88 in1011.9 mb 0.00 in0.0 mm 0.00 in0.0 mm 0.07 in1.8 mm
06:26 AM 80.8°F27.1°C 76.9°F24.9°C 88% 4.0 mph SW6.4 kmh SW 7.0 mph11.3 kmh 29.88 in1011.9 mb 0.00 in0.0 mm 0.00 in0.0 mm 0.07 in1.8 mm
06:25 AM 80.8°F27.1°C 76.9°F24.9°C 88% 4.0 mph SW6.4 kmh SW 7.0 mph11.3 kmh 29.88 in1011.9 mb 0.00 in0.0 mm 0.00 in0.0 mm 0.07 in1.8 mm
06:24 AM 80.7°F27.1°C 76.8°F24.9°C 88% 3.0 mph WSW4.8 kmh WSW 7.0 mph11.3 kmh 29.88 in1011.9 mb 0.00 in0.0 mm 0.00 in0.0 mm 0.07 in1.8 mm
06:23 AM 80.7°F27.1°C 76.8°F24.9°C 88% Calm Calm 7.0 mph11.3 kmh 29.88 in1011.9 mb 0.00 in0.0 mm 0.00 in0.0 mm 0.07 in1.8 mm
06:22 AM 80.7°F27.1°C 76.8°F24.9°C 88% 3.0 mph WSW4.8 kmh WSW 7.0 mph11.3 kmh 29.88 in1011.9 mb 0.00 in0.0 mm 0.00 in0.0 mm 0.07 in1.8 mm
06:21 AM 80.8°F27.1°C 76.9°F24.9°C 88% 7.0 mph WSW11.3 kmh WSW 7.0 mph11.3 kmh 29.88 in1011.9 mb 0.00 in0.0 mm 0.00 in0.0 mm 0.07 in1.8 mm
06:20 AM 80.8°F27.1°C 76.9°F24.9°C 88% 1.0 mph W1.6 kmh W 8.0 mph12.9 kmh 29.88 in1011.9 mb 0.00 in0.0 mm 0.00 in0.0 mm 0.07 in1.8 mm
06:19 AM 80.7°F27.1°C 76.8°F24.9°C 88% 2.0 mph WNW3.2 kmh WNW 8.0 mph12.9 kmh 29.88 in1011.9 mb 0.00 in0.0 mm 0.00 in0.0 mm 0.07 in1.8 mm
06:18 AM 80.7°F27.1°C 76.8°F24.9°C 88% 3.0 mph W4.8 kmh W 8.0 mph12.9 kmh 29.88 in1011.9 mb 0.00 in0.0 mm 0.00 in0.0 mm 0.07 in1.8 mm
06:17 AM 80.7°F27.1°C 76.8°F24.9°C 88% Calm Calm 8.0 mph12.9 kmh 29.88 in1011.9 mb 0.00 in0.0 mm 0.00 in0.0 mm 0.07 in1.8 mm
06:16 AM 80.6°F27.0°C 76.7°F24.8°C 88% 2.0 mph W3.2 kmh W 8.0 mph12.9 kmh 29.88 in1011.9 mb 0.00 in0.0 mm 0.00 in0.0 mm 0.07 in1.8 mm
06:15 AM 80.5°F26.9°C 76.6°F24.8°C 88% 3.0 mph W4.8 kmh W 8.0 mph12.9 kmh 29.88 in1011.9 mb 0.00 in0.0 mm 0.00 in0.0 mm 0.07 in1.8 mm
06:14 AM 80.5°F26.9°C 76.6°F24.8°C 88% 3.0 mph W4.8 kmh W 8.0 mph12.9 kmh 29.88 in1011.9 mb 0.00 in0.0 mm 0.00 in0.0 mm 0.07 in1.8 mm
06:13 AM 80.4°F26.9°C 76.5°F24.7°C 88% 2.0 mph W3.2 kmh W 8.0 mph12.9 kmh 29.88 in1011.9 mb 0.00 in0.0 mm 0.00 in0.0 mm 0.07 in1.8 mm
06:12 AM 80.3°F26.8°C 76.4°F24.7°C 88% 2.0 mph WSW3.2 kmh WSW 8.0 mph12.9 kmh 29.88 in1011.9 mb 0.00 in0.0 mm 0.00 in0.0 mm 0.07 in1.8 mm
06:11 AM 80.3°F26.8°C 76.4°F24.7°C 88% 1.0 mph WNW1.6 kmh WNW 8.0 mph12.9 kmh 29.88 in1011.9 mb 0.00 in0.0 mm 0.00 in0.0 mm 0.07 in1.8 mm
06:10 AM 80.3°F26.8°C 76.4°F24.7°C 88% 1.0 mph WSW1.6 kmh WSW 9.0 mph14.5 kmh 29.88 in1011.9 mb 0.00 in0.0 mm 0.00 in0.0 mm 0.07 in1.8 mm
06:09 AM 80.2°F26.8°C 76.3°F24.6°C 88% Calm Calm 12.0 mph19.3 kmh 29.88 in1011.9 mb 0.00 in0.0 mm 0.00 in0.0 mm 0.07 in1.8 mm
06:08 AM 80.2°F26.8°C 76.3°F24.6°C 88% 3.0 mph WSW4.8 kmh WSW 14.0 mph22.5 kmh 29.88 in1011.9 mb 0.00 in0.0 mm 0.00 in0.0 mm 0.07 in1.8 mm
06:07 AM 80.1°F26.7°C 76.2°F24.6°C 88% 2.0 mph WSW3.2 kmh WSW 14.0 mph22.5 kmh 29.88 in1011.9 mb 0.00 in0.0 mm 0.00 in0.0 mm 0.07 in1.8 mm
06:06 AM 80.0°F26.7°C 76.1°F24.5°C 88% 1.0 mph WSW1.6 kmh WSW 14.0 mph22.5 kmh 29.88 in1011.9 mb 0.00 in0.0 mm 0.00 in0.0 mm 0.07 in1.8 mm
06:05 AM 79.9°F26.6°C 75.7°F24.3°C 87% 4.0 mph WSW6.4 kmh WSW 16.0 mph25.7 kmh 29.88 in1011.9 mb 0.00 in0.0 mm 0.00 in0.0 mm 0.07 in1.8 mm
06:04 AM 79.9°F26.6°C 75.7°F24.3°C 87% 2.0 mph WSW3.2 kmh WSW 16.0 mph25.7 kmh 29.88 in1011.9 mb 0.00 in0.0 mm 0.00 in0.0 mm 0.06 in1.5 mm
06:03 AM 79.9°F26.6°C 76.0°F24.4°C 88% 7.0 mph W11.3 kmh W 16.0 mph25.7 kmh 29.88 in1011.9 mb 0.00 in0.0 mm 0.00 in0.0 mm 0.06 in1.5 mm
06:02 AM 79.8°F26.6°C 75.9°F24.4°C 88% 5.0 mph SW8.0 kmh SW 16.0 mph25.7 kmh 29.89 in1012.2 mb 0.00 in0.0 mm 0.00 in0.0 mm 0.06 in1.5 mm
06:01 AM 79.8°F26.6°C 75.9°F24.4°C 88% 8.0 mph WNW12.9 kmh WNW 16.0 mph25.7 kmh 29.89 in1012.2 mb 0.00 in0.0 mm 0.00 in0.0 mm 0.06 in1.5 mm
06:00 AM 79.8°F26.6°C 75.9°F24.4°C 88% 14.0 mph W22.5 kmh W 16.0 mph25.7 kmh 29.89 in1012.2 mb 0.00 in0.0 mm 0.00 in0.0 mm 0.06 in1.5 mm
05:59 AM 79.9°F26.6°C 76.0°F24.4°C 88% 3.0 mph WNW4.8 kmh WNW 16.0 mph25.7 kmh 29.89 in1012.2 mb 0.00 in0.0 mm 0.00 in0.0 mm 0.06 in1.5 mm
05:58 AM 79.8°F26.6°C 75.9°F24.4°C 88% 3.0 mph WNW4.8 kmh WNW 16.0 mph25.7 kmh 29.89 in1012.2 mb 0.00 in0.0 mm 0.00 in0.0 mm 0.06 in1.5 mm
05:57 AM 79.7°F26.5°C 75.8°F24.3°C 88% 13.0 mph NW20.9 kmh NW 16.0 mph25.7 kmh 29.89 in1012.2 mb 0.00 in0.0 mm 0.00 in0.0 mm 0.06 in1.5 mm
05:56 AM 79.6°F26.4°C 75.7°F24.3°C 88% Calm Calm 13.0 mph20.9 kmh 29.89 in1012.2 mb 0.00 in0.0 mm 0.00 in0.0 mm 0.06 in1.5 mm
05:55 AM 79.5°F26.4°C 75.6°F24.2°C 88% 8.0 mph WSW12.9 kmh WSW 11.0 mph17.7 kmh 29.89 in1012.2 mb 0.00 in0.0 mm 0.00 in0.0 mm 0.06 in1.5 mm
05:54 AM 79.3°F26.3°C 75.4°F24.1°C 88% 4.0 mph W6.4 kmh W 9.0 mph14.5 kmh 29.89 in1012.2 mb 0.00 in0.0 mm 0.00 in0.0 mm 0.06 in1.5 mm
05:53 AM 79.3°F26.3°C 75.4°F24.1°C 88% 3.0 mph W4.8 kmh W 10.0 mph16.1 kmh 29.89 in1012.2 mb 0.00 in0.0 mm 0.00 in0.0 mm 0.06 in1.5 mm
05:52 AM 79.2°F26.2°C 75.3°F24.1°C 88% 2.0 mph WSW3.2 kmh WSW 10.0 mph16.1 kmh 29.89 in1012.2 mb 0.00 in0.0 mm 0.00 in0.0 mm 0.06 in1.5 mm
05:51 AM 79.1°F26.2°C 75.2°F24.0°C 88% 1.0 mph WSW1.6 kmh WSW 10.0 mph16.1 kmh 29.89 in1012.2 mb 0.00 in0.0 mm 0.00 in0.0 mm 0.06 in1.5 mm
05:50 AM 79.1°F26.2°C 75.2°F24.0°C 88% 2.0 mph WSW3.2 kmh WSW 10.0 mph16.1 kmh 29.89 in1012.2 mb 0.00 in0.0 mm 0.00 in0.0 mm 0.06 in1.5 mm
05:49 AM 79.1°F26.2°C 75.2°F24.0°C 88% 4.0 mph WSW6.4 kmh WSW 10.0 mph16.1 kmh 29.89 in1012.2 mb 0.00 in0.0 mm 0.00 in0.0 mm 0.06 in1.5 mm
05:48 AM 79.1°F26.2°C 75.2°F24.0°C 88% 4.0 mph WSW6.4 kmh WSW 10.0 mph16.1 kmh 29.89 in1012.2 mb 0.00 in0.0 mm 0.00 in0.0 mm 0.06 in1.5 mm
05:47 AM 79.1°F26.2°C 75.2°F24.0°C 88% Calm Calm 10.0 mph16.1 kmh 29.89 in1012.2 mb 0.00 in0.0 mm 0.00 in0.0 mm 0.06 in1.5 mm
05:46 AM 79.0°F26.1°C 75.1°F23.9°C 88% 4.0 mph WNW6.4 kmh WNW 10.0 mph16.1 kmh 29.89 in1012.2 mb 0.00 in0.0 mm 0.00 in0.0 mm 0.06 in1.5 mm
05:45 AM 78.9°F26.1°C 75.0°F23.9°C 88% 8.0 mph WSW12.9 kmh WSW 10.0 mph16.1 kmh 29.89 in1012.2 mb 0.00 in0.0 mm 0.00 in0.0 mm 0.06 in1.5 mm
05:44 AM 78.9°F26.1°C 75.0°F23.9°C 88% 2.0 mph WSW3.2 kmh WSW 9.0 mph14.5 kmh 29.89 in1012.2 mb 0.00 in0.0 mm 0.00 in0.0 mm 0.06 in1.5 mm
05:43 AM 78.8°F26.0°C 74.9°F23.8°C 88% 2.0 mph SW3.2 kmh SW 9.0 mph14.5 kmh 29.89 in1012.2 mb 0.04 in1.0 mm 0.00 in0.0 mm 0.06 in1.5 mm
05:42 AM 78.7°F25.9°C 74.8°F23.8°C 88% 2.0 mph WNW3.2 kmh WNW 9.0 mph14.5 kmh 29.89 in1012.2 mb 0.04 in1.0 mm 0.00 in0.0 mm 0.06 in1.5 mm
05:41 AM 78.7°F25.9°C 74.8°F23.8°C 88% Calm Calm 9.0 mph14.5 kmh 29.89 in1012.2 mb 0.04 in1.0 mm 0.00 in0.0 mm 0.06 in1.5 mm
05:40 AM 78.7°F25.9°C 74.8°F23.8°C 88% 7.0 mph SW11.3 kmh SW 8.0 mph12.9 kmh 29.89 in1012.2 mb 0.04 in1.0 mm 0.00 in0.0 mm 0.06 in1.5 mm
05:39 AM 78.7°F25.9°C 74.8°F23.8°C 88% 1.0 mph WNW1.6 kmh WNW 8.0 mph12.9 kmh 29.89 in1012.2 mb 0.05 in1.3 mm 0.00 in0.0 mm 0.06 in1.5 mm
05:38 AM 78.7°F25.9°C 74.8°F23.8°C 88% Calm Calm 8.0 mph12.9 kmh 29.88 in1011.9 mb 0.05 in1.3 mm 0.00 in0.0 mm 0.06 in1.5 mm
05:37 AM 78.7°F25.9°C 74.8°F23.8°C 88% Calm Calm 8.0 mph12.9 kmh 29.88 in1011.9 mb 0.05 in1.3 mm 0.00 in0.0 mm 0.06 in1.5 mm
05:36 AM 78.7°F25.9°C 74.8°F23.8°C 88% Calm Calm 9.0 mph14.5 kmh 29.88 in1011.9 mb 0.06 in1.5 mm 0.00 in0.0 mm 0.06 in1.5 mm
05:35 AM 78.7°F25.9°C 74.5°F23.6°C 87% 1.0 mph NW1.6 kmh NW 9.0 mph14.5 kmh 29.88 in1011.9 mb 0.07 in1.8 mm 0.00 in0.0 mm 0.06 in1.5 mm
05:34 AM 78.8°F26.0°C 74.9°F23.8°C 88% 6.0 mph W9.7 kmh W 9.0 mph14.5 kmh 29.88 in1011.9 mb 0.08 in2.0 mm 0.00 in0.0 mm 0.06 in1.5 mm
05:33 AM 79.0°F26.1°C 75.1°F23.9°C 88% 1.0 mph WSW1.6 kmh WSW 10.0 mph16.1 kmh 29.88 in1011.9 mb 0.09 in2.3 mm 0.00 in0.0 mm 0.06 in1.5 mm
05:32 AM 79.1°F26.2°C 75.2°F24.0°C 88% 4.0 mph WNW6.4 kmh WNW 10.0 mph16.1 kmh 29.88 in1011.9 mb 0.10 in2.5 mm 0.00 in0.0 mm 0.06 in1.5 mm
05:31 AM 79.2°F26.2°C 75.0°F23.9°C 87% 8.0 mph W12.9 kmh W 10.0 mph16.1 kmh 29.88 in1011.9 mb 0.12 in3.0 mm 0.00 in0.0 mm 0.06 in1.5 mm
05:30 AM 79.2°F26.2°C 75.0°F23.9°C 87% 3.0 mph WNW4.8 kmh WNW 11.0 mph17.7 kmh 29.88 in1011.9 mb 0.15 in3.8 mm 0.00 in0.0 mm 0.06 in1.5 mm
05:29 AM 79.3°F26.3°C 75.1°F23.9°C 87% 5.0 mph NW8.0 kmh NW 13.0 mph20.9 kmh 29.88 in1011.9 mb 0.15 in3.8 mm 0.00 in0.0 mm 0.06 in1.5 mm
05:28 AM 79.4°F26.3°C 75.2°F24.0°C 87% 1.0 mph NW1.6 kmh NW 14.0 mph22.5 kmh 29.89 in1012.2 mb 0.15 in3.8 mm 0.00 in0.0 mm 0.06 in1.5 mm
05:27 AM 79.5°F26.4°C 75.3°F24.1°C 87% 4.0 mph WNW6.4 kmh WNW 20.0 mph32.2 kmh 29.89 in1012.2 mb 0.15 in3.8 mm 0.00 in0.0 mm 0.06 in1.5 mm
05:26 AM 79.6°F26.4°C 75.4°F24.1°C 87% 3.0 mph NW4.8 kmh NW 20.0 mph32.2 kmh 29.89 in1012.2 mb 0.15 in3.8 mm 0.00 in0.0 mm 0.05 in1.3 mm
05:25 AM 79.8°F26.6°C 75.2°F24.0°C 86% 3.0 mph NW4.8 kmh NW 20.0 mph32.2 kmh 29.89 in1012.2 mb 0.19 in4.8 mm 0.00 in0.0 mm 0.05 in1.3 mm
05:24 AM 80.0°F26.7°C 75.4°F24.1°C 86% 5.0 mph NW8.0 kmh NW 20.0 mph32.2 kmh 29.89 in1012.2 mb 0.29 in7.4 mm 0.00 in0.0 mm 0.05 in1.3 mm
05:23 AM 80.2°F26.8°C 75.6°F24.2°C 86% 5.0 mph NW8.0 kmh NW 20.0 mph32.2 kmh 29.89 in1012.2 mb 0.43 in10.9 mm 0.00 in0.0 mm 0.05 in1.3 mm
05:22 AM 80.5°F26.9°C 75.6°F24.2°C 85% 7.0 mph WNW11.3 kmh WNW 20.0 mph32.2 kmh 29.89 in1012.2 mb 0.43 in10.9 mm 0.00 in0.0 mm 0.04 in1.0 mm
05:21 AM 80.8°F27.1°C 75.5°F24.2°C 84% 8.0 mph WNW12.9 kmh WNW 20.0 mph32.2 kmh 29.89 in1012.2 mb 0.43 in10.9 mm 25.80 in655.3 mm 0.04 in1.0 mm
05:20 AM 81.1°F27.3°C 75.8°F24.3°C 84% 9.0 mph W14.5 kmh W 20.0 mph32.2 kmh 29.89 in1012.2 mb 0.00 in0.0 mm 0.00 in0.0 mm 0.03 in0.8 mm
05:19 AM 81.4°F27.4°C 76.1°F24.5°C 84% 19.0 mph WNW30.6 kmh WNW 20.0 mph32.2 kmh 29.89 in1012.2 mb 0.00 in0.0 mm 0.00 in0.0 mm 0.02 in0.5 mm
05:18 AM 81.7°F27.6°C 76.4°F24.7°C 84% 12.0 mph WNW19.3 kmh WNW 22.0 mph35.4 kmh 29.89 in1012.2 mb 0.00 in0.0 mm 0.00 in0.0 mm 0.02 in0.5 mm
05:17 AM 81.9°F27.7°C 76.6°F24.8°C 84% 12.0 mph NW19.3 kmh NW 22.0 mph35.4 kmh 29.89 in1012.2 mb 0.00 in0.0 mm 0.00 in0.0 mm 0.02 in0.5 mm
05:16 AM 82.1°F27.8°C 76.4°F24.7°C 83% 10.0 mph W16.1 kmh W 22.0 mph35.4 kmh 29.89 in1012.2 mb 0.00 in0.0 mm 0.00 in0.0 mm 0.02 in0.5 mm
05:15 AM 82.4°F28.0°C 77.1°F25.1°C 84% 8.0 mph WSW12.9 kmh WSW 22.0 mph35.4 kmh 29.89 in1012.2 mb 0.00 in0.0 mm 0.00 in0.0 mm 0.02 in0.5 mm
05:14 AM 82.5°F28.1°C 77.2°F25.1°C 84% 20.0 mph WNW32.2 kmh WNW 22.0 mph35.4 kmh 29.89 in1012.2 mb 0.00 in0.0 mm 0.00 in0.0 mm 0.02 in0.5 mm
05:13 AM 82.7°F28.2°C 77.4°F25.2°C 84% 8.0 mph W12.9 kmh W 22.0 mph35.4 kmh 29.89 in1012.2 mb 0.00 in0.0 mm 0.00 in0.0 mm 0.02 in0.5 mm
05:12 AM 82.8°F28.2°C 77.5°F25.3°C 84% 12.0 mph WNW19.3 kmh WNW 22.0 mph35.4 kmh 29.89 in1012.2 mb 0.00 in0.0 mm 0.00 in0.0 mm 0.02 in0.5 mm
05:11 AM 82.9°F28.3°C 77.6°F25.3°C 84% 12.0 mph NW19.3 kmh NW 22.0 mph35.4 kmh 29.89 in1012.2 mb 0.00 in0.0 mm 0.00 in0.0 mm 0.02 in0.5 mm
05:10 AM 83.0°F28.3°C 77.7°F25.4°C 84% 7.0 mph W11.3 kmh W 22.0 mph35.4 kmh 29.89 in1012.2 mb 0.00 in0.0 mm 0.00 in0.0 mm 0.02 in0.5 mm
05:09 AM 83.0°F28.3°C 77.7°F25.4°C 84% 3.0 mph SSW4.8 kmh SSW 12.0 mph19.3 kmh 29.89 in1012.2 mb 0.00 in0.0 mm 0.00 in0.0 mm 0.02 in0.5 mm
05:08 AM 83.0°F28.3°C 77.7°F25.4°C 84% 6.0 mph W9.7 kmh W 12.0 mph19.3 kmh 29.89 in1012.2 mb 0.00 in0.0 mm 0.00 in0.0 mm 0.02 in0.5 mm
05:07 AM 83.0°F28.3°C 77.7°F25.4°C 84% 6.0 mph WSW9.7 kmh WSW 12.0 mph19.3 kmh 29.89 in1012.2 mb 0.00 in0.0 mm 0.00 in0.0 mm 0.02 in0.5 mm
05:06 AM 83.1°F28.4°C 77.7°F25.4°C 84% 4.0 mph WSW6.4 kmh WSW 12.0 mph19.3 kmh 29.89 in1012.2 mb 0.00 in0.0 mm 0.00 in0.0 mm 0.02 in0.5 mm
05:05 AM 83.1°F28.4°C 77.7°F25.4°C 84% 2.0 mph WSW3.2 kmh WSW 12.0 mph19.3 kmh 29.89 in1012.2 mb 0.00 in0.0 mm 0.00 in0.0 mm 0.02 in0.5 mm
05:04 AM 83.1°F28.4°C 77.7°F25.4°C 84% 2.0 mph SW3.2 kmh SW 12.0 mph19.3 kmh 29.89 in1012.2 mb 0.00 in0.0 mm 0.00 in0.0 mm 0.02 in0.5 mm
05:03 AM 83.1°F28.4°C 77.7°F25.4°C 84% 8.0 mph NW12.9 kmh NW 12.0 mph19.3 kmh 29.89 in1012.2 mb 0.00 in0.0 mm 0.00 in0.0 mm 0.02 in0.5 mm
05:02 AM 83.1°F28.4°C 77.7°F25.4°C 84% 4.0 mph WSW6.4 kmh WSW 12.0 mph19.3 kmh 29.89 in1012.2 mb 0.00 in0.0 mm 0.00 in0.0 mm 0.02 in0.5 mm
05:01 AM 83.1°F28.4°C 77.7°F25.4°C 84% 6.0 mph WSW9.7 kmh WSW 12.0 mph19.3 kmh 29.89 in1012.2 mb 0.00 in0.0 mm 0.00 in0.0 mm 0.02 in0.5 mm
05:00 AM 83.0°F28.3°C 77.7°F25.4°C 84% 8.0 mph WSW12.9 kmh WSW 12.0 mph19.3 kmh 29.89 in1012.2 mb 0.00 in0.0 mm 0.00 in0.0 mm 0.02 in0.5 mm
04:59 AM 83.0°F28.3°C 77.3°F25.2°C 83% 4.0 mph W6.4 kmh W 10.0 mph16.1 kmh 29.89 in1012.2 mb 0.00 in0.0 mm 0.00 in0.0 mm 0.02 in0.5 mm
04:58 AM 83.0°F28.3°C 77.3°F25.2°C 83% 4.0 mph SW6.4 kmh SW 10.0 mph16.1 kmh 29.89 in1012.2 mb 0.00 in0.0 mm 0.00 in0.0 mm 0.02 in0.5 mm
04:57 AM 83.0°F28.3°C 77.3°F25.2°C 83% 1.0 mph W1.6 kmh W 10.0 mph16.1 kmh 29.89 in1012.2 mb 0.00 in0.0 mm 0.00 in0.0 mm 0.02 in0.5 mm
04:56 AM 83.1°F28.4°C 77.4°F25.2°C 83% 9.0 mph NW14.5 kmh NW 10.0 mph16.1 kmh 29.89 in1012.2 mb 0.00 in0.0 mm 0.00 in0.0 mm 0.02 in0.5 mm
04:55 AM 83.0°F28.3°C 77.3°F25.2°C 83% 6.0 mph W9.7 kmh W 10.0 mph16.1 kmh 29.89 in1012.2 mb 0.00 in0.0 mm 0.00 in0.0 mm 0.02 in0.5 mm
04:54 AM 83.0°F28.3°C 77.3°F25.2°C 83% 1.0 mph WSW1.6 kmh WSW 10.0 mph16.1 kmh 29.88 in1011.9 mb 0.00 in0.0 mm 0.00 in0.0 mm 0.02 in0.5 mm
04:53 AM 83.0°F28.3°C 77.3°F25.2°C 83% 7.0 mph W11.3 kmh W 10.0 mph16.1 kmh 29.88 in1011.9 mb 0.00 in0.0 mm 0.00 in0.0 mm 0.02 in0.5 mm
04:52 AM 83.1°F28.4°C 77.4°F25.2°C 83% 5.0 mph SW8.0 kmh SW 10.0 mph16.1 kmh 29.88 in1011.9 mb 0.00 in0.0 mm 0.00 in0.0 mm 0.02 in0.5 mm
04:51 AM 83.0°F28.3°C 77.3°F25.2°C 83% 3.0 mph WSW4.8 kmh WSW 10.0 mph16.1 kmh 29.89 in1012.2 mb 0.00 in0.0 mm 0.00 in0.0 mm 0.02 in0.5 mm
04:50 AM 83.0°F28.3°C 77.3°F25.2°C 83% 2.0 mph WSW3.2 kmh WSW 10.0 mph16.1 kmh 29.89 in1012.2 mb 0.00 in0.0 mm 0.00 in0.0 mm 0.02 in0.5 mm
04:49 AM 83.0°F28.3°C 77.3°F25.2°C 83% 6.0 mph W9.7 kmh W 10.0 mph16.1 kmh 29.89 in1012.2 mb 0.00 in0.0 mm 0.00 in0.0 mm 0.02 in0.5 mm
04:48 AM 83.0°F28.3°C 77.3°F25.2°C 83% 5.0 mph WNW8.0 kmh WNW 10.0 mph16.1 kmh 29.89 in1012.2 mb 0.00 in0.0 mm 0.00 in0.0 mm 0.02 in0.5 mm
04:47 AM 83.0°F28.3°C 77.3°F25.2°C 83% 7.0 mph NW11.3 kmh NW 10.0 mph16.1 kmh 29.89 in1012.2 mb 0.00 in0.0 mm 0.00 in0.0 mm 0.02 in0.5 mm
04:46 AM 83.0°F28.3°C 77.3°F25.2°C 83% 3.0 mph NW4.8 kmh NW 10.0 mph16.1 kmh 29.89 in1012.2 mb 0.00 in0.0 mm 0.00 in0.0 mm 0.02 in0.5 mm
04:45 AM 83.0°F28.3°C 77.7°F25.4°C 84% 6.0 mph WNW9.7 kmh WNW 10.0 mph16.1 kmh 29.89 in1012.2 mb 0.00 in0.0 mm 0.00 in0.0 mm 0.02 in0.5 mm
04:44 AM 83.1°F28.4°C 77.7°F25.4°C 84% 8.0 mph W12.9 kmh W 9.0 mph14.5 kmh 29.89 in1012.2 mb 0.00 in0.0 mm 0.00 in0.0 mm 0.02 in0.5 mm
04:43 AM 83.0°F28.3°C 77.3°F25.2°C 83% 1.0 mph WSW1.6 kmh WSW 10.0 mph16.1 kmh 29.89 in1012.2 mb 0.00 in0.0 mm 0.00 in0.0 mm 0.02 in0.5 mm
04:42 AM 83.0°F28.3°C 77.3°F25.2°C 83% 1.0 mph WNW1.6 kmh WNW 11.0 mph17.7 kmh 29.89 in1012.2 mb 0.00 in0.0 mm 0.00 in0.0 mm 0.02 in0.5 mm
04:41 AM 83.1°F28.4°C 77.4°F25.2°C 83% Calm Calm 11.0 mph17.7 kmh 29.89 in1012.2 mb 0.00 in0.0 mm 0.00 in0.0 mm 0.02 in0.5 mm
04:40 AM 83.1°F28.4°C 77.4°F25.2°C 83% 7.0 mph W11.3 kmh W 11.0 mph17.7 kmh 29.89 in1012.2 mb 0.00 in0.0 mm 0.00 in0.0 mm 0.02 in0.5 mm
04:39 AM 83.1°F28.4°C 77.4°F25.2°C 83% 8.0 mph W12.9 kmh W 11.0 mph17.7 kmh 29.89 in1012.2 mb 0.00 in0.0 mm 0.00 in0.0 mm 0.02 in0.5 mm
04:38 AM 83.0°F28.3°C 77.3°F25.2°C 83% 1.0 mph W1.6 kmh W 11.0 mph17.7 kmh 29.89 in1012.2 mb 0.00 in0.0 mm 0.00 in0.0 mm 0.02 in0.5 mm
04:37 AM 83.0°F28.3°C 77.3°F25.2°C 83% 1.0 mph W1.6 kmh W 11.0 mph17.7 kmh 29.89 in1012.2 mb 0.00 in0.0 mm 0.00 in0.0 mm 0.02 in0.5 mm
04:36 AM 83.0°F28.3°C 77.3°F25.2°C 83% 8.0 mph W12.9 kmh W 11.0 mph17.7 kmh 29.89 in1012.2 mb 0.00 in0.0 mm 0.00 in0.0 mm 0.02 in0.5 mm
04:35 AM 83.0°F28.3°C 77.3°F25.2°C 83% 4.0 mph W6.4 kmh W 11.0 mph17.7 kmh 29.89 in1012.2 mb 0.00 in0.0 mm 0.00 in0.0 mm 0.02 in0.5 mm
04:34 AM 83.0°F28.3°C 77.3°F25.2°C 83% 3.0 mph W4.8 kmh W 11.0 mph17.7 kmh 29.89 in1012.2 mb 0.00 in0.0 mm 0.00 in0.0 mm 0.02 in0.5 mm
04:33 AM 83.0°F28.3°C 77.3°F25.2°C 83% 3.0 mph W4.8 kmh W 11.0 mph17.7 kmh 29.89 in1012.2 mb 0.00 in0.0 mm 0.00 in0.0 mm 0.02 in0.5 mm
04:32 AM 83.0°F28.3°C 77.3°F25.2°C 83% 6.0 mph WSW9.7 kmh WSW 11.0 mph17.7 kmh 29.89 in1012.2 mb 0.00 in0.0 mm 0.00 in0.0 mm 0.02 in0.5 mm
04:31 AM 82.9°F28.3°C 77.2°F25.1°C 83% 4.0 mph W6.4 kmh W 11.0 mph17.7 kmh 29.89 in1012.2 mb 0.00 in0.0 mm 0.00 in0.0 mm 0.02 in0.5 mm
04:30 AM 82.9°F28.3°C 77.2°F25.1°C 83% 4.0 mph W6.4 kmh W 11.0 mph17.7 kmh 29.89 in1012.2 mb 0.00 in0.0 mm 0.00 in0.0 mm 0.02 in0.5 mm
04:29 AM 82.9°F28.3°C 77.2°F25.1°C 83% 7.0 mph SW11.3 kmh SW 11.0 mph17.7 kmh 29.89 in1012.2 mb 0.00 in0.0 mm 0.00 in0.0 mm 0.02 in0.5 mm
04:28 AM 82.9°F28.3°C 77.2°F25.1°C 83% 2.0 mph SW3.2 kmh SW 11.0 mph17.7 kmh 29.89 in1012.2 mb 0.00 in0.0 mm 0.00 in0.0 mm 0.02 in0.5 mm
04:27 AM 82.9°F28.3°C 77.2°F25.1°C 83% 5.0 mph WSW8.0 kmh WSW 11.0 mph17.7 kmh 29.89 in1012.2 mb 0.00 in0.0 mm 0.00 in0.0 mm 0.02 in0.5 mm
04:26 AM 83.0°F28.3°C 77.3°F25.2°C 83% 5.0 mph WSW8.0 kmh WSW 11.0 mph17.7 kmh 29.89 in1012.2 mb 0.00 in0.0 mm 0.00 in0.0 mm 0.02 in0.5 mm
04:25 AM 82.9°F28.3°C 77.2°F25.1°C 83% 8.0 mph WSW12.9 kmh WSW 11.0 mph17.7 kmh 29.89 in1012.2 mb 0.00 in0.0 mm 0.00 in0.0 mm 0.02 in0.5 mm
04:24 AM 82.9°F28.3°C 77.6°F25.3°C 84% 5.0 mph WSW8.0 kmh WSW 8.0 mph12.9 kmh 29.89 in1012.2 mb 0.00 in0.0 mm 0.00 in0.0 mm 0.02 in0.5 mm
04:23 AM 83.0°F28.3°C 77.7°F25.4°C 84% 7.0 mph SW11.3 kmh SW 9.0 mph14.5 kmh 29.89 in1012.2 mb 0.00 in0.0 mm 0.00 in0.0 mm 0.02 in0.5 mm
04:22 AM 83.0°F28.3°C 77.7°F25.4°C 84% 5.0 mph WSW8.0 kmh WSW 9.0 mph14.5 kmh 29.89 in1012.2 mb 0.00 in0.0 mm 0.00 in0.0 mm 0.02 in0.5 mm
04:21 AM 83.0°F28.3°C 77.7°F25.4°C 84% 8.0 mph WSW12.9 kmh WSW 9.0 mph14.5 kmh 29.89 in1012.2 mb 0.00 in0.0 mm 0.00 in0.0 mm 0.02 in0.5 mm
04:20 AM 83.0°F28.3°C 77.7°F25.4°C 84% 2.0 mph WSW3.2 kmh WSW 10.0 mph16.1 kmh 29.89 in1012.2 mb 0.00 in0.0 mm 0.00 in0.0 mm 0.02 in0.5 mm
04:19 AM 83.0°F28.3°C 77.7°F25.4°C 84% 4.0 mph SW6.4 kmh SW 10.0 mph16.1 kmh 29.89 in1012.2 mb 0.00 in0.0 mm 0.00 in0.0 mm 0.02 in0.5 mm
04:18 AM 83.0°F28.3°C 77.7°F25.4°C 84% 4.0 mph W6.4 kmh W 10.0 mph16.1 kmh 29.89 in1012.2 mb 0.00 in0.0 mm 0.00 in0.0 mm 0.02 in0.5 mm
04:17 AM 83.0°F28.3°C 77.7°F25.4°C 84% 3.0 mph WSW4.8 kmh WSW 10.0 mph16.1 kmh 29.89 in1012.2 mb 0.00 in0.0 mm 0.00 in0.0 mm 0.02 in0.5 mm
04:16 AM 83.0°F28.3°C 77.7°F25.4°C 84% 3.0 mph SW4.8 kmh SW 10.0 mph16.1 kmh 29.89 in1012.2 mb 0.00 in0.0 mm 0.00 in0.0 mm 0.02 in0.5 mm
04:15 AM 83.0°F28.3°C 77.7°F25.4°C 84% 2.0 mph WSW3.2 kmh WSW 10.0 mph16.1 kmh 29.89 in1012.2 mb 0.00 in0.0 mm 0.00 in0.0 mm 0.02 in0.5 mm
04:14 AM 83.0°F28.3°C 77.7°F25.4°C 84% 3.0 mph WSW4.8 kmh WSW 10.0 mph16.1 kmh 29.89 in1012.2 mb 0.00 in0.0 mm 0.00 in0.0 mm 0.02 in0.5 mm
04:13 AM 83.0°F28.3°C 77.7°F25.4°C 84% 2.0 mph WSW3.2 kmh WSW 10.0 mph16.1 kmh 29.89 in1012.2 mb 0.00 in0.0 mm 0.00 in0.0 mm 0.02 in0.5 mm
04:12 AM 82.9°F28.3°C 77.6°F25.3°C 84% 6.0 mph W9.7 kmh W 10.0 mph16.1 kmh 29.89 in1012.2 mb 0.00 in0.0 mm 0.00 in0.0 mm 0.02 in0.5 mm
04:11 AM 82.9°F28.3°C 77.6°F25.3°C 84% 2.0 mph WNW3.2 kmh WNW 10.0 mph16.1 kmh 29.90 in1012.5 mb 0.00 in0.0 mm 0.00 in0.0 mm 0.02 in0.5 mm
04:10 AM 82.9°F28.3°C 77.6°F25.3°C 84% 1.0 mph WSW1.6 kmh WSW 10.0 mph16.1 kmh 29.89 in1012.2 mb 0.00 in0.0 mm 0.00 in0.0 mm 0.02 in0.5 mm
04:09 AM 82.9°F28.3°C 77.6°F25.3°C 84% 6.0 mph WNW9.7 kmh WNW 10.0 mph16.1 kmh 29.89 in1012.2 mb 0.00 in0.0 mm 0.00 in0.0 mm 0.02 in0.5 mm
04:08 AM 82.8°F28.2°C 77.5°F25.3°C 84% 1.0 mph WNW1.6 kmh WNW 10.0 mph16.1 kmh 29.89 in1012.2 mb 0.00 in0.0 mm 0.00 in0.0 mm 0.02 in0.5 mm
04:07 AM 82.8°F28.2°C 77.5°F25.3°C 84% 2.0 mph WNW3.2 kmh WNW 10.0 mph16.1 kmh 29.89 in1012.2 mb 0.00 in0.0 mm 0.00 in0.0 mm 0.02 in0.5 mm
04:06 AM 82.8°F28.2°C 77.5°F25.3°C 84% 2.0 mph WNW3.2 kmh WNW 8.0 mph12.9 kmh 29.89 in1012.2 mb 0.00 in0.0 mm 0.00 in0.0 mm 0.02 in0.5 mm
04:05 AM 82.8°F28.2°C 77.5°F25.3°C 84% 1.0 mph WNW1.6 kmh WNW 8.0 mph12.9 kmh 29.89 in1012.2 mb 0.00 in0.0 mm 0.00 in0.0 mm 0.02 in0.5 mm
04:04 AM 82.8°F28.2°C 77.5°F25.3°C 84% 3.0 mph WSW4.8 kmh WSW 8.0 mph12.9 kmh 29.89 in1012.2 mb 0.00 in0.0 mm 0.00 in0.0 mm 0.02 in0.5 mm
04:03 AM 82.9°F28.3°C 77.6°F25.3°C 84% 4.0 mph WSW6.4 kmh WSW 9.0 mph14.5 kmh 29.89 in1012.2 mb 0.00 in0.0 mm 0.00 in0.0 mm 0.02 in0.5 mm
04:02 AM 82.9°F28.3°C 77.6°F25.3°C 84% 5.0 mph SW8.0 kmh SW 9.0 mph14.5 kmh 29.89 in1012.2 mb 0.00 in0.0 mm 0.00 in0.0 mm 0.02 in0.5 mm
04:01 AM 82.9°F28.3°C 77.6°F25.3°C 84% 5.0 mph SW8.0 kmh SW 11.0 mph17.7 kmh 29.89 in1012.2 mb 0.00 in0.0 mm 0.00 in0.0 mm 0.02 in0.5 mm
04:00 AM 82.9°F28.3°C 77.6°F25.3°C 84% 1.0 mph SSW1.6 kmh SSW 11.0 mph17.7 kmh 29.89 in1012.2 mb 0.00 in0.0 mm 0.00 in0.0 mm 0.02 in0.5 mm
03:59 AM 83.0°F28.3°C 77.7°F25.4°C 84% 4.0 mph WNW6.4 kmh WNW 11.0 mph17.7 kmh 29.89 in1012.2 mb 0.00 in0.0 mm 0.00 in0.0 mm 0.02 in0.5 mm
03:58 AM 83.0°F28.3°C 77.7°F25.4°C 84% 7.0 mph W11.3 kmh W 11.0 mph17.7 kmh 29.89 in1012.2 mb 0.00 in0.0 mm 0.00 in0.0 mm 0.02 in0.5 mm
03:57 AM 83.0°F28.3°C 77.7°F25.4°C 84% 5.0 mph WNW8.0 kmh WNW 11.0 mph17.7 kmh 29.89 in1012.2 mb 0.00 in0.0 mm 0.00 in0.0 mm 0.02 in0.5 mm
03:56 AM 82.9°F28.3°C 77.6°F25.3°C 84% 3.0 mph W4.8 kmh W 11.0 mph17.7 kmh 29.89 in1012.2 mb 0.00 in0.0 mm 0.00 in0.0 mm 0.02 in0.5 mm
03:55 AM 82.9°F28.3°C 77.6°F25.3°C 84% 6.0 mph W9.7 kmh W 11.0 mph17.7 kmh 29.89 in1012.2 mb 0.00 in0.0 mm 0.00 in0.0 mm 0.02 in0.5 mm
03:54 AM 82.9°F28.3°C 77.6°F25.3°C 84% 6.0 mph W9.7 kmh W 11.0 mph17.7 kmh 29.89 in1012.2 mb 0.00 in0.0 mm 0.00 in0.0 mm 0.02 in0.5 mm
03:53 AM 82.9°F28.3°C 77.6°F25.3°C 84% 7.0 mph W11.3 kmh W 11.0 mph17.7 kmh 29.89 in1012.2 mb 0.00 in0.0 mm 0.00 in0.0 mm 0.02 in0.5 mm
03:52 AM 82.9°F28.3°C 77.6°F25.3°C 84% 10.0 mph WNW16.1 kmh WNW 11.0 mph17.7 kmh 29.89 in1012.2 mb 0.00 in0.0 mm 0.00 in0.0 mm 0.02 in0.5 mm
03:51 AM 82.8°F28.2°C 77.5°F25.3°C 84% 2.0 mph NW3.2 kmh NW 10.0 mph16.1 kmh 29.89 in1012.2 mb 0.00 in0.0 mm 0.00 in0.0 mm 0.02 in0.5 mm
03:50 AM 82.8°F28.2°C 77.5°F25.3°C 84% 7.0 mph WSW11.3 kmh WSW 10.0 mph16.1 kmh 29.89 in1012.2 mb 0.00 in0.0 mm 0.00 in0.0 mm 0.02 in0.5 mm
03:49 AM 82.7°F28.2°C 77.4°F25.2°C 84% 3.0 mph W4.8 kmh W 10.0 mph16.1 kmh 29.89 in1012.2 mb 0.00 in0.0 mm 0.00 in0.0 mm 0.02 in0.5 mm
03:48 AM 82.7°F28.2°C 77.4°F25.2°C 84% 2.0 mph W3.2 kmh W 10.0 mph16.1 kmh 29.89 in1012.2 mb 0.00 in0.0 mm 0.00 in0.0 mm 0.02 in0.5 mm
03:47 AM 82.7°F28.2°C 77.4°F25.2°C 84% 6.0 mph W9.7 kmh W 11.0 mph17.7 kmh 29.89 in1012.2 mb 0.00 in0.0 mm 0.00 in0.0 mm 0.02 in0.5 mm
03:46 AM 82.7°F28.2°C 77.4°F25.2°C 84% 3.0 mph WSW4.8 kmh WSW 11.0 mph17.7 kmh 29.89 in1012.2 mb 0.00 in0.0 mm 0.00 in0.0 mm 0.02 in0.5 mm
03:45 AM 82.7°F28.2°C 77.4°F25.2°C 84% 4.0 mph W6.4 kmh W 11.0 mph17.7 kmh 29.89 in1012.2 mb 0.00 in0.0 mm 0.00 in0.0 mm 0.02 in0.5 mm
03:44 AM 82.7°F28.2°C 77.0°F25.0°C 83% 5.0 mph WNW8.0 kmh WNW 11.0 mph17.7 kmh 29.89 in1012.2 mb 0.00 in0.0 mm 0.00 in0.0 mm 0.02 in0.5 mm
03:43 AM 82.7°F28.2°C 77.4°F25.2°C 84% 4.0 mph W6.4 kmh W 11.0 mph17.7 kmh 29.89 in1012.2 mb 0.00 in0.0 mm 0.00 in0.0 mm 0.02 in0.5 mm
03:42 AM 82.7°F28.2°C 77.4°F25.2°C 84% 4.0 mph WNW6.4 kmh WNW 11.0 mph17.7 kmh 29.89 in1012.2 mb 0.00 in0.0 mm 0.00 in0.0 mm 0.02 in0.5 mm
03:41 AM 82.7°F28.2°C 77.4°F25.2°C 84% 2.0 mph W3.2 kmh W 11.0 mph17.7 kmh 29.88 in1011.9 mb 0.00 in0.0 mm 0.00 in0.0 mm 0.02 in0.5 mm
03:40 AM 82.7°F28.2°C 77.4°F25.2°C 84% 1.0 mph W1.6 kmh W 12.0 mph19.3 kmh 29.89 in1012.2 mb 0.00 in0.0 mm 0.00 in0.0 mm 0.02 in0.5 mm
03:39 AM 82.7°F28.2°C 77.4°F25.2°C 84% 7.0 mph SW11.3 kmh SW 12.0 mph19.3 kmh 29.89 in1012.2 mb 0.00 in0.0 mm 0.00 in0.0 mm 0.02 in0.5 mm
03:38 AM 82.7°F28.2°C 77.4°F25.2°C 84% 11.0 mph SW17.7 kmh SW 13.0 mph20.9 kmh 29.89 in1012.2 mb 0.00 in0.0 mm 0.00 in0.0 mm 0.02 in0.5 mm
03:37 AM 82.7°F28.2°C 77.4°F25.2°C 84% 7.0 mph W11.3 kmh W 13.0 mph20.9 kmh 29.89 in1012.2 mb 0.00 in0.0 mm 0.00 in0.0 mm 0.02 in0.5 mm
03:36 AM 82.7°F28.2°C 77.4°F25.2°C 84% 8.0 mph W12.9 kmh W 13.0 mph20.9 kmh 29.89 in1012.2 mb 0.00 in0.0 mm 0.00 in0.0 mm 0.02 in0.5 mm
03:35 AM 82.7°F28.2°C 77.0°F25.0°C 83% 4.0 mph SW6.4 kmh SW 13.0 mph20.9 kmh 29.89 in1012.2 mb 0.00 in0.0 mm 0.00 in0.0 mm 0.02 in0.5 mm
03:34 AM 82.7°F28.2°C 77.0°F25.0°C 83% 4.0 mph WSW6.4 kmh WSW 13.0 mph20.9 kmh 29.89 in1012.2 mb 0.00 in0.0 mm 0.00 in0.0 mm 0.02 in0.5 mm
03:33 AM 82.7°F28.2°C 77.0°F25.0°C 83% 4.0 mph WSW6.4 kmh WSW 13.0 mph20.9 kmh 29.89 in1012.2 mb 0.00 in0.0 mm 0.00 in0.0 mm 0.02 in0.5 mm
03:32 AM 82.7°F28.2°C 77.0°F25.0°C 83% 9.0 mph W14.5 kmh W 13.0 mph20.9 kmh 29.89 in1012.2 mb 0.00 in0.0 mm 0.00 in0.0 mm 0.02 in0.5 mm
03:31 AM 82.7°F28.2°C 77.4°F25.2°C 84% 3.0 mph WSW4.8 kmh WSW 13.0 mph20.9 kmh 29.89 in1012.2 mb 0.00 in0.0 mm 0.00 in0.0 mm 0.02 in0.5 mm
03:30 AM 82.7°F28.2°C 77.4°F25.2°C 84% 5.0 mph SW8.0 kmh SW 13.0 mph20.9 kmh 29.89 in1012.2 mb 0.00 in0.0 mm 0.00 in0.0 mm 0.02 in0.5 mm
03:29 AM 82.7°F28.2°C 77.4°F25.2°C 84% 5.0 mph SW8.0 kmh SW 12.0 mph19.3 kmh 29.89 in1012.2 mb 0.00 in0.0 mm 0.00 in0.0 mm 0.02 in0.5 mm
03:28 AM 82.7°F28.2°C 77.4°F25.2°C 84% 7.0 mph WSW11.3 kmh WSW 12.0 mph19.3 kmh 29.89 in1012.2 mb 0.00 in0.0 mm 0.00 in0.0 mm 0.02 in0.5 mm
03:27 AM 82.7°F28.2°C 77.4°F25.2°C 84% 8.0 mph WSW12.9 kmh WSW 12.0 mph19.3 kmh 29.89 in1012.2 mb 0.00 in0.0 mm 0.00 in0.0 mm 0.02 in0.5 mm
03:26 AM 82.8°F28.2°C 77.5°F25.3°C 84% 10.0 mph W16.1 kmh W 14.0 mph22.5 kmh 29.89 in1012.2 mb 0.00 in0.0 mm 0.00 in0.0 mm 0.02 in0.5 mm
03:25 AM 82.7°F28.2°C 77.4°F25.2°C 84% 3.0 mph W4.8 kmh W 14.0 mph22.5 kmh 29.89 in1012.2 mb 0.00 in0.0 mm 0.00 in0.0 mm 0.02 in0.5 mm
03:24 AM 82.7°F28.2°C 77.0°F25.0°C 83% 8.0 mph WSW12.9 kmh WSW 14.0 mph22.5 kmh 29.89 in1012.2 mb 0.00 in0.0 mm 0.00 in0.0 mm 0.02 in0.5 mm
03:23 AM 82.7°F28.2°C 77.0°F25.0°C 83% 7.0 mph WSW11.3 kmh WSW 14.0 mph22.5 kmh 29.89 in1012.2 mb 0.00 in0.0 mm 0.00 in0.0 mm 0.02 in0.5 mm
03:22 AM 82.7°F28.2°C 77.4°F25.2°C 84% 8.0 mph WSW12.9 kmh WSW 14.0 mph22.5 kmh 29.89 in1012.2 mb 0.00 in0.0 mm 0.00 in0.0 mm 0.02 in0.5 mm
03:21 AM 82.7°F28.2°C 77.4°F25.2°C 84% 9.0 mph WSW14.5 kmh WSW 14.0 mph22.5 kmh 29.89 in1012.2 mb 0.00 in0.0 mm 0.00 in0.0 mm 0.02 in0.5 mm
03:20 AM 82.6°F28.1°C 77.3°F25.2°C 84% 8.0 mph W12.9 kmh W 14.0 mph22.5 kmh 29.89 in1012.2 mb 0.00 in0.0 mm 0.00 in0.0 mm 0.02 in0.5 mm
03:19 AM 82.6°F28.1°C 77.3°F25.2°C 84% 12.0 mph WSW19.3 kmh WSW 14.0 mph22.5 kmh 29.89 in1012.2 mb 0.00 in0.0 mm 0.00 in0.0 mm 0.02 in0.5 mm
03:18 AM 82.6°F28.1°C 77.3°F25.2°C 84% 6.0 mph WSW9.7 kmh WSW 14.0 mph22.5 kmh 29.89 in1012.2 mb 0.00 in0.0 mm 0.00 in0.0 mm 0.02 in0.5 mm
03:17 AM 82.7°F28.2°C 77.4°F25.2°C 84% 4.0 mph WSW6.4 kmh WSW 14.0 mph22.5 kmh 29.89 in1012.2 mb 0.00 in0.0 mm 0.00 in0.0 mm 0.02 in0.5 mm
03:16 AM 82.7°F28.2°C 77.4°F25.2°C 84% 8.0 mph SW12.9 kmh SW 14.0 mph22.5 kmh 29.89 in1012.2 mb 0.00 in0.0 mm 0.00 in0.0 mm 0.02 in0.5 mm
03:15 AM 82.7°F28.2°C 77.4°F25.2°C 84% 7.0 mph SW11.3 kmh SW 14.0 mph22.5 kmh 29.89 in1012.2 mb 0.00 in0.0 mm 0.00 in0.0 mm 0.02 in0.5 mm
03:14 AM 82.7°F28.2°C 77.4°F25.2°C 84% 9.0 mph SW14.5 kmh SW 14.0 mph22.5 kmh 29.89 in1012.2 mb 0.00 in0.0 mm 0.00 in0.0 mm 0.02 in0.5 mm
03:13 AM 82.6°F28.1°C 77.3°F25.2°C 84% 8.0 mph SW12.9 kmh SW 14.0 mph22.5 kmh 29.89 in1012.2 mb 0.00 in0.0 mm 0.00 in0.0 mm 0.02 in0.5 mm
03:12 AM 82.6°F28.1°C 77.3°F25.2°C 84% 6.0 mph WSW9.7 kmh WSW 14.0 mph22.5 kmh 29.89 in1012.2 mb 0.00 in0.0 mm 0.00 in0.0 mm 0.02 in0.5 mm
03:11 AM 82.6°F28.1°C 77.3°F25.2°C 84% 9.0 mph WSW14.5 kmh WSW 13.0 mph20.9 kmh 29.89 in1012.2 mb 0.00 in0.0 mm 0.00 in0.0 mm 0.02 in0.5 mm
03:10 AM 82.6°F28.1°C 77.3°F25.2°C 84% 2.0 mph W3.2 kmh W 13.0 mph20.9 kmh 29.89 in1012.2 mb 0.00 in0.0 mm 0.00 in0.0 mm 0.02 in0.5 mm
03:09 AM 82.6°F28.1°C 77.3°F25.2°C 84% 10.0 mph WSW16.1 kmh WSW 13.0 mph20.9 kmh 29.89 in1012.2 mb 0.00 in0.0 mm 0.00 in0.0 mm 0.02 in0.5 mm
03:08 AM 82.6°F28.1°C 77.3°F25.2°C 84% 7.0 mph WSW11.3 kmh WSW 13.0 mph20.9 kmh 29.89 in1012.2 mb 0.00 in0.0 mm 0.00 in0.0 mm 0.02 in0.5 mm
03:07 AM 82.6°F28.1°C 77.3°F25.2°C 84% 8.0 mph WSW12.9 kmh WSW 13.0 mph20.9 kmh 29.89 in1012.2 mb 0.00 in0.0 mm 0.00 in0.0 mm 0.02 in0.5 mm
03:06 AM 82.5°F28.1°C 77.2°F25.1°C 84% 9.0 mph WSW14.5 kmh WSW 13.0 mph20.9 kmh 29.89 in1012.2 mb 0.00 in0.0 mm 0.00 in0.0 mm 0.02 in0.5 mm
03:05 AM 82.5°F28.1°C 77.2°F25.1°C 84% 9.0 mph WSW14.5 kmh WSW 13.0 mph20.9 kmh 29.89 in1012.2 mb 0.00 in0.0 mm 0.00 in0.0 mm 0.02 in0.5 mm
03:04 AM 82.5°F28.1°C 77.2°F25.1°C 84% 9.0 mph WSW14.5 kmh WSW 13.0 mph20.9 kmh 29.89 in1012.2 mb 0.00 in0.0 mm 0.00 in0.0 mm 0.02 in0.5 mm
03:03 AM 82.5°F28.1°C 77.2°F25.1°C 84% 10.0 mph WSW16.1 kmh WSW 13.0 mph20.9 kmh 29.89 in1012.2 mb 0.00 in0.0 mm 0.00 in0.0 mm 0.02 in0.5 mm
03:02 AM 82.5°F28.1°C 77.2°F25.1°C 84% 3.0 mph WSW4.8 kmh WSW 13.0 mph20.9 kmh 29.89 in1012.2 mb 0.00 in0.0 mm 0.00 in0.0 mm 0.02 in0.5 mm
03:01 AM 82.5°F28.1°C 77.2°F25.1°C 84% 12.0 mph WSW19.3 kmh WSW 13.0 mph20.9 kmh 29.89 in1012.2 mb 0.00 in0.0 mm 0.00 in0.0 mm 0.02 in0.5 mm
03:00 AM 82.5°F28.1°C 77.2°F25.1°C 84% 8.0 mph WSW12.9 kmh WSW 13.0 mph20.9 kmh 29.89 in1012.2 mb 0.00 in0.0 mm 0.00 in0.0 mm 0.02 in0.5 mm
02:59 AM 82.5°F28.1°C 77.2°F25.1°C 84% 8.0 mph WSW12.9 kmh WSW 13.0 mph20.9 kmh 29.89 in1012.2 mb 0.00 in0.0 mm 0.00 in0.0 mm 0.02 in0.5 mm
02:58 AM 82.5°F28.1°C 77.2°F25.1°C 84% 3.0 mph W4.8 kmh W 13.0 mph20.9 kmh 29.89 in1012.2 mb 0.00 in0.0 mm 0.00 in0.0 mm 0.02 in0.5 mm
02:57 AM 82.5°F28.1°C 77.2°F25.1°C 84% 10.0 mph WSW16.1 kmh WSW 13.0 mph20.9 kmh 29.89 in1012.2 mb 0.00 in0.0 mm 0.00 in0.0 mm 0.02 in0.5 mm
02:56 AM 82.5°F28.1°C 77.2°F25.1°C 84% 8.0 mph SW12.9 kmh SW 13.0 mph20.9 kmh 29.89 in1012.2 mb 0.00 in0.0 mm 0.00 in0.0 mm 0.02 in0.5 mm
02:55 AM 82.5°F28.1°C 77.2°F25.1°C 84% 8.0 mph WSW12.9 kmh WSW 13.0 mph20.9 kmh 29.89 in1012.2 mb 0.00 in0.0 mm 0.00 in0.0 mm 0.02 in0.5 mm
02:54 AM 82.4°F28.0°C 77.1°F25.1°C 84% 10.0 mph WSW16.1 kmh WSW 12.0 mph19.3 kmh 29.89 in1012.2 mb 0.00 in0.0 mm 0.00 in0.0 mm 0.02 in0.5 mm
02:53 AM 82.4°F28.0°C 77.1°F25.1°C 84% 4.0 mph WSW6.4 kmh WSW 12.0 mph19.3 kmh 29.89 in1012.2 mb 0.00 in0.0 mm 0.00 in0.0 mm 0.02 in0.5 mm
02:52 AM 82.4°F28.0°C 77.1°F25.1°C 84% 8.0 mph WSW12.9 kmh WSW 12.0 mph19.3 kmh 29.89 in1012.2 mb 0.00 in0.0 mm 0.00 in0.0 mm 0.02 in0.5 mm
02:51 AM 82.3°F27.9°C 77.0°F25.0°C 84% 8.0 mph W12.9 kmh W 13.0 mph20.9 kmh 29.89 in1012.2 mb 0.00 in0.0 mm 0.00 in0.0 mm 0.02 in0.5 mm
02:50 AM 82.2°F27.9°C 76.9°F24.9°C 84% 11.0 mph WSW17.7 kmh WSW 13.0 mph20.9 kmh 29.89 in1012.2 mb 0.00 in0.0 mm 0.00 in0.0 mm 0.02 in0.5 mm
02:49 AM 82.2°F27.9°C 76.9°F24.9°C 84% 9.0 mph W14.5 kmh W 13.0 mph20.9 kmh 29.89 in1012.2 mb 0.00 in0.0 mm 0.00 in0.0 mm 0.02 in0.5 mm
02:48 AM 82.2°F27.9°C 76.9°F24.9°C 84% 11.0 mph WSW17.7 kmh WSW 13.0 mph20.9 kmh 29.89 in1012.2 mb 0.00 in0.0 mm 0.00 in0.0 mm 0.02 in0.5 mm
02:47 AM 82.2°F27.9°C 76.9°F24.9°C 84% 1.0 mph WSW1.6 kmh WSW 13.0 mph20.9 kmh 29.89 in1012.2 mb 0.00 in0.0 mm 0.00 in0.0 mm 0.02 in0.5 mm
02:46 AM 82.2°F27.9°C 76.9°F24.9°C 84% 8.0 mph WSW12.9 kmh WSW 13.0 mph20.9 kmh 29.89 in1012.2 mb 0.00 in0.0 mm 0.00 in0.0 mm 0.02 in0.5 mm
02:45 AM 82.2°F27.9°C 76.9°F24.9°C 84% 7.0 mph WSW11.3 kmh WSW 13.0 mph20.9 kmh 29.89 in1012.2 mb 0.00 in0.0 mm 0.00 in0.0 mm 0.02 in0.5 mm
02:44 AM 82.1°F27.8°C 77.1°F25.1°C 85% 8.0 mph WSW12.9 kmh WSW 13.0 mph20.9 kmh 29.89 in1012.2 mb 0.00 in0.0 mm 0.00 in0.0 mm 0.02 in0.5 mm
02:43 AM 82.1°F27.8°C 77.1°F25.1°C 85% 4.0 mph WSW6.4 kmh WSW 13.0 mph20.9 kmh 29.89 in1012.2 mb 0.00 in0.0 mm 0.00 in0.0 mm 0.02 in0.5 mm
02:42 AM 82.1°F27.8°C 77.1°F25.1°C 85% 6.0 mph SW9.7 kmh SW 13.0 mph20.9 kmh 29.89 in1012.2 mb 0.00 in0.0 mm 0.00 in0.0 mm 0.02 in0.5 mm
02:41 AM 82.1°F27.8°C 77.1°F25.1°C 85% 6.0 mph SW9.7 kmh SW 13.0 mph20.9 kmh 29.89 in1012.2 mb 0.00 in0.0 mm 0.00 in0.0 mm 0.02 in0.5 mm
02:40 AM 82.1°F27.8°C 77.1°F25.1°C 85% 8.0 mph SW12.9 kmh SW 12.0 mph19.3 kmh 29.89 in1012.2 mb 0.00 in0.0 mm 0.00 in0.0 mm 0.02 in0.5 mm
02:39 AM 82.0°F27.8°C 77.0°F25.0°C 85% 7.0 mph WSW11.3 kmh WSW 12.0 mph19.3 kmh 29.90 in1012.5 mb 0.00 in0.0 mm 0.00 in0.0 mm 0.02 in0.5 mm
02:38 AM 82.0°F27.8°C 77.0°F25.0°C 85% 7.0 mph SW11.3 kmh SW 12.0 mph19.3 kmh 29.90 in1012.5 mb 0.00 in0.0 mm 0.00 in0.0 mm 0.02 in0.5 mm
02:37 AM 82.1°F27.8°C 77.1°F25.1°C 85% 5.0 mph NW8.0 kmh NW 12.0 mph19.3 kmh 29.90 in1012.5 mb 0.00 in0.0 mm 0.00 in0.0 mm 0.02 in0.5 mm
02:36 AM 82.1°F27.8°C 77.5°F25.3°C 86% 7.0 mph WNW11.3 kmh WNW 12.0 mph19.3 kmh 29.90 in1012.5 mb 0.00 in0.0 mm 0.00 in0.0 mm 0.02 in0.5 mm
02:35 AM 82.1°F27.8°C 77.5°F25.3°C 86% 4.0 mph WSW6.4 kmh WSW 11.0 mph17.7 kmh 29.90 in1012.5 mb 0.00 in0.0 mm 0.00 in0.0 mm 0.02 in0.5 mm
02:34 AM 82.1°F27.8°C 77.1°F25.1°C 85% 2.0 mph W3.2 kmh W 11.0 mph17.7 kmh 29.89 in1012.2 mb 0.00 in0.0 mm 0.00 in0.0 mm 0.02 in0.5 mm
02:33 AM 82.0°F27.8°C 77.0°F25.0°C 85% 3.0 mph WSW4.8 kmh WSW 11.0 mph17.7 kmh 29.90 in1012.5 mb 0.00 in0.0 mm 0.00 in0.0 mm 0.02 in0.5 mm
02:32 AM 82.1°F27.8°C 77.5°F25.3°C 86% 5.0 mph WNW8.0 kmh WNW 11.0 mph17.7 kmh 29.89 in1012.2 mb 0.00 in0.0 mm 0.00 in0.0 mm 0.02 in0.5 mm
02:31 AM 82.1°F27.8°C 77.5°F25.3°C 86% 3.0 mph WSW4.8 kmh WSW 11.0 mph17.7 kmh 29.89 in1012.2 mb 0.00 in0.0 mm 0.00 in0.0 mm 0.02 in0.5 mm
02:30 AM 82.0°F27.8°C 77.4°F25.2°C 86% 3.0 mph WSW4.8 kmh WSW 11.0 mph17.7 kmh 29.89 in1012.2 mb 0.00 in0.0 mm 0.00 in0.0 mm 0.02 in0.5 mm
02:29 AM 82.0°F27.8°C 77.4°F25.2°C 86% 7.0 mph W11.3 kmh W 11.0 mph17.7 kmh 29.89 in1012.2 mb 0.00 in0.0 mm 0.00 in0.0 mm 0.02 in0.5 mm
02:28 AM 82.0°F27.8°C 77.4°F25.2°C 86% 3.0 mph WNW4.8 kmh WNW 11.0 mph17.7 kmh 29.89 in1012.2 mb 0.00 in0.0 mm 0.00 in0.0 mm 0.02 in0.5 mm
02:27 AM 82.1°F27.8°C 77.5°F25.3°C 86% 7.0 mph W11.3 kmh W 11.0 mph17.7 kmh 29.90 in1012.5 mb 0.04 in1.0 mm 0.00 in0.0 mm 0.02 in0.5 mm
02:26 AM 82.1°F27.8°C 77.5°F25.3°C 86% 7.0 mph WSW11.3 kmh WSW 10.0 mph16.1 kmh 29.90 in1012.5 mb 0.04 in1.0 mm 0.00 in0.0 mm 0.02 in0.5 mm
02:25 AM 82.1°F27.8°C 77.5°F25.3°C 86% 8.0 mph W12.9 kmh W 9.0 mph14.5 kmh 29.90 in1012.5 mb 0.04 in1.0 mm 0.00 in0.0 mm 0.02 in0.5 mm
02:24 AM 82.2°F27.9°C 77.6°F25.3°C 86% 9.0 mph WSW14.5 kmh WSW 9.0 mph14.5 kmh 29.90 in1012.5 mb 0.04 in1.0 mm 0.00 in0.0 mm 0.02 in0.5 mm
02:23 AM 82.3°F27.9°C 77.7°F25.4°C 86% 8.0 mph WSW12.9 kmh WSW 8.0 mph12.9 kmh 29.90 in1012.5 mb 0.05 in1.3 mm 0.00 in0.0 mm 0.02 in0.5 mm
02:22 AM 82.3°F27.9°C 77.7°F25.4°C 86% 4.0 mph WSW6.4 kmh WSW 8.0 mph12.9 kmh 29.90 in1012.5 mb 0.05 in1.3 mm 0.00 in0.0 mm 0.02 in0.5 mm
02:21 AM 82.4°F28.0°C 77.8°F25.4°C 86% 3.0 mph WSW4.8 kmh WSW 9.0 mph14.5 kmh 29.90 in1012.5 mb 0.06 in1.5 mm 0.00 in0.0 mm 0.02 in0.5 mm
02:20 AM 82.4°F28.0°C 77.8°F25.4°C 86% 7.0 mph WNW11.3 kmh WNW 9.0 mph14.5 kmh 29.90 in1012.5 mb 0.06 in1.5 mm 0.00 in0.0 mm 0.02 in0.5 mm
02:19 AM 82.5°F28.1°C 77.9°F25.5°C 86% Calm Calm 9.0 mph14.5 kmh 29.90 in1012.5 mb 0.07 in1.8 mm 0.00 in0.0 mm 0.02 in0.5 mm
02:18 AM 82.5°F28.1°C 77.5°F25.3°C 85% 5.0 mph WNW8.0 kmh WNW 9.0 mph14.5 kmh 29.90 in1012.5 mb 0.08 in2.0 mm 0.00 in0.0 mm 0.02 in0.5 mm
02:17 AM 82.6°F28.1°C 77.6°F25.3°C 85% 2.0 mph W3.2 kmh W 9.0 mph14.5 kmh 29.90 in1012.5 mb 0.09 in2.3 mm 0.00 in0.0 mm 0.02 in0.5 mm
02:16 AM 82.7°F28.2°C 77.7°F25.4°C 85% 8.0 mph W12.9 kmh W 9.0 mph14.5 kmh 29.90 in1012.5 mb 0.11 in2.8 mm 0.00 in0.0 mm 0.02 in0.5 mm
02:15 AM 82.8°F28.2°C 77.8°F25.4°C 85% 7.0 mph WSW11.3 kmh WSW 9.0 mph14.5 kmh 29.90 in1012.5 mb 0.13 in3.3 mm 0.00 in0.0 mm 0.02 in0.5 mm
02:14 AM 83.0°F28.3°C 77.7°F25.4°C 84% 3.0 mph WSW4.8 kmh WSW 9.0 mph14.5 kmh 29.90 in1012.5 mb 0.16 in4.1 mm 0.00 in0.0 mm 0.02 in0.5 mm
02:13 AM 83.1°F28.4°C 77.7°F25.4°C 84% 3.0 mph WSW4.8 kmh WSW 12.0 mph19.3 kmh 29.90 in1012.5 mb 0.23 in5.8 mm 0.00 in0.0 mm 0.02 in0.5 mm
02:12 AM 83.2°F28.4°C 78.2°F25.7°C 85% 5.0 mph WSW8.0 kmh WSW 12.0 mph19.3 kmh 29.90 in1012.5 mb 0.37 in9.4 mm 0.00 in0.0 mm 0.02 in0.5 mm
02:11 AM 83.2°F28.4°C 77.8°F25.4°C 84% Calm Calm 12.0 mph19.3 kmh 29.90 in1012.5 mb 0.94 in23.9 mm 56.40 in1432.6 mm 0.02 in0.5 mm
02:10 AM 83.1°F28.4°C 77.7°F25.4°C 84% Calm Calm 12.0 mph19.3 kmh 29.90 in1012.5 mb 0.00 in0.0 mm 0.00 in0.0 mm 0.00 in0.0 mm
02:09 AM 83.1°F28.4°C 77.4°F25.2°C 83% 4.0 mph WSW6.4 kmh WSW 12.0 mph19.3 kmh 29.90 in1012.5 mb 0.00 in0.0 mm 0.00 in0.0 mm 0.00 in0.0 mm
02:08 AM 83.1°F28.4°C 77.4°F25.2°C 83% 1.0 mph WSW1.6 kmh WSW 12.0 mph19.3 kmh 29.90 in1012.5 mb 0.00 in0.0 mm 0.00 in0.0 mm 0.00 in0.0 mm
02:07 AM 83.2°F28.4°C 77.8°F25.4°C 84% 8.0 mph SW12.9 kmh SW 12.0 mph19.3 kmh 29.90 in1012.5 mb 0.00 in0.0 mm 0.00 in0.0 mm 0.00 in0.0 mm
02:06 AM 83.2°F28.4°C 77.8°F25.4°C 84% 9.0 mph WSW14.5 kmh WSW 12.0 mph19.3 kmh 29.90 in1012.5 mb 0.00 in0.0 mm 0.00 in0.0 mm 0.00 in0.0 mm
02:05 AM 83.1°F28.4°C 77.7°F25.4°C 84% 8.0 mph WSW12.9 kmh WSW 12.0 mph19.3 kmh 29.90 in1012.5 mb 0.00 in0.0 mm 0.00 in0.0 mm 0.00 in0.0 mm
02:04 AM 83.1°F28.4°C 77.7°F25.4°C 84% 4.0 mph WSW6.4 kmh WSW 11.0 mph17.7 kmh 29.90 in1012.5 mb 0.00 in0.0 mm 0.00 in0.0 mm 0.00 in0.0 mm
02:03 AM 83.0°F28.3°C 77.3°F25.2°C 83% 8.0 mph WSW12.9 kmh WSW 11.0 mph17.7 kmh 29.90 in1012.5 mb 0.00 in0.0 mm 0.00 in0.0 mm 0.00 in0.0 mm
02:02 AM 83.0°F28.3°C 77.7°F25.4°C 84% 6.0 mph SW9.7 kmh SW 11.0 mph17.7 kmh 29.90 in1012.5 mb 0.00 in0.0 mm 0.00 in0.0 mm 0.00 in0.0 mm
02:01 AM 83.1°F28.4°C 77.7°F25.4°C 84% 9.0 mph WSW14.5 kmh WSW 11.0 mph17.7 kmh 29.90 in1012.5 mb 0.00 in0.0 mm 0.00 in0.0 mm 0.00 in0.0 mm
02:00 AM 83.1°F28.4°C 77.7°F25.4°C 84% 8.0 mph WSW12.9 kmh WSW 11.0 mph17.7 kmh 29.90 in1012.5 mb 0.00 in0.0 mm 0.00 in0.0 mm 0.00 in0.0 mm
01:59 AM 83.1°F28.4°C 77.7°F25.4°C 84% 4.0 mph WSW6.4 kmh WSW 11.0 mph17.7 kmh 29.90 in1012.5 mb 0.00 in0.0 mm 0.00 in0.0 mm 0.00 in0.0 mm
01:58 AM 83.1°F28.4°C 77.7°F25.4°C 84% 3.0 mph SW4.8 kmh SW 11.0 mph17.7 kmh 29.90 in1012.5 mb 0.00 in0.0 mm 0.00 in0.0 mm 0.00 in0.0 mm
01:57 AM 83.2°F28.4°C 77.8°F25.4°C 84% 7.0 mph SW11.3 kmh SW 11.0 mph17.7 kmh 29.90 in1012.5 mb 0.00 in0.0 mm 0.00 in0.0 mm 0.00 in0.0 mm
01:56 AM 83.2°F28.4°C 77.8°F25.4°C 84% 3.0 mph SW4.8 kmh SW 11.0 mph17.7 kmh 29.90 in1012.5 mb 0.00 in0.0 mm 0.00 in0.0 mm 0.00 in0.0 mm
01:55 AM 83.2°F28.4°C 77.8°F25.4°C 84% 7.0 mph WSW11.3 kmh WSW 11.0 mph17.7 kmh 29.90 in1012.5 mb 0.00 in0.0 mm 0.00 in0.0 mm 0.00 in0.0 mm
01:54 AM 83.2°F28.4°C 77.8°F25.4°C 84% 3.0 mph WSW4.8 kmh WSW 11.0 mph17.7 kmh 29.90 in1012.5 mb 0.00 in0.0 mm 0.00 in0.0 mm 0.00 in0.0 mm
01:53 AM 83.1°F28.4°C 77.7°F25.4°C 84% 6.0 mph W9.7 kmh W 11.0 mph17.7 kmh 29.90 in1012.5 mb 0.00 in0.0 mm 0.00 in0.0 mm 0.00 in0.0 mm
01:52 AM 83.1°F28.4°C 77.7°F25.4°C 84% 11.0 mph WSW17.7 kmh WSW 11.0 mph17.7 kmh 29.90 in1012.5 mb 0.00 in0.0 mm 0.00 in0.0 mm 0.00 in0.0 mm
01:51 AM 83.0°F28.3°C 77.3°F25.2°C 83% 8.0 mph SW12.9 kmh SW 11.0 mph17.7 kmh 29.90 in1012.5 mb 0.00 in0.0 mm 0.00 in0.0 mm 0.00 in0.0 mm
01:50 AM 83.0°F28.3°C 77.3°F25.2°C 83% 7.0 mph WSW11.3 kmh WSW 11.0 mph17.7 kmh 29.90 in1012.5 mb 0.00 in0.0 mm 0.00 in0.0 mm 0.00 in0.0 mm
01:49 AM 83.0°F28.3°C 77.3°F25.2°C 83% 5.0 mph WSW8.0 kmh WSW 11.0 mph17.7 kmh 29.90 in1012.5 mb 0.00 in0.0 mm 0.00 in0.0 mm 0.00 in0.0 mm
01:48 AM 82.9°F28.3°C 77.2°F25.1°C 83% 6.0 mph W9.7 kmh W 11.0 mph17.7 kmh 29.90 in1012.5 mb 0.00 in0.0 mm 0.00 in0.0 mm 0.00 in0.0 mm
01:47 AM 83.0°F28.3°C 77.3°F25.2°C 83% 7.0 mph WSW11.3 kmh WSW 11.0 mph17.7 kmh 29.90 in1012.5 mb 0.00 in0.0 mm 0.00 in0.0 mm 0.00 in0.0 mm
01:46 AM 82.9°F28.3°C 77.2°F25.1°C 83% 4.0 mph SW6.4 kmh SW 11.0 mph17.7 kmh 29.90 in1012.5 mb 0.00 in0.0 mm 0.00 in0.0 mm 0.00 in0.0 mm
01:45 AM 82.9°F28.3°C 77.2°F25.1°C 83% 1.0 mph WSW1.6 kmh WSW 11.0 mph17.7 kmh 29.90 in1012.5 mb 0.00 in0.0 mm 0.00 in0.0 mm 0.00 in0.0 mm
01:44 AM 82.9°F28.3°C 77.6°F25.3°C 84% 3.0 mph W4.8 kmh W 11.0 mph17.7 kmh 29.90 in1012.5 mb 0.00 in0.0 mm 0.00 in0.0 mm 0.00 in0.0 mm
01:43 AM 82.9°F28.3°C 77.2°F25.1°C 83% 11.0 mph W17.7 kmh W 11.0 mph17.7 kmh 29.90 in1012.5 mb 0.00 in0.0 mm 0.00 in0.0 mm 0.00 in0.0 mm
01:42 AM 82.9°F28.3°C 77.2°F25.1°C 83% 2.0 mph WSW3.2 kmh WSW 10.0 mph16.1 kmh 29.90 in1012.5 mb 0.00 in0.0 mm 0.00 in0.0 mm 0.00 in0.0 mm
01:41 AM 82.9°F28.3°C 77.2°F25.1°C 83% 7.0 mph WSW11.3 kmh WSW 10.0 mph16.1 kmh 29.90 in1012.5 mb 0.00 in0.0 mm 0.00 in0.0 mm 0.00 in0.0 mm
01:40 AM 82.9°F28.3°C 77.2°F25.1°C 83% 6.0 mph SW9.7 kmh SW 10.0 mph16.1 kmh 29.90 in1012.5 mb 0.00 in0.0 mm 0.00 in0.0 mm 0.00 in0.0 mm
01:39 AM 83.0°F28.3°C 77.3°F25.2°C 83% 8.0 mph WSW12.9 kmh WSW 12.0 mph19.3 kmh 29.90 in1012.5 mb 0.00 in0.0 mm 0.00 in0.0 mm 0.00 in0.0 mm
01:38 AM 82.9°F28.3°C 77.2°F25.1°C 83% 4.0 mph WSW6.4 kmh WSW 12.0 mph19.3 kmh 29.90 in1012.5 mb 0.00 in0.0 mm 0.00 in0.0 mm 0.00 in0.0 mm
01:37 AM 82.9°F28.3°C 77.2°F25.1°C 83% 4.0 mph WSW6.4 kmh WSW 12.0 mph19.3 kmh 29.90 in1012.5 mb 0.00 in0.0 mm 0.00 in0.0 mm 0.00 in0.0 mm
01:36 AM 82.9°F28.3°C 77.2°F25.1°C 83% 6.0 mph WSW9.7 kmh WSW 13.0 mph20.9 kmh 29.89 in1012.2 mb 0.00 in0.0 mm 0.00 in0.0 mm 0.00 in0.0 mm
01:35 AM 82.9°F28.3°C 77.2°F25.1°C 83% 7.0 mph SW11.3 kmh SW 13.0 mph20.9 kmh 29.90 in1012.5 mb 0.00 in0.0 mm 0.00 in0.0 mm 0.00 in0.0 mm
01:34 AM 82.9°F28.3°C 77.2°F25.1°C 83% 6.0 mph SW9.7 kmh SW 13.0 mph20.9 kmh 29.90 in1012.5 mb 0.00 in0.0 mm 0.00 in0.0 mm 0.00 in0.0 mm
01:33 AM 82.9°F28.3°C 77.2°F25.1°C 83% 4.0 mph WSW6.4 kmh WSW 13.0 mph20.9 kmh 29.90 in1012.5 mb 0.00 in0.0 mm 0.00 in0.0 mm 0.00 in0.0 mm
01:32 AM 82.9°F28.3°C 77.2°F25.1°C 83% 1.0 mph SW1.6 kmh SW 13.0 mph20.9 kmh 29.90 in1012.5 mb 0.00 in0.0 mm 0.00 in0.0 mm 0.00 in0.0 mm
01:31 AM 82.9°F28.3°C 77.2°F25.1°C 83% 5.0 mph SW8.0 kmh SW 13.0 mph20.9 kmh 29.90 in1012.5 mb 0.00 in0.0 mm 0.00 in0.0 mm 0.00 in0.0 mm
01:30 AM 82.9°F28.3°C 77.2°F25.1°C 83% 3.0 mph SW4.8 kmh SW 13.0 mph20.9 kmh 29.90 in1012.5 mb 0.00 in0.0 mm 0.00 in0.0 mm 0.00 in0.0 mm
01:29 AM 82.9°F28.3°C 77.2°F25.1°C 83% 10.0 mph WSW16.1 kmh WSW 13.0 mph20.9 kmh 29.90 in1012.5 mb 0.00 in0.0 mm 0.00 in0.0 mm 0.00 in0.0 mm
01:28 AM 82.9°F28.3°C 77.2°F25.1°C 83% 10.0 mph WSW16.1 kmh WSW 13.0 mph20.9 kmh 29.90 in1012.5 mb 0.00 in0.0 mm 0.00 in0.0 mm 0.00 in0.0 mm
01:27 AM 82.9°F28.3°C 76.8°F24.9°C 82% 11.0 mph WSW17.7 kmh WSW 12.0 mph19.3 kmh 29.90 in1012.5 mb 0.00 in0.0 mm 0.00 in0.0 mm 0.00 in0.0 mm
01:26 AM 82.9°F28.3°C 76.8°F24.9°C 82% 9.0 mph W14.5 kmh W 12.0 mph19.3 kmh 29.90 in1012.5 mb 0.00 in0.0 mm 0.00 in0.0 mm 0.00 in0.0 mm
01:25 AM 82.9°F28.3°C 77.2°F25.1°C 83% 8.0 mph WSW12.9 kmh WSW 12.0 mph19.3 kmh 29.90 in1012.5 mb 0.00 in0.0 mm 0.00 in0.0 mm 0.00 in0.0 mm
01:24 AM 82.9°F28.3°C 76.8°F24.9°C 82% 7.0 mph WSW11.3 kmh WSW 12.0 mph19.3 kmh 29.90 in1012.5 mb 0.00 in0.0 mm 0.00 in0.0 mm 0.00 in0.0 mm
01:23 AM 82.9°F28.3°C 76.8°F24.9°C 82% 3.0 mph SW4.8 kmh SW 12.0 mph19.3 kmh 29.90 in1012.5 mb 0.00 in0.0 mm 0.00 in0.0 mm 0.00 in0.0 mm
01:22 AM 82.9°F28.3°C 76.8°F24.9°C 82% 7.0 mph SW11.3 kmh SW 11.0 mph17.7 kmh 29.90 in1012.5 mb 0.00 in0.0 mm 0.00 in0.0 mm 0.00 in0.0 mm
01:21 AM 82.9°F28.3°C 76.8°F24.9°C 82% 10.0 mph WSW16.1 kmh WSW 11.0 mph17.7 kmh 29.90 in1012.5 mb 0.00 in0.0 mm 0.00 in0.0 mm 0.00 in0.0 mm
01:20 AM 82.9°F28.3°C 76.8°F24.9°C 82% 8.0 mph SSW12.9 kmh SSW 12.0 mph19.3 kmh 29.90 in1012.5 mb 0.00 in0.0 mm 0.00 in0.0 mm 0.00 in0.0 mm
01:19 AM 83.0°F28.3°C 76.9°F24.9°C 82% 7.0 mph WSW11.3 kmh WSW 12.0 mph19.3 kmh 29.90 in1012.5 mb 0.00 in0.0 mm 0.00 in0.0 mm 0.00 in0.0 mm
01:18 AM 82.9°F28.3°C 76.8°F24.9°C 82% 7.0 mph WSW11.3 kmh WSW 12.0 mph19.3 kmh 29.90 in1012.5 mb 0.00 in0.0 mm 0.00 in0.0 mm 0.00 in0.0 mm
01:17 AM 82.9°F28.3°C 76.8°F24.9°C 82% 8.0 mph SW12.9 kmh SW 12.0 mph19.3 kmh 29.90 in1012.5 mb 0.00 in0.0 mm 0.00 in0.0 mm 0.00 in0.0 mm
01:16 AM 82.9°F28.3°C 76.8°F24.9°C 82% 1.0 mph SW1.6 kmh SW 12.0 mph19.3 kmh 29.90 in1012.5 mb 0.00 in0.0 mm 0.00 in0.0 mm 0.00 in0.0 mm
01:15 AM 82.9°F28.3°C 76.8°F24.9°C 82% 7.0 mph WSW11.3 kmh WSW 14.0 mph22.5 kmh 29.90 in1012.5 mb 0.00 in0.0 mm 0.00 in0.0 mm 0.00 in0.0 mm
01:14 AM 82.9°F28.3°C 76.8°F24.9°C 82% 8.0 mph WSW12.9 kmh WSW 14.0 mph22.5 kmh 29.90 in1012.5 mb 0.00 in0.0 mm 0.00 in0.0 mm 0.00 in0.0 mm
01:13 AM 82.9°F28.3°C 76.8°F24.9°C 82% 9.0 mph WSW14.5 kmh WSW 14.0 mph22.5 kmh 29.90 in1012.5 mb 0.00 in0.0 mm 0.00 in0.0 mm 0.00 in0.0 mm
01:12 AM 83.0°F28.3°C 76.9°F24.9°C 82% 7.0 mph W11.3 kmh W 14.0 mph22.5 kmh 29.90 in1012.5 mb 0.00 in0.0 mm 0.00 in0.0 mm 0.00 in0.0 mm
01:11 AM 83.0°F28.3°C 76.9°F24.9°C 82% 12.0 mph WSW19.3 kmh WSW 14.0 mph22.5 kmh 29.90 in1012.5 mb 0.00 in0.0 mm 0.00 in0.0 mm 0.00 in0.0 mm
01:10 AM 82.9°F28.3°C 76.8°F24.9°C 82% 10.0 mph SW16.1 kmh SW 14.0 mph22.5 kmh 29.90 in1012.5 mb 0.00 in0.0 mm 0.00 in0.0 mm 0.00 in0.0 mm
01:09 AM 82.9°F28.3°C 76.8°F24.9°C 82% 5.0 mph SW8.0 kmh SW 14.0 mph22.5 kmh 29.90 in1012.5 mb 0.00 in0.0 mm 0.00 in0.0 mm 0.00 in0.0 mm
01:08 AM 83.0°F28.3°C 76.9°F24.9°C 82% 5.0 mph SW8.0 kmh SW 14.0 mph22.5 kmh 29.90 in1012.5 mb 0.00 in0.0 mm 0.00 in0.0 mm 0.00 in0.0 mm
01:07 AM 83.0°F28.3°C 76.9°F24.9°C 82% 9.0 mph WSW14.5 kmh WSW 14.0 mph22.5 kmh 29.90 in1012.5 mb 0.00 in0.0 mm 0.00 in0.0 mm 0.00 in0.0 mm
01:06 AM 83.0°F28.3°C 76.9°F24.9°C 82% 11.0 mph SW17.7 kmh SW 14.0 mph22.5 kmh 29.90 in1012.5 mb 0.00 in0.0 mm 0.00 in0.0 mm 0.00 in0.0 mm
01:05 AM 82.9°F28.3°C 76.8°F24.9°C 82% 9.0 mph WSW14.5 kmh WSW 14.0 mph22.5 kmh 29.90 in1012.5 mb 0.00 in0.0 mm 0.00 in0.0 mm 0.00 in0.0 mm
01:04 AM 82.9°F28.3°C 76.8°F24.9°C 82% 11.0 mph WSW17.7 kmh WSW 14.0 mph22.5 kmh 29.90 in1012.5 mb 0.00 in0.0 mm 0.00 in0.0 mm 0.00 in0.0 mm
01:03 AM 82.9°F28.3°C 76.8°F24.9°C 82% 11.0 mph SW17.7 kmh SW 14.0 mph22.5 kmh 29.90 in1012.5 mb 0.00 in0.0 mm 0.00 in0.0 mm 0.00 in0.0 mm
01:02 AM 82.9°F28.3°C 76.8°F24.9°C 82% 9.0 mph SW14.5 kmh SW 14.0 mph22.5 kmh 29.90 in1012.5 mb 0.00 in0.0 mm 0.00 in0.0 mm 0.00 in0.0 mm
01:01 AM 82.9°F28.3°C 76.8°F24.9°C 82% 14.0 mph WSW22.5 kmh WSW 14.0 mph22.5 kmh 29.90 in1012.5 mb 0.00 in0.0 mm 0.00 in0.0 mm 0.00 in0.0 mm
01:00 AM 82.9°F28.3°C 76.8°F24.9°C 82% 9.0 mph WSW14.5 kmh WSW 13.0 mph20.9 kmh 29.90 in1012.5 mb 0.00 in0.0 mm 0.00 in0.0 mm 0.00 in0.0 mm
12:59 AM 82.9°F28.3°C 76.8°F24.9°C 82% 9.0 mph WSW14.5 kmh WSW 13.0 mph20.9 kmh 29.90 in1012.5 mb 0.00 in0.0 mm 0.00 in0.0 mm 0.00 in0.0 mm
12:58 AM 82.9°F28.3°C 76.8°F24.9°C 82% 7.0 mph SW11.3 kmh SW 13.0 mph20.9 kmh 29.90 in1012.5 mb 0.00 in0.0 mm 0.00 in0.0 mm 0.00 in0.0 mm
12:57 AM 82.9°F28.3°C 77.2°F25.1°C 83% 9.0 mph WSW14.5 kmh WSW 13.0 mph20.9 kmh 29.90 in1012.5 mb 0.00 in0.0 mm 0.00 in0.0 mm 0.00 in0.0 mm
12:56 AM 82.9°F28.3°C 77.2°F25.1°C 83% 12.0 mph SW19.3 kmh SW 13.0 mph20.9 kmh 29.90 in1012.5 mb 0.00 in0.0 mm 0.00 in0.0 mm 0.00 in0.0 mm
12:55 AM 82.9°F28.3°C 77.2°F25.1°C 83% 10.0 mph WSW16.1 kmh WSW 13.0 mph20.9 kmh 29.90 in1012.5 mb 0.00 in0.0 mm 0.00 in0.0 mm 0.00 in0.0 mm
12:54 AM 82.9°F28.3°C 77.2°F25.1°C 83% 12.0 mph WSW19.3 kmh WSW 13.0 mph20.9 kmh 29.90 in1012.5 mb 0.00 in0.0 mm 0.00 in0.0 mm 0.00 in0.0 mm
12:53 AM 82.9°F28.3°C 77.2°F25.1°C 83% 4.0 mph SSW6.4 kmh SSW 13.0 mph20.9 kmh 29.90 in1012.5 mb 0.00 in0.0 mm 0.00 in0.0 mm 0.00 in0.0 mm
12:52 AM 82.9°F28.3°C 77.2°F25.1°C 83% 7.0 mph W11.3 kmh W 13.0 mph20.9 kmh 29.90 in1012.5 mb 0.00 in0.0 mm 0.00 in0.0 mm 0.00 in0.0 mm
12:51 AM 82.9°F28.3°C 77.2°F25.1°C 83% 9.0 mph WSW14.5 kmh WSW 14.0 mph22.5 kmh 29.90 in1012.5 mb 0.00 in0.0 mm 0.00 in0.0 mm 0.00 in0.0 mm
12:50 AM 82.9°F28.3°C 77.2°F25.1°C 83% 7.0 mph WSW11.3 kmh WSW 14.0 mph22.5 kmh 29.90 in1012.5 mb 0.00 in0.0 mm 0.00 in0.0 mm 0.00 in0.0 mm
12:49 AM 82.9°F28.3°C 77.2°F25.1°C 83% 7.0 mph SW11.3 kmh SW 14.0 mph22.5 kmh 29.90 in1012.5 mb 0.00 in0.0 mm 0.00 in0.0 mm 0.00 in0.0 mm
12:48 AM 83.0°F28.3°C 77.3°F25.2°C 83% 5.0 mph WSW8.0 kmh WSW 14.0 mph22.5 kmh 29.90 in1012.5 mb 0.00 in0.0 mm 0.00 in0.0 mm 0.00 in0.0 mm
12:47 AM 82.9°F28.3°C 77.2°F25.1°C 83% 10.0 mph WSW16.1 kmh WSW 14.0 mph22.5 kmh 29.90 in1012.5 mb 0.00 in0.0 mm 0.00 in0.0 mm 0.00 in0.0 mm
12:46 AM 82.9°F28.3°C 77.2°F25.1°C 83% 8.0 mph WSW12.9 kmh WSW 14.0 mph22.5 kmh 29.90 in1012.5 mb 0.00 in0.0 mm 0.00 in0.0 mm 0.00 in0.0 mm
12:45 AM 82.9°F28.3°C 77.2°F25.1°C 83% 7.0 mph WSW11.3 kmh WSW 14.0 mph22.5 kmh 29.90 in1012.5 mb 0.00 in0.0 mm 0.00 in0.0 mm 0.00 in0.0 mm
12:44 AM 82.9°F28.3°C 77.2°F25.1°C 83% 7.0 mph SW11.3 kmh SW 14.0 mph22.5 kmh 29.91 in1012.9 mb 0.00 in0.0 mm 0.00 in0.0 mm 0.00 in0.0 mm
12:43 AM 82.9°F28.3°C 77.2°F25.1°C 83% 6.0 mph SW9.7 kmh SW 14.0 mph22.5 kmh 29.90 in1012.5 mb 0.00 in0.0 mm 0.00 in0.0 mm 0.00 in0.0 mm
12:42 AM 82.9°F28.3°C 77.2°F25.1°C 83% 10.0 mph WSW16.1 kmh WSW 14.0 mph22.5 kmh 29.91 in1012.9 mb 0.00 in0.0 mm 0.00 in0.0 mm 0.00 in0.0 mm
12:41 AM 82.9°F28.3°C 77.2°F25.1°C 83% 11.0 mph WSW17.7 kmh WSW 12.0 mph19.3 kmh 29.91 in1012.9 mb 0.00 in0.0 mm 0.00 in0.0 mm 0.00 in0.0 mm
12:40 AM 82.9°F28.3°C 77.2°F25.1°C 83% 11.0 mph WSW17.7 kmh WSW 12.0 mph19.3 kmh 29.91 in1012.9 mb 0.00 in0.0 mm 0.00 in0.0 mm 0.00 in0.0 mm
12:39 AM 82.9°F28.3°C 77.2°F25.1°C 83% 8.0 mph WSW12.9 kmh WSW 12.0 mph19.3 kmh 29.91 in1012.9 mb 0.00 in0.0 mm 0.00 in0.0 mm 0.00 in0.0 mm
12:38 AM 82.9°F28.3°C 77.2°F25.1°C 83% 3.0 mph SW4.8 kmh SW 12.0 mph19.3 kmh 29.91 in1012.9 mb 0.00 in0.0 mm 0.00 in0.0 mm 0.00 in0.0 mm
12:37 AM 83.0°F28.3°C 77.3°F25.2°C 83% 9.0 mph WSW14.5 kmh WSW 12.0 mph19.3 kmh 29.91 in1012.9 mb 0.00 in0.0 mm 0.00 in0.0 mm 0.00 in0.0 mm
12:36 AM 83.0°F28.3°C 77.3°F25.2°C 83% Calm Calm 12.0 mph19.3 kmh 29.91 in1012.9 mb 0.00 in0.0 mm 0.00 in0.0 mm 0.00 in0.0 mm
12:35 AM 83.0°F28.3°C 77.3°F25.2°C 83% 10.0 mph WSW16.1 kmh WSW 15.0 mph24.1 kmh 29.91 in1012.9 mb 0.00 in0.0 mm 0.00 in0.0 mm 0.00 in0.0 mm
12:34 AM 83.0°F28.3°C 77.3°F25.2°C 83% 9.0 mph WSW14.5 kmh WSW 15.0 mph24.1 kmh 29.91 in1012.9 mb 0.00 in0.0 mm 0.00 in0.0 mm 0.00 in0.0 mm
12:33 AM 83.0°F28.3°C 77.3°F25.2°C 83% 9.0 mph WSW14.5 kmh WSW 15.0 mph24.1 kmh 29.91 in1012.9 mb 0.00 in0.0 mm 0.00 in0.0 mm 0.00 in0.0 mm
12:32 AM 83.0°F28.3°C 77.3°F25.2°C 83% 8.0 mph SW12.9 kmh SW 15.0 mph24.1 kmh 29.90 in1012.5 mb 0.00 in0.0 mm 0.00 in0.0 mm 0.00 in0.0 mm
12:31 AM 83.0°F28.3°C 77.3°F25.2°C 83% 9.0 mph WSW14.5 kmh WSW 15.0 mph24.1 kmh 29.90 in1012.5 mb 0.00 in0.0 mm 0.00 in0.0 mm 0.00 in0.0 mm
12:30 AM 83.0°F28.3°C 77.7°F25.4°C 84% 8.0 mph SW12.9 kmh SW 15.0 mph24.1 kmh 29.90 in1012.5 mb 0.00 in0.0 mm 0.00 in0.0 mm 0.00 in0.0 mm
12:29 AM 83.0°F28.3°C 77.7°F25.4°C 84% 10.0 mph WSW16.1 kmh WSW 15.0 mph24.1 kmh 29.91 in1012.9 mb 0.00 in0.0 mm 0.00 in0.0 mm 0.00 in0.0 mm
12:28 AM 83.0°F28.3°C 77.7°F25.4°C 84% 7.0 mph WSW11.3 kmh WSW 15.0 mph24.1 kmh 29.90 in1012.5 mb 0.00 in0.0 mm 0.00 in0.0 mm 0.00 in0.0 mm
12:27 AM 83.0°F28.3°C 77.7°F25.4°C 84% 9.0 mph WSW14.5 kmh WSW 15.0 mph24.1 kmh 29.91 in1012.9 mb 0.00 in0.0 mm 0.00 in0.0 mm 0.00 in0.0 mm
12:26 AM 82.9°F28.3°C 77.6°F25.3°C 84% 6.0 mph SW9.7 kmh SW 13.0 mph20.9 kmh 29.91 in1012.9 mb 0.00 in0.0 mm 0.00 in0.0 mm 0.00 in0.0 mm
12:25 AM 82.9°F28.3°C 77.6°F25.3°C 84% 11.0 mph WSW17.7 kmh WSW 13.0 mph20.9 kmh 29.91 in1012.9 mb 0.00 in0.0 mm 0.00 in0.0 mm 0.00 in0.0 mm
12:24 AM 82.9°F28.3°C 77.6°F25.3°C 84% 4.0 mph SW6.4 kmh SW 13.0 mph20.9 kmh 29.91 in1012.9 mb 0.00 in0.0 mm 0.00 in0.0 mm 0.00 in0.0 mm
12:23 AM 83.0°F28.3°C 77.7°F25.4°C 84% 7.0 mph SW11.3 kmh SW 13.0 mph20.9 kmh 29.91 in1012.9 mb 0.00 in0.0 mm 0.00 in0.0 mm 0.00 in0.0 mm
12:22 AM 83.0°F28.3°C 77.7°F25.4°C 84% 5.0 mph S8.0 kmh S 13.0 mph20.9 kmh 29.91 in1012.9 mb 0.00 in0.0 mm 0.00 in0.0 mm 0.00 in0.0 mm
12:21 AM 82.9°F28.3°C 77.6°F25.3°C 84% 4.0 mph WSW6.4 kmh WSW 13.0 mph20.9 kmh 29.91 in1012.9 mb 0.00 in0.0 mm 0.00 in0.0 mm 0.00 in0.0 mm
12:20 AM 82.9°F28.3°C 77.6°F25.3°C 84% 10.0 mph WSW16.1 kmh WSW 13.0 mph20.9 kmh 29.91 in1012.9 mb 0.00 in0.0 mm 0.00 in0.0 mm 0.00 in0.0 mm
12:19 AM 82.8°F28.2°C 77.5°F25.3°C 84% 8.0 mph WSW12.9 kmh WSW 13.0 mph20.9 kmh 29.90 in1012.5 mb 0.00 in0.0 mm 0.00 in0.0 mm 0.00 in0.0 mm
12:18 AM 82.8°F28.2°C 77.5°F25.3°C 84% 3.0 mph WSW4.8 kmh WSW 13.0 mph20.9 kmh 29.90 in1012.5 mb 0.00 in0.0 mm 0.00 in0.0 mm 0.00 in0.0 mm
12:17 AM 82.8°F28.2°C 77.5°F25.3°C 84% 4.0 mph WSW6.4 kmh WSW 13.0 mph20.9 kmh 29.90 in1012.5 mb 0.00 in0.0 mm 0.00 in0.0 mm 0.00 in0.0 mm
12:16 AM 82.8°F28.2°C 77.5°F25.3°C 84% 5.0 mph WSW8.0 kmh WSW 13.0 mph20.9 kmh 29.90 in1012.5 mb 0.00 in0.0 mm 0.00 in0.0 mm 0.00 in0.0 mm
12:15 AM 82.8°F28.2°C 77.5°F25.3°C 84% 6.0 mph SW9.7 kmh SW 13.0 mph20.9 kmh 29.90 in1012.5 mb 0.00 in0.0 mm 0.00 in0.0 mm 0.00 in0.0 mm
12:14 AM 82.8°F28.2°C 77.8°F25.4°C 85% 8.0 mph WSW12.9 kmh WSW 13.0 mph20.9 kmh 29.91 in1012.9 mb 0.00 in0.0 mm 0.00 in0.0 mm 0.00 in0.0 mm
12:13 AM 82.9°F28.3°C 77.9°F25.5°C 85% 7.0 mph SW11.3 kmh SW 13.0 mph20.9 kmh 29.91 in1012.9 mb 0.00 in0.0 mm 0.00 in0.0 mm 0.00 in0.0 mm
12:12 AM 82.9°F28.3°C 77.9°F25.5°C 85% 8.0 mph SW12.9 kmh SW 13.0 mph20.9 kmh 29.91 in1012.9 mb 0.00 in0.0 mm 0.00 in0.0 mm 0.00 in0.0 mm
12:11 AM 82.8°F28.2°C 77.8°F25.4°C 85% 8.0 mph SW12.9 kmh SW 13.0 mph20.9 kmh 29.91 in1012.9 mb 0.00 in0.0 mm 0.00 in0.0 mm 0.00 in0.0 mm
12:10 AM 82.8°F28.2°C 77.8°F25.4°C 85% 6.0 mph SW9.7 kmh SW 13.0 mph20.9 kmh 29.91 in1012.9 mb 0.00 in0.0 mm 0.00 in0.0 mm 0.00 in0.0 mm
12:09 AM 82.8°F28.2°C 77.8°F25.4°C 85% 9.0 mph SW14.5 kmh SW 13.0 mph20.9 kmh 29.91 in1012.9 mb 0.00 in0.0 mm 0.00 in0.0 mm 0.00 in0.0 mm
12:08 AM 82.8°F28.2°C 77.8°F25.4°C 85% 9.0 mph SW14.5 kmh SW 13.0 mph20.9 kmh 29.91 in1012.9 mb 0.00 in0.0 mm 0.00 in0.0 mm 0.00 in0.0 mm
12:07 AM 82.8°F28.2°C 77.8°F25.4°C 85% 11.0 mph WSW17.7 kmh WSW 13.0 mph20.9 kmh 29.91 in1012.9 mb 0.00 in0.0 mm 0.00 in0.0 mm 0.00 in0.0 mm
12:06 AM 82.8°F28.2°C 77.8°F25.4°C 85% 9.0 mph WSW14.5 kmh WSW 13.0 mph20.9 kmh 29.91 in1012.9 mb 0.00 in0.0 mm 0.00 in0.0 mm 0.00 in0.0 mm
12:05 AM 82.8°F28.2°C 77.5°F25.3°C 84% 6.0 mph SW9.7 kmh SW 13.0 mph20.9 kmh 29.91 in1012.9 mb 0.00 in0.0 mm 0.00 in0.0 mm 0.00 in0.0 mm
12:04 AM 82.8°F28.2°C 77.5°F25.3°C 84% 7.0 mph SW11.3 kmh SW 13.0 mph20.9 kmh 29.91 in1012.9 mb 0.00 in0.0 mm 0.00 in0.0 mm 0.00 in0.0 mm
12:03 AM 82.8°F28.2°C 77.5°F25.3°C 84% 12.0 mph WSW19.3 kmh WSW 13.0 mph20.9 kmh 29.91 in1012.9 mb 0.00 in0.0 mm 0.00 in0.0 mm 0.00 in0.0 mm
12:02 AM 82.8°F28.2°C 77.5°F25.3°C 84% 7.0 mph SW11.3 kmh SW 13.0 mph20.9 kmh 29.91 in1012.9 mb 0.00 in0.0 mm 0.00 in0.0 mm 0.00 in0.0 mm
12:01 AM 82.8°F28.2°C 77.5°F25.3°C 84% 8.0 mph SW12.9 kmh SW 13.0 mph20.9 kmh 29.91 in1012.9 mb 0.00 in0.0 mm 0.00 in0.0 mm 0.00 in0.0 mm
12:00 AM 82.8°F28.2°C 77.5°F25.3°C 84% 10.0 mph WSW16.1 kmh WSW 12.0 mph19.3 kmh 29.91 in1012.9 mb 0.00 in0.0 mm 0.00 in0.0 mm 0.00 in0.0 mm